Provisional Data: South Branch Codorus Creek near Leader Heights, PA


Please select a monitoring station.
Please select start date.
Please select start date.

Toggle Unit: C/F Toggle Unit: C/F
Sample Time Temperature (C) Temperature (F) Specific Conductivity (mS/cm) pH   Turbidity (NTU+) DO (mg/L)
8/1/2022 12:00:00 AM 21.76 71.168 0.161 7.11 101.1 7.68
8/1/2022 12:15:00 AM 21.8 71.24 0.161 7.12 86.69 7.67
8/1/2022 12:30:00 AM 21.79 71.222 0.161 7.11 97.26 7.69
8/1/2022 12:45:00 AM 21.8 71.24 0.16 7.1 93.41 7.69
8/1/2022 1:00:00 AM 21.78 71.204 0.16 7.11 111.5 7.7
8/1/2022 1:15:00 AM 21.77 71.186 0.16 7.13 98.64 7.71
8/1/2022 1:30:00 AM 21.75 71.15 0.16 7.11 121.4 7.71
8/1/2022 1:45:00 AM 21.75 71.15 0.159 7.13 112.9 7.72
8/1/2022 2:00:00 AM 21.73 71.114 0.159 7.13 104.7 7.74
8/1/2022 2:15:00 AM 21.68 71.024 0.159 7.14 96.3 7.74
8/1/2022 2:30:00 AM 21.65 70.97 0.159 7.14 100.9 7.76
8/1/2022 2:45:00 AM 21.61 70.898 0.159 7.14 101.6 7.76
8/1/2022 3:00:00 AM 21.58 70.844 0.159 7.14 109.2 7.78
8/1/2022 3:15:00 AM 21.54 70.772 0.158 7.15 98.45 7.78
8/1/2022 3:30:00 AM 21.52 70.736 0.158 7.15 114.7 7.78
8/1/2022 3:45:00 AM 21.49 70.682 0.158 7.15 113.4 7.79
8/1/2022 4:00:00 AM 21.48 70.664 0.158 7.16 125.3 7.8
8/1/2022 4:15:00 AM 21.43 70.574 0.158 7.17 117 7.81
8/1/2022 4:30:00 AM 21.4 70.52 0.158 7.16 97.72 7.82
8/1/2022 4:45:00 AM 21.33 70.394 0.158 7.18 107.8 7.83
8/1/2022 5:00:00 AM 21.27 70.286 0.158 7.18 99.62 7.84
8/1/2022 5:15:00 AM 21.2 70.16 0.158 7.19 113.1 7.85
8/1/2022 5:30:00 AM 21.14 70.052 0.158 7.18 108 7.86
8/1/2022 5:45:00 AM 21.1 69.98 0.158 7.18 111.6 7.87
8/1/2022 6:00:00 AM 21.05 69.89 0.158 7.2 120 7.89
8/1/2022 6:15:00 AM 21.01 69.818 0.157 7.2 112.6 7.89
8/1/2022 6:30:00 AM 20.96 69.728 0.157 7.2 107.4 7.91
8/1/2022 6:45:00 AM 20.93 69.674 0.157 7.21 108.1 7.92
8/1/2022 7:00:00 AM 20.91 69.638 0.157 7.22 108 7.94
8/1/2022 7:15:00 AM 20.88 69.584 0.157 7.23 113.1 7.94
8/1/2022 7:30:00 AM 20.86 69.548 0.157 7.23 107.8 7.95
8/1/2022 7:45:00 AM 20.84 69.512 0.157 7.23 107.2 7.96
8/1/2022 8:00:00 AM 20.81 69.458 0.157 7.23 98.24 7.97
8/1/2022 8:15:00 AM 20.78 69.404 0.157 7.24 113.1 7.98
8/1/2022 8:30:00 AM 20.76 69.368 0.157 7.24 111.5 8
8/1/2022 8:45:00 AM 20.75 69.35 0.157 7.23 98.63 8
8/1/2022 9:00:00 AM 20.75 69.35 0.156 7.24 98.82 8.03
8/1/2022 9:15:00 AM 20.77 69.386 0.156 7.24 78.69 8.04
8/1/2022 9:30:00 AM 20.8 69.44 0.156 7.24 85.44 8.06
8/1/2022 9:45:00 AM 20.82 69.476 0.156 7.25 85.25 8.07
8/1/2022 10:00:00 AM 20.84 69.512 0.156 7.26 74.99 8.1
8/1/2022 10:15:00 AM 20.89 69.602 0.156 7.26 76.4 8.12
8/1/2022 10:30:00 AM 20.95 69.71 0.156 7.26 69 8.17
8/1/2022 10:45:00 AM 21.01 69.818 0.156 7.26 75.01 8.17
8/1/2022 11:00:00 AM 21.09 69.962 0.156 7.27 83.51 8.16
8/1/2022 11:15:00 AM 21.16 70.088 0.155 7.27 76.8 8.16
8/1/2022 11:30:00 AM 21.22 70.196 0.155 7.27 90.39 8.16
8/1/2022 11:45:00 AM 21.3 70.34 0.155 7.29 93.9 8.14
8/1/2022 12:00:00 PM 21.39 70.502 0.155 7.29 88.93 8.15
8/1/2022 12:15:00 PM 21.5 70.7 0.155 7.29 96.52 8.13
8/1/2022 12:30:00 PM 21.65 70.97 0.155 7.28 95.46 8.13
8/1/2022 12:45:00 PM 21.79 71.222 0.155 7.29 83.68 8.13
8/1/2022 1:00:00 PM 21.9 71.42 0.155 7.3 89.55 8.11
8/1/2022 1:15:00 PM 22.05 71.69 0.154 7.31 81.65 8.12
8/1/2022 1:30:00 PM 22.09 71.762 0.155 7.32 78.3 8.16
8/1/2022 1:45:00 PM 22.13 71.834 0.155 7.32 69.11 8.18
8/1/2022 2:00:00 PM 22.19 71.942 0.154 7.33 77.24 8.17
8/1/2022 2:15:00 PM 22.27 72.086 0.154 7.35 68.78 8.2
8/1/2022 2:30:00 PM 22.35 72.23 0.154 7.35 72.8 8.25
8/1/2022 2:45:00 PM 22.43 72.374 0.154 7.36 76.95 8.25
8/1/2022 3:00:00 PM 22.53 72.554 0.154 7.36 82.67 8.26
8/1/2022 3:15:00 PM 22.61 72.698 0.155 7.36 75.1 8.27
8/1/2022 3:30:00 PM 22.76 72.968 0.154 7.37 71.12 8.29
8/1/2022 3:45:00 PM 22.84 73.112 0.155 7.37 74.04 8.25
8/1/2022 4:00:00 PM 22.94 73.292 0.155 7.37 64.86 8.21
8/1/2022 4:15:00 PM 23 73.4 0.155 7.38 71.43 8.19
8/1/2022 4:30:00 PM 23.07 73.526 0.155 7.39 72.8 8.16
8/1/2022 4:45:00 PM 23.19 73.742 0.155 7.38 76.17 8.14
8/1/2022 5:00:00 PM 23.31 73.958 0.155 7.37 71.35 8.1
8/1/2022 5:15:00 PM 23.42 74.156 0.155 7.38 77.61 8.05
8/1/2022 5:30:00 PM 23.47 74.246 0.155 7.39 65.09 8.03
8/1/2022 5:45:00 PM 23.52 74.336 0.155 7.39 77.12 7.98
8/1/2022 6:00:00 PM 23.6 74.48 0.155 7.37 75.18 7.9
8/1/2022 6:15:00 PM 23.62 74.516 0.155 7.39 71.34 7.89
8/1/2022 6:30:00 PM 23.59 74.462 0.155 7.38 99.49 7.84
8/1/2022 6:45:00 PM 23.62 74.516 0.155 7.38 77.18 7.83
8/1/2022 7:00:00 PM 23.56 74.408 0.155 7.37 79.42 7.79
8/1/2022 7:15:00 PM 23.52 74.336 0.155 7.35 96.13 7.77
8/1/2022 7:30:00 PM 23.47 74.246 0.154 7.36 87.54 7.75
8/1/2022 7:45:00 PM 23.38 74.084 0.155 7.36 82.15 7.73
8/1/2022 8:00:00 PM 23.33 73.994 0.154 7.35 74.62 7.72
8/1/2022 8:15:00 PM 23.25 73.85 0.154 7.35 97.89 7.7
8/1/2022 8:30:00 PM 23.14 73.652 0.154 7.35 90.42 7.68
8/1/2022 8:45:00 PM 23.06 73.508 0.154 7.35 93.55 7.68
8/1/2022 9:00:00 PM 22.96 73.328 0.154 7.35 90.94 7.66
8/1/2022 9:15:00 PM 22.85 73.13 0.154 7.33 89.99 7.64
8/1/2022 9:30:00 PM 22.75 72.95 0.154 7.33 100.9 7.64
8/1/2022 9:45:00 PM 22.65 72.77 0.154 7.32 102.3 7.65
8/1/2022 10:00:00 PM 22.59 72.662 0.154 7.32 85.83 7.64
8/1/2022 10:15:00 PM 22.53 72.554 0.154 7.32 102.1 7.64
8/1/2022 10:30:00 PM 22.49 72.482 0.153 7.32 89.54 7.63
8/1/2022 10:45:00 PM 22.44 72.392 0.153 7.31 83.08 7.62
8/1/2022 11:00:00 PM 22.4 72.32 0.153 7.32 94.31 7.62
8/1/2022 11:15:00 PM 22.36 72.248 0.153 7.3 84.08 7.62
8/1/2022 11:30:00 PM 22.32 72.176 0.153 7.3 89.57 7.63
8/1/2022 11:45:00 PM 22.3 72.14 0.153 7.31 92.27 7.63
8/2/2022 12:00:00 AM 22.28 72.104 0.153 7.31 87.48 7.62
8/2/2022 12:15:00 AM 22.27 72.086 0.153 7.31 84.97 7.62
8/2/2022 12:30:00 AM 22.25 72.05 0.153 7.31 85.88 7.64
8/2/2022 12:45:00 AM 22.25 72.05 0.153 7.32 91.76 7.66
8/2/2022 1:00:00 AM 22.25 72.05 0.153 7.31 98.59 7.67
8/2/2022 1:15:00 AM 22.25 72.05 0.153 7.3 103.6 7.68
8/2/2022 1:30:00 AM 22.27 72.086 0.153 7.3 112.5 7.64
8/2/2022 1:45:00 AM 22.27 72.086 0.153 7.3 101.9 7.64
8/2/2022 2:00:00 AM 22.26 72.068 0.153 7.28 107.8 7.64
8/2/2022 2:15:00 AM 22.25 72.05 0.153 7.3 131.4 7.63
8/2/2022 2:30:00 AM 22.25 72.05 0.153 7.3 142.7 7.64
8/2/2022 2:45:00 AM 22.23 72.014 0.153 7.3 123.5 7.64
8/2/2022 3:00:00 AM 22.2 71.96 0.153 7.28 126.9 7.65
8/2/2022 3:15:00 AM 22.15 71.87 0.153 7.28 142.2 7.64
8/2/2022 3:30:00 AM 22.11 71.798 0.153 7.29 118.9 7.65
8/2/2022 3:45:00 AM 22.09 71.762 0.153 7.27 118 7.65
8/2/2022 4:00:00 AM 22.07 71.726 0.153 7.29 110.4 7.64
8/2/2022 4:15:00 AM 22.07 71.726 0.153 7.29 111.6 7.62
8/2/2022 4:30:00 AM 22.05 71.69 0.153 7.29 103.7 7.63
8/2/2022 4:45:00 AM 22.03 71.654 0.153 7.28 97.67 7.64
8/2/2022 5:00:00 AM 22.01 71.618 0.153 7.27 98.29 7.63
8/2/2022 5:15:00 AM 21.97 71.546 0.153 7.28 98.19 7.64
8/2/2022 5:30:00 AM 21.94 71.492 0.153 7.27 100.3 7.64
8/2/2022 5:45:00 AM 21.91 71.438 0.153 7.27 92.81 7.63
8/2/2022 6:00:00 AM 21.87 71.366 0.153 7.25 95.07 7.65
8/2/2022 6:15:00 AM 21.85 71.33 0.153 7.26 86.59 7.66
8/2/2022 6:30:00 AM 21.81 71.258 0.153 7.25 88.05 7.66
8/2/2022 6:45:00 AM 21.79 71.222 0.153 7.24 87.86 7.67
8/2/2022 7:00:00 AM 21.78 71.204 0.153 7.25 85.12 7.67
8/2/2022 7:15:00 AM 21.78 71.204 0.153 7.25 74.62 7.69
8/2/2022 7:30:00 AM 21.78 71.204 0.153 7.24 73.07 7.71
8/2/2022 7:45:00 AM 21.79 71.222 0.153 7.27 70.58 7.72
8/2/2022 8:00:00 AM 21.83 71.294 0.153 7.28 70.33 7.74
8/2/2022 8:15:00 AM 21.87 71.366 0.153 7.27 68.3 7.75
8/2/2022 8:30:00 AM 21.9 71.42 0.153 7.28 57.96 7.77
8/2/2022 8:45:00 AM 21.96 71.528 0.153 7.28 62.05 7.81
8/2/2022 9:00:00 AM 22 71.6 0.153 7.29 52.58 7.84
8/2/2022 9:15:00 AM 22.09 71.762 0.153 7.29 53.61 7.88
8/2/2022 9:30:00 AM 22.15 71.87 0.153 7.3 51.43 7.94
8/2/2022 9:45:00 AM 22.21 71.978 0.153 7.3 43.68 7.97
8/2/2022 10:00:00 AM 22.28 72.104 0.153 7.31 52.34 8.02
8/2/2022 10:15:00 AM 22.42 72.356 0.153 7.32 44.34 8.05
8/2/2022 10:30:00 AM 22.58 72.644 0.153 7.32 39.83 8.1
8/2/2022 10:45:00 AM 22.76 72.968 0.154 7.32 36.64 8.13
8/2/2022 11:00:00 AM 22.95 73.31 0.154 7.33 48.99 8.17
8/2/2022 11:15:00 AM 23.12 73.616 0.154 7.34 37.83 8.2
8/2/2022 11:30:00 AM 23.28 73.904 0.154 7.31 38.18 8.24
8/2/2022 11:45:00 AM 23.46 74.228 0.154 7.31 32.75 8.28
8/2/2022 12:00:00 PM 23.66 74.588 0.154 7.33 29.99 8.31
8/2/2022 12:15:00 PM 23.79 74.82201 0.155 7.34 32.17 8.32
8/2/2022 12:30:00 PM 24 75.2 0.155 7.33 26.34 8.32
8/2/2022 12:45:00 PM 24.15 75.47 0.155 7.34 29.02 8.34
8/2/2022 1:00:00 PM 24.43 75.974 0.155 7.36 29.64 8.35
8/2/2022 1:15:00 PM 24.67 76.406 0.155 7.36 26.31 8.37
8/2/2022 1:30:00 PM 24.99 76.982 0.155 7.35 33.05 8.32
8/2/2022 1:45:00 PM 25.32 77.576 0.156 7.34 38.57 8.26
8/2/2022 2:00:00 PM 25.48 77.864 0.156 7.35 72.2 8.18
8/2/2022 2:15:00 PM 25.65 78.17 0.156 7.35 108.5 8.06
8/2/2022 2:30:00 PM 25.65 78.17 0.157 7.36 128 8.01
8/2/2022 2:45:00 PM 25.67 78.206 0.157 7.36 148.6 8.01
8/2/2022 3:00:00 PM 25.8 78.44 0.157 7.36 126 7.97
8/2/2022 3:15:00 PM 25.83 78.494 0.157 7.36 147.2 7.96
8/2/2022 3:30:00 PM 25.93 78.674 0.157 7.35 125.4 7.95
8/2/2022 3:45:00 PM 25.93 78.674 0.157 7.37 113.1 7.92
8/2/2022 4:00:00 PM 25.89 78.602 0.158 7.35 129 7.92
8/2/2022 4:15:00 PM 25.92 78.656 0.158 7.37 124.2 7.89
8/2/2022 4:30:00 PM 25.92 78.656 0.158 7.35 101.2 7.87
8/2/2022 4:45:00 PM 25.88 78.584 0.158 7.36 112.7 7.87
8/2/2022 5:00:00 PM 25.89 78.602 0.158 7.34 107.7 7.82
8/2/2022 5:15:00 PM 25.85 78.53 0.158 7.36 108.1 7.82
8/2/2022 5:30:00 PM 25.81 78.458 0.158 7.36 120.4 7.78
8/2/2022 5:45:00 PM 25.77 78.386 0.158 7.35 114.6 7.75
8/2/2022 6:00:00 PM 25.72 78.296 0.158 7.36 105.4 7.73
8/2/2022 6:15:00 PM 25.63 78.134 0.158 7.36 117.6 7.71
8/2/2022 6:30:00 PM 25.54 77.972 0.158 7.36 105.7 7.68
8/2/2022 6:45:00 PM 25.41 77.738 0.158 7.36 109.3 7.66
8/2/2022 7:00:00 PM 25.31 77.558 0.158 7.37 99.78 7.64
8/2/2022 7:15:00 PM 25.19 77.342 0.158 7.38 106.2 7.61
8/2/2022 7:30:00 PM 25.08 77.144 0.158 7.39 112.6 7.6
8/2/2022 7:45:00 PM 24.99 76.982 0.158 7.38 102.8 7.59
8/2/2022 8:00:00 PM 24.88 76.784 0.158 7.37 104.2 7.59
8/2/2022 8:15:00 PM 24.77 76.586 0.158 7.37 101.1 7.57
8/2/2022 8:30:00 PM 24.65 76.37 0.158 7.37 114 7.56
8/2/2022 8:45:00 PM 24.54 76.172 0.158 7.38 110.4 7.54
8/2/2022 9:00:00 PM 24.41 75.938 0.158 7.38 98.41 7.53
8/2/2022 9:15:00 PM 24.3 75.74 0.158 7.38 116.7 7.53
8/2/2022 9:30:00 PM 24.21 75.578 0.158 7.37 116.4 7.53
8/2/2022 9:45:00 PM 24.13 75.434 0.158 7.35 119.5 7.52
8/2/2022 10:00:00 PM 24.07 75.326 0.158 7.33 113.7 7.51
8/2/2022 10:15:00 PM 24.01 75.218 0.158 7.35 110.3 7.51
8/2/2022 10:30:00 PM 23.97 75.146 0.158 7.35 118.9 7.5
8/2/2022 10:45:00 PM 23.93 75.074 0.158 7.36 111.8 7.49
8/2/2022 11:00:00 PM 23.91 75.038 0.158 7.33 120.4 7.49
8/2/2022 11:15:00 PM 23.89 75.002 0.158 7.32 118.8 7.48
8/2/2022 11:30:00 PM 23.86 74.948 0.158 7.32 118.3 7.49
8/2/2022 11:45:00 PM 23.83 74.894 0.158 7.31 125.4 7.48
8/3/2022 12:00:00 AM 23.81 74.858 0.158 7.33 109 7.48
8/3/2022 12:15:00 AM 23.79 74.82201 0.158 7.35 111.6 7.47
8/3/2022 12:30:00 AM 23.77 74.786 0.158 7.34 112.1 7.47
8/3/2022 12:45:00 AM 23.74 74.732 0.158 7.33 109 7.46
8/3/2022 1:00:00 AM 23.7 74.66 0.158 7.33 104.6 7.46
8/3/2022 1:15:00 AM 23.68 74.624 0.158 7.33 112.3 7.47
8/3/2022 1:30:00 AM 23.68 74.624 0.158 7.33 99.52 7.48
8/3/2022 1:45:00 AM 23.66 74.588 0.158 7.33 104.8 7.48
8/3/2022 2:00:00 AM 23.63 74.534 0.158 7.33 112.9 7.48
8/3/2022 2:15:00 AM 23.6 74.48 0.158 7.32 102.6 7.48
8/3/2022 2:30:00 AM 23.56 74.408 0.158 7.33 103.1 7.48
8/3/2022 2:45:00 AM 23.52 74.336 0.158 7.32 120.5 7.47
8/3/2022 3:00:00 AM 23.49 74.282 0.158 7.32 111.4 7.49
8/3/2022 3:15:00 AM 23.48 74.264 0.158 7.32 104.5 7.48
8/3/2022 3:30:00 AM 23.48 74.264 0.158 7.32 120.4 7.5
8/3/2022 3:45:00 AM 23.47 74.246 0.158 7.32 102.6 7.5
8/3/2022 4:00:00 AM 23.46 74.228 0.158 7.31 102.9 7.51
8/3/2022 4:15:00 AM 23.41 74.138 0.158 7.3 98.84 7.52
8/3/2022 4:30:00 AM 23.37 74.066 0.158 7.3 108.3 7.51
8/3/2022 4:45:00 AM 23.33 73.994 0.158 7.31 99.5 7.52
8/3/2022 5:00:00 AM 23.29 73.922 0.158 7.31 111.8 7.53
8/3/2022 5:15:00 AM 23.26 73.868 0.158 7.31 97.37 7.53
8/3/2022 5:30:00 AM 23.24 73.832 0.158 7.31 107 7.53
8/3/2022 5:45:00 AM 23.21 73.778 0.158 7.3 104.9 7.53
8/3/2022 6:00:00 AM 23.18 73.724 0.158 7.3 94.93 7.54
8/3/2022 6:15:00 AM 23.15 73.67 0.158 7.3 96.34 7.56
8/3/2022 6:30:00 AM 23.12 73.616 0.158 7.28 89.65 7.56
8/3/2022 6:45:00 AM 23.06 73.508 0.158 7.3 91.56 7.59
8/3/2022 7:00:00 AM 23.02 73.436 0.158 7.27 93.43 7.59
8/3/2022 7:15:00 AM 23.01 73.418 0.158 7.29 87.53 7.61
8/3/2022 7:30:00 AM 22.98 73.364 0.158 7.28 86.56 7.62
8/3/2022 7:45:00 AM 22.98 73.364 0.158 7.29 65.87 7.62
8/3/2022 8:00:00 AM 23.02 73.436 0.158 7.29 78.84 7.64
8/3/2022 8:15:00 AM 23.05 73.49 0.158 7.3 67.76 7.66
8/3/2022 8:30:00 AM 23.11 73.598 0.158 7.3 74.83 7.69
8/3/2022 8:45:00 AM 23.19 73.742 0.157 7.28 62.51 7.72
8/3/2022 9:00:00 AM 23.23 73.814 0.158 7.29 77.83 7.76
8/3/2022 9:15:00 AM 23.34 74.012 0.157 7.31 58.86 7.78
8/3/2022 9:30:00 AM 23.44 74.192 0.157 7.32 70.92 7.81
8/3/2022 9:45:00 AM 23.55 74.39 0.158 7.33 51.87 7.84
8/3/2022 10:00:00 AM 23.7 74.66 0.158 7.34 59.34 7.87
8/3/2022 10:15:00 AM 23.86 74.948 0.158 7.34 67.08 7.86
8/3/2022 10:30:00 AM 24.02 75.236 0.158 7.32 66.53 7.88
8/3/2022 10:45:00 AM 24.24 75.632 0.158 7.35 66.1 7.92
8/3/2022 11:00:00 AM 24.45 76.01 0.158 7.35 65.88 7.95
8/3/2022 11:15:00 AM 24.64 76.352 0.158 7.35 76.95 7.97
8/3/2022 11:30:00 AM 24.86 76.748 0.158 7.36 63.02 7.98
8/3/2022 11:45:00 AM 25.04 77.07201 0.158 7.37 59.45 8
8/3/2022 12:00:00 PM 25.2 77.36 0.158 7.36 67.61 8.04
8/3/2022 12:15:00 PM 25.39 77.702 0.159 7.36 77.85 8.01
8/3/2022 12:30:00 PM 25.62 78.116 0.159 7.37 73.01 8.02
8/3/2022 12:45:00 PM 25.86 78.548 0.159 7.37 67.96 8.03
8/3/2022 1:00:00 PM 26.02 78.836 0.159 7.39 65.88 8.07
8/3/2022 1:15:00 PM 26.15 79.07 0.159 7.38 57.93 8.09
8/3/2022 1:30:00 PM 26.31 79.358 0.159 7.38 56.06 8.1
8/3/2022 1:45:00 PM 26.46 79.628 0.159 7.39 66.04 8.08
8/3/2022 2:00:00 PM 26.52 79.736 0.16 7.41 59.91 8.07
8/3/2022 2:15:00 PM 26.61 79.898 0.16 7.42 61.87 8.05
8/3/2022 2:30:00 PM 26.69 80.042 0.16 7.42 70.54 8.02
8/3/2022 2:45:00 PM 26.73 80.114 0.16 7.42 66.87 8.01
8/3/2022 3:00:00 PM 26.79 80.222 0.16 7.44 76.67 7.99
8/3/2022 3:15:00 PM 26.8 80.24 0.16 7.44 73.84 7.97
8/3/2022 3:30:00 PM 26.85 80.33 0.16 7.45 67.85 7.91
8/3/2022 3:45:00 PM 26.82 80.276 0.16 7.44 68.53 7.91
8/3/2022 4:00:00 PM 26.78 80.204 0.16 7.44 62.77 7.9
8/3/2022 4:15:00 PM 26.74 80.132 0.16 7.45 69.81 7.86
8/3/2022 4:30:00 PM 26.66 79.988 0.16 7.44 77.03 7.8
8/3/2022 4:45:00 PM 26.59 79.862 0.16 7.43 86.96 7.78
8/3/2022 5:00:00 PM 26.54 79.772 0.16 7.43 86.73 7.75
8/3/2022 5:15:00 PM 26.45 79.61 0.16 7.42 93.81 7.75
8/3/2022 5:30:00 PM 26.39 79.502 0.16 7.42 74.09 7.74
8/3/2022 5:45:00 PM 26.33 79.394 0.16 7.42 75.13 7.7
8/3/2022 6:00:00 PM 26.26 79.268 0.16 7.42 75.02 7.67
8/3/2022 6:15:00 PM 26.19 79.142 0.16 7.43 77.8 7.64
8/3/2022 6:30:00 PM 26.08 78.944 0.16 7.42 85.2 7.59
8/3/2022 6:45:00 PM 25.97 78.746 0.16 7.41 90.72 7.59
8/3/2022 7:00:00 PM 25.86 78.548 0.16 7.41 86.72 7.58
8/3/2022 7:15:00 PM 25.75 78.35 0.159 7.41 86.65 7.55
8/3/2022 7:30:00 PM 25.63 78.134 0.159 7.4 105.9 7.53
8/3/2022 7:45:00 PM 25.5 77.9 0.159 7.4 102.9 7.51
8/3/2022 8:00:00 PM 25.38 77.684 0.159 7.39 89.93 7.5
8/3/2022 8:15:00 PM 25.27 77.486 0.159 7.38 93.96 7.5
8/3/2022 8:30:00 PM 25.14 77.252 0.159 7.39 103 7.47
8/3/2022 8:45:00 PM 25.01 77.018 0.159 7.38 96.83 7.47
8/3/2022 9:00:00 PM 24.89 76.802 0.159 7.36 86.72 7.46
8/3/2022 9:15:00 PM 24.76 76.568 0.159 7.35 98.4 7.46
8/3/2022 9:30:00 PM 24.67 76.406 0.159 7.35 83.07 7.45
8/3/2022 9:45:00 PM 24.59 76.262 0.159 7.35 93.32 7.45
8/3/2022 10:00:00 PM 24.51 76.118 0.158 7.35 108.2 7.43
8/3/2022 10:15:00 PM 24.45 76.01 0.158 7.34 106 7.43
8/3/2022 10:30:00 PM 24.39 75.902 0.158 7.33 113.4 7.43
8/3/2022 10:45:00 PM 24.35 75.83 0.158 7.32 100.3 7.43
8/3/2022 11:00:00 PM 24.32 75.776 0.158 7.33 102.7 7.43
8/3/2022 11:15:00 PM 24.3 75.74 0.158 7.31 92.03 7.44
8/3/2022 11:30:00 PM 24.27 75.686 0.158 7.31 94.86 7.43
8/3/2022 11:45:00 PM 24.24 75.632 0.158 7.31 95.05 7.42
8/4/2022 12:00:00 AM 24.21 75.578 0.158 7.3 93.24 7.41
8/4/2022 12:15:00 AM 24.19 75.542 0.158 7.31 92.31 7.41
8/4/2022 12:30:00 AM 24.16 75.488 0.158 7.32 97.08 7.42
8/4/2022 12:45:00 AM 24.15 75.47 0.158 7.31 91.79 7.42
8/4/2022 1:00:00 AM 24.14 75.452 0.158 7.3 100.3 7.41
8/4/2022 1:15:00 AM 24.12 75.416 0.158 7.29 99.4 7.4
8/4/2022 1:30:00 AM 24.1 75.38 0.158 7.29 103.3 7.4
8/4/2022 1:45:00 AM 24.08 75.344 0.158 7.3 107.4 7.41
8/4/2022 2:00:00 AM 24.07 75.326 0.158 7.3 99.77 7.4
8/4/2022 2:15:00 AM 24.05 75.29 0.158 7.3 95.27 7.41
8/4/2022 2:30:00 AM 24.04 75.272 0.158 7.28 92.96 7.42
8/4/2022 2:45:00 AM 24.03 75.254 0.158 7.28 94.56 7.42
8/4/2022 3:00:00 AM 24.02 75.236 0.159 7.28 85.56 7.42
8/4/2022 3:15:00 AM 24 75.2 0.159 7.27 84.74 7.42
8/4/2022 3:30:00 AM 23.98 75.164 0.159 7.29 82.82 7.42
8/4/2022 3:45:00 AM 23.97 75.146 0.159 7.29 82.92 7.42
8/4/2022 4:00:00 AM 23.95 75.11 0.159 7.3 87.89 7.43
8/4/2022 4:15:00 AM 23.91 75.038 0.159 7.28 78.47 7.43
8/4/2022 4:30:00 AM 23.89 75.002 0.159 7.28 80.67 7.44
8/4/2022 4:45:00 AM 23.87 74.966 0.159 7.26 83.91 7.44
8/4/2022 5:00:00 AM 23.86 74.948 0.159 7.26 75.02 7.44
8/4/2022 5:15:00 AM 23.85 74.93 0.159 7.27 81.25 7.44
8/4/2022 5:30:00 AM 23.83 74.894 0.159 7.28 88.22 7.45
8/4/2022 5:45:00 AM 23.81 74.858 0.159 7.27 67.6 7.45
8/4/2022 6:00:00 AM 23.79 74.82201 0.159 7.29 76.24 7.46
8/4/2022 6:15:00 AM 23.79 74.82201 0.159 7.29 71.12 7.45
8/4/2022 6:30:00 AM 23.78 74.804 0.159 7.29 78.42 7.46
8/4/2022 6:45:00 AM 23.75 74.75 0.159 7.28 77.77 7.47
8/4/2022 7:00:00 AM 23.72 74.696 0.159 7.26 69.61 7.49
8/4/2022 7:15:00 AM 23.71 74.67799 0.159 7.29 86.39 7.5
8/4/2022 7:30:00 AM 23.7 74.66 0.159 7.28 72.01 7.52
8/4/2022 7:45:00 AM 23.71 74.67799 0.159 7.29 67.19 7.51
8/4/2022 8:00:00 AM 23.74 74.732 0.159 7.28 64.89 7.54
8/4/2022 8:15:00 AM 23.78 74.804 0.159 7.29 57.27 7.56
8/4/2022 8:30:00 AM 23.84 74.912 0.159 7.29 57.86 7.59
8/4/2022 8:45:00 AM 23.93 75.074 0.159 7.3 61.48 7.6
8/4/2022 9:00:00 AM 24 75.2 0.159 7.28 48.58 7.65
8/4/2022 9:15:00 AM 24.08 75.344 0.159 7.29 46.82 7.68
8/4/2022 9:30:00 AM 24.19 75.542 0.159 7.3 52.14 7.71
8/4/2022 9:45:00 AM 24.35 75.83 0.159 7.3 41.93 7.76
8/4/2022 10:00:00 AM 24.51 76.118 0.16 7.31 58.14 7.75
8/4/2022 10:15:00 AM 24.67 76.406 0.16 7.32 58.53 7.76
8/4/2022 10:30:00 AM 24.88 76.784 0.16 7.32 61.79 7.79
8/4/2022 10:45:00 AM 25.06 77.108 0.16 7.33 72.97 7.81
8/4/2022 11:00:00 AM 25.28 77.504 0.16 7.33 69.29 7.82
8/4/2022 11:15:00 AM 25.52 77.936 0.16 7.34 64.04 7.85
8/4/2022 11:30:00 AM 25.71 78.278 0.161 7.34 66 7.87
8/4/2022 11:45:00 AM 25.9 78.62 0.161 7.33 57.34 7.9
8/4/2022 12:00:00 PM 26.11 78.998 0.161 7.34 74.68 7.91
8/4/2022 12:15:00 PM 26.34 79.412 0.161 7.35 82.69 7.89
8/4/2022 12:30:00 PM 26.5 79.7 0.161 7.36 94.39 7.87
8/4/2022 12:45:00 PM 26.68 80.024 0.161 7.34 110.3 7.86
8/4/2022 1:00:00 PM 26.9 80.42 0.162 7.34 115.9 7.85
8/4/2022 1:15:00 PM 27.02 80.636 0.162 7.35 86.78 7.9
8/4/2022 1:30:00 PM 27.18 80.924 0.162 7.35 99.77 7.88
8/4/2022 1:45:00 PM 27.3 81.14 0.162 7.35 79.8 7.91
8/4/2022 2:00:00 PM 27.46 81.42799 0.162 7.35 76.77 7.92
8/4/2022 2:15:00 PM 27.49 81.482 0.162 7.37 62.49 7.95
8/4/2022 2:30:00 PM 27.56 81.608 0.163 7.37 77.29 7.94
8/4/2022 2:45:00 PM 27.69 81.842 0.162 7.37 72.95 7.92
8/4/2022 3:00:00 PM 27.74 81.932 0.163 7.38 71.84 7.9
8/4/2022 3:15:00 PM 27.73 81.914 0.163 7.39 75.62 7.87
8/4/2022 3:30:00 PM 27.7 81.86 0.163 7.4 67.01 7.86
8/4/2022 3:45:00 PM 27.66 81.788 0.163 7.39 71.58 7.84
8/4/2022 4:00:00 PM 27.66 81.788 0.163 7.4 68.83 7.82
8/4/2022 4:15:00 PM 27.67 81.806 0.163 7.4 68.52 7.75
8/4/2022 4:30:00 PM 27.59 81.662 0.163 7.4 84.7 7.74
8/4/2022 4:45:00 PM 27.51 81.518 0.163 7.39 73.91 7.75
8/4/2022 5:00:00 PM 27.42 81.356 0.163 7.38 71.76 7.68
8/4/2022 5:15:00 PM 27.27 81.086 0.163 7.4 74.9 7.65
8/4/2022 5:30:00 PM 27.14 80.852 0.163 7.41 82.91 7.64
8/4/2022 5:45:00 PM 27.02 80.636 0.163 7.39 89.93 7.62
8/4/2022 6:00:00 PM 26.89 80.402 0.162 7.4 80.79 7.57
8/4/2022 6:15:00 PM 26.7 80.06 0.162 7.39 82.9 7.55
8/4/2022 6:30:00 PM 26.48 79.664 0.162 7.39 79.82 7.53
8/4/2022 6:45:00 PM 26.24 79.232 0.162 7.39 99.43 7.49
8/4/2022 7:00:00 PM 26.03 78.854 0.162 7.38 102.5 7.47
8/4/2022 7:15:00 PM 25.84 78.512 0.162 7.38 107.6 7.45
8/4/2022 7:30:00 PM 25.65 78.17 0.162 7.37 128.8 7.46
8/4/2022 7:45:00 PM 25.39 77.702 0.161 7.36 133 7.5
8/4/2022 8:00:00 PM 24.99 76.982 0.161 7.36 171.1 7.54
8/4/2022 8:15:00 PM 24.93 76.874 0.161 7.36 160.1 7.52
8/4/2022 8:30:00 PM 24.89 76.802 0.161 7.35 170.6 7.48
8/4/2022 8:45:00 PM 24.87 76.766 0.161 7.34 134.8 7.46
8/4/2022 9:00:00 PM 24.85 76.73 0.161 7.35 119.7 7.45
8/4/2022 9:15:00 PM 24.81 76.658 0.161 7.34 101.6 7.42
8/4/2022 9:30:00 PM 24.83 76.694 0.161 7.33 102.9 7.42
8/4/2022 9:45:00 PM 24.82 76.676 0.161 7.32 82.02 7.4
8/4/2022 10:00:00 PM 24.8 76.64 0.161 7.33 84.1 7.39
8/4/2022 10:15:00 PM 24.78 76.604 0.161 7.32 79.27 7.38
8/4/2022 10:30:00 PM 24.77 76.586 0.161 7.34 81.79 7.36
8/4/2022 10:45:00 PM 24.76 76.568 0.161 7.33 89.15 7.36
8/4/2022 11:00:00 PM 24.76 76.568 0.161 7.32 76.79 7.37
8/4/2022 11:15:00 PM 24.75 76.55 0.161 7.32 80.49 7.35
8/4/2022 11:30:00 PM 24.74 76.532 0.161 7.32 87.07 7.36
8/4/2022 11:45:00 PM 24.72 76.496 0.16 7.33 78.41 7.36
8/5/2022 12:00:00 AM 24.68 76.424 0.16 7.31 77.67 7.36
8/5/2022 12:15:00 AM 24.67 76.406 0.16 7.31 76.34 7.35
8/5/2022 12:30:00 AM 24.7 76.46 0.16 7.31 81.74 7.35
8/5/2022 12:45:00 AM 24.73 76.514 0.16 7.29 79.93 7.35
8/5/2022 1:00:00 AM 24.79 76.622 0.16 7.31 77.96 7.37
8/5/2022 1:15:00 AM 24.8 76.64 0.16 7.31 85.59 7.36
8/5/2022 1:30:00 AM 24.79 76.622 0.16 7.31 74.85 7.34
8/5/2022 1:45:00 AM 24.77 76.586 0.16 7.3 78.03 7.33
8/5/2022 2:00:00 AM 24.79 76.622 0.16 7.31 76.72 7.33
8/5/2022 2:15:00 AM 24.8 76.64 0.16 7.31 77.64 7.33
8/5/2022 2:30:00 AM 24.8 76.64 0.16 7.31 85.4 7.32
8/5/2022 2:45:00 AM 24.79 76.622 0.16 7.3 79.16 7.32
8/5/2022 3:00:00 AM 24.73 76.514 0.159 7.31 87.66 7.35
8/5/2022 3:15:00 AM 24.68 76.424 0.16 7.31 89.02 7.35
8/5/2022 3:30:00 AM 24.64 76.352 0.159 7.31 115.6 7.36
8/5/2022 3:45:00 AM 24.58 76.244 0.159 7.31 67.97 7.37
8/5/2022 4:00:00 AM 24.54 76.172 0.159 7.31 80.08 7.38
8/5/2022 4:15:00 AM 24.48 76.064 0.159 7.31 70.83 7.38
8/5/2022 4:30:00 AM 24.43 75.974 0.159 7.31 80.38 7.4
8/5/2022 4:45:00 AM 24.38 75.884 0.159 7.3 77.24 7.4
8/5/2022 5:00:00 AM 24.32 75.776 0.159 7.29 80.18 7.4
8/5/2022 5:15:00 AM 24.27 75.686 0.159 7.29 80.56 7.41
8/5/2022 5:30:00 AM 24.22 75.596 0.159 7.3 86.87 7.41
8/5/2022 5:45:00 AM 24.18 75.524 0.159 7.3 77.4 7.42
8/5/2022 6:00:00 AM 24.15 75.47 0.159 7.3 85.22 7.41
8/5/2022 6:15:00 AM 24.12 75.416 0.159 7.27 77.04 7.43
8/5/2022 6:30:00 AM 24.07 75.326 0.159 7.27 79.91 7.44
8/5/2022 6:45:00 AM 24.04 75.272 0.159 7.26 70.14 7.45
8/5/2022 7:00:00 AM 24.02 75.236 0.159 7.29 75.9 7.46
8/5/2022 7:15:00 AM 24 75.2 0.159 7.29 67.52 7.48
8/5/2022 7:30:00 AM 23.99 75.182 0.159 7.28 67.63 7.5
8/5/2022 7:45:00 AM 23.99 75.182 0.159 7.26 63.11 7.5
8/5/2022 8:00:00 AM 24 75.2 0.159 7.27 69.46 7.53
8/5/2022 8:15:00 AM 24.02 75.236 0.159 7.28 57.45 7.55
8/5/2022 8:30:00 AM 24.04 75.272 0.159 7.27 58.92 7.57
8/5/2022 8:45:00 AM 24.04 75.272 0.159 7.28 54.8 7.58
8/5/2022 9:00:00 AM 24.03 75.254 0.159 7.26 58.89 7.6
8/5/2022 9:15:00 AM 24.06 75.308 0.159 7.27 40.3 7.59
8/5/2022 9:30:00 AM 24.08 75.344 0.159 7.28 53.61 7.62
8/5/2022 9:45:00 AM 24.09 75.362 0.159 7.27 48.93 7.65
8/5/2022 10:00:00 AM 24.15 75.47 0.159 7.27 47.55 7.69
8/5/2022 10:15:00 AM 24.22 75.596 0.159 7.28 41.39 7.75
8/5/2022 10:30:00 AM 24.28 75.704 0.159 7.29 39.86 7.84
8/5/2022 10:45:00 AM 24.37 75.866 0.159 7.3 37.51 7.91
8/5/2022 11:00:00 AM 24.48 76.064 0.159 7.31 42.4 7.98
8/5/2022 11:15:00 AM 24.56 76.208 0.159 7.3 38.16 8.03
8/5/2022 11:30:00 AM 24.65 76.37 0.159 7.31 35.01 8.04
8/5/2022 11:45:00 AM 24.72 76.496 0.159 7.32 34.92 8.07
8/5/2022 12:00:00 PM 24.85 76.73 0.159 7.32 32.41 8.08
8/5/2022 12:15:00 PM 24.94 76.892 0.159 7.32 36.37 8.11
8/5/2022 12:30:00 PM 25.03 77.054 0.159 7.33 34.74 8.13
8/5/2022 12:45:00 PM 25.1 77.18 0.159 7.34 36.05 8.13
8/5/2022 1:00:00 PM 25.2 77.36 0.159 7.35 31.66 8.12
8/5/2022 1:15:00 PM 25.29 77.522 0.159 7.36 28.34 8.15
8/5/2022 1:30:00 PM 25.38 77.684 0.159 7.36 32.5 8.2
8/5/2022 1:45:00 PM 25.51 77.918 0.159 7.36 32.49 8.24
8/5/2022 2:00:00 PM 25.65 78.17 0.159 7.36 32.13 8.3
8/5/2022 2:15:00 PM 25.81 78.458 0.159 7.36 35.18 8.26
8/5/2022 2:30:00 PM 25.93 78.674 0.16 7.36 33.32 8.26
8/5/2022 2:45:00 PM 26.13 79.034 0.159 7.38 36.68 8.22
8/5/2022 3:00:00 PM 26.26 79.268 0.159 7.38 37.98 8.18
8/5/2022 3:15:00 PM 26.39 79.502 0.16 7.38 40.13 8.16
8/5/2022 3:30:00 PM 26.48 79.664 0.16 7.38 42.17 8.13
8/5/2022 3:45:00 PM 26.6 79.88 0.16 7.39 41.26 8.08
8/5/2022 4:00:00 PM 26.67 80.006 0.16 7.39 41.07 8.03
8/5/2022 4:15:00 PM 26.77 80.186 0.16 7.38 36.49 8
8/5/2022 4:30:00 PM 26.76 80.168 0.16 7.37 40.43 7.95
8/5/2022 4:45:00 PM 26.8 80.24 0.16 7.38 37.49 7.88
8/5/2022 5:00:00 PM 26.76 80.168 0.16 7.39 44.31 7.84
8/5/2022 5:15:00 PM 26.75 80.15 0.16 7.39 47.56 7.8
8/5/2022 5:30:00 PM 26.71 80.078 0.16 7.38 46.65 7.76
8/5/2022 5:45:00 PM 26.66 79.988 0.16 7.4 42.37 7.72
8/5/2022 6:00:00 PM 26.57 79.826 0.159 7.39 42.36 7.69
8/5/2022 6:15:00 PM 26.51 79.718 0.159 7.39 38.27 7.65
8/5/2022 6:30:00 PM 26.42 79.556 0.159 7.37 52.45 7.64
8/5/2022 6:45:00 PM 26.3 79.34 0.159 7.38 49.78 7.62
8/5/2022 7:00:00 PM 26.16 79.088 0.159 7.37 58.15 7.6
8/5/2022 7:15:00 PM 26.03 78.854 0.159 7.37 52.89 7.58
8/5/2022 7:30:00 PM 25.86 78.548 0.159 7.36 44.81 7.57
8/5/2022 7:45:00 PM 25.65 78.17 0.159 7.35 49.97 7.57
8/5/2022 8:00:00 PM 25.31 77.558 0.159 7.35 75.48 7.64
8/5/2022 8:15:00 PM 24.94 76.892 0.158 7.35 119.5 7.72
8/5/2022 8:30:00 PM 24.54 76.172 0.158 7.36 196.7 7.71
8/5/2022 8:45:00 PM 24.32 75.776 0.157 7.35 224.8 7.67
8/5/2022 9:00:00 PM 24.27 75.686 0.157 7.35 464.9 7.65
8/5/2022 9:15:00 PM 23.8 74.84 0.156 7.34 884.2 7.49
8/5/2022 9:30:00 PM 23.44 74.192 0.155 7.3 1245 7.49
8/5/2022 9:45:00 PM 23.41 74.138 0.154 7.25 1142 7.6
8/5/2022 10:00:00 PM 23.39 74.102 0.153 7.23 956.9 7.66
8/5/2022 10:15:00 PM 23.41 74.138 0.152 7.21 801.8 7.68
8/5/2022 10:30:00 PM 23.44 74.192 0.15 7.22 733.1 7.63
8/5/2022 10:45:00 PM 23.49 74.282 0.149 7.22 632.5 7.61
8/5/2022 11:00:00 PM 23.67 74.606 0.147 7.2 512.7 7.53
8/5/2022 11:15:00 PM 23.62 74.516 0.146 7.2 600.8 7.39
8/5/2022 11:30:00 PM 23.4 74.12 0.144 7.2 819.6 7.28
8/5/2022 11:45:00 PM 23.2 73.76 0.143 7.21 893.2 7.23
8/6/2022 12:00:00 AM 23.07 73.526 0.141 7.21 958.2 7.21
8/6/2022 12:15:00 AM 22.96 73.328 0.14 7.27 979 7.23
8/6/2022 12:30:00 AM 22.91 73.238 0.138 7.26 893.9 7.26
8/6/2022 12:45:00 AM 22.92 73.256 0.137 7.25 682.9 7.28
8/6/2022 1:00:00 AM 22.92 73.256 0.135 7.25 671.3 7.27
8/6/2022 1:15:00 AM 22.88 73.184 0.134 7.2 709.4 7.23
8/6/2022 1:30:00 AM 22.85 73.13 0.134 7.2 668.1 7.21
8/6/2022 1:45:00 AM 22.84 73.112 0.133 7.21 635.5 7.2
8/6/2022 2:00:00 AM 22.82 73.076 0.132 7.2 651.7 7.21
8/6/2022 2:15:00 AM 22.8 73.04 0.131 7.22 607 7.21
8/6/2022 2:30:00 AM 22.77 72.986 0.13 7.21 663.1 7.22
8/6/2022 2:45:00 AM 22.74 72.932 0.129 7.19 653.7 7.26
8/6/2022 3:00:00 AM 22.72 72.896 0.128 7.2 621.2 7.29
8/6/2022 3:15:00 AM 22.69 72.842 0.126 7.19 699 7.32
8/6/2022 3:30:00 AM 22.65 72.77 0.125 7.19 608 7.37
8/6/2022 3:45:00 AM 22.65 72.77 0.124 7.18 562.7 7.39
8/6/2022 4:00:00 AM 22.66 72.788 0.123 7.17 539.4 7.42
8/6/2022 4:15:00 AM 22.62 72.716 0.123 7.16 467.7 7.45
8/6/2022 4:30:00 AM 22.62 72.716 0.123 7.2 459.7 7.47
8/6/2022 4:45:00 AM 22.64 72.752 0.123 7.2 406.9 7.48
8/6/2022 5:00:00 AM 22.64 72.752 0.123 7.21 387.1 7.51
8/6/2022 5:15:00 AM 22.66 72.788 0.123 7.23 352.7 7.54
8/6/2022 5:30:00 AM 22.67 72.806 0.124 7.24 368.4 7.55
8/6/2022 5:45:00 AM 22.7 72.86 0.124 7.25 314.9 7.55
8/6/2022 6:00:00 AM 22.67 72.806 0.124 7.27 310.8 7.56
8/6/2022 6:15:00 AM 22.71 72.878 0.125 7.28 339.4 7.57
8/6/2022 6:30:00 AM 22.69 72.842 0.125 7.28 256 7.58
8/6/2022 6:45:00 AM 22.73 72.914 0.125 7.28 281 7.58
8/6/2022 7:00:00 AM 22.73 72.914 0.125 7.28 258.5 7.59
8/6/2022 7:15:00 AM 22.77 72.986 0.125 7.27 220.6 7.6
8/6/2022 7:30:00 AM 22.81 73.058 0.126 7.28 196.2 7.6
8/6/2022 7:45:00 AM 22.81 73.058 0.126 7.28 191.5 7.62
8/6/2022 8:00:00 AM 22.84 73.112 0.127 7.3 184.7 7.62
8/6/2022 8:15:00 AM 22.84 73.112 0.127 7.3 171.3 7.64
8/6/2022 8:30:00 AM 22.86 73.148 0.128 7.31 170.3 7.65
8/6/2022 8:45:00 AM 22.83 73.094 0.128 7.28 198.6 7.66
8/6/2022 9:00:00 AM 22.87 73.166 0.129 7.31 174.8 7.66
8/6/2022 9:15:00 AM 22.9 73.22 0.129 7.33 165 7.66
8/6/2022 9:30:00 AM 22.92 73.256 0.13 7.32 156.4 7.69
8/6/2022 9:45:00 AM 22.89 73.202 0.13 7.32 160.2 7.7
8/6/2022 10:00:00 AM 22.9 73.22 0.131 7.31 134.2 7.71
8/6/2022 10:15:00 AM 22.96 73.328 0.131 7.3 112.3 7.71
8/6/2022 10:30:00 AM 23.02 73.436 0.131 7.35 122.8 7.72
8/6/2022 10:45:00 AM 23.01 73.418 0.132 7.34 113.3 7.73
8/6/2022 11:00:00 AM 23.02 73.436 0.132 7.36 114.2 7.74
8/6/2022 11:15:00 AM 23.03 73.454 0.133 7.35 117.6 7.74
8/6/2022 11:30:00 AM 23.09 73.562 0.133 7.35 117.3 7.76
8/6/2022 11:45:00 AM 23.16 73.688 0.134 7.37 103.3 7.77
8/6/2022 12:00:00 PM 23.27 73.886 0.134 7.38 103.6 7.79
8/6/2022 12:15:00 PM 23.35 74.03 0.134 7.37 144.2 7.8
8/6/2022 12:30:00 PM 23.56 74.408 0.135 7.38 129.5 7.81
8/6/2022 12:45:00 PM 23.69 74.642 0.135 7.4 99.36 7.8
8/6/2022 1:00:00 PM 23.79 74.82201 0.136 7.42 96.98 7.8
8/6/2022 1:15:00 PM 23.97 75.146 0.136 7.42 90.2 7.79
8/6/2022 1:30:00 PM 24.13 75.434 0.137 7.41 136.2 7.77
8/6/2022 1:45:00 PM 24.26 75.668 0.137 7.43 94.54 7.76
8/6/2022 2:00:00 PM 24.41 75.938 0.138 7.44 91.01 7.78
8/6/2022 2:15:00 PM 24.61 76.298 0.138 7.41 441.3 7.76
8/6/2022 2:30:00 PM 24.74 76.532 0.139 7.43 86.75 7.73
8/6/2022 2:45:00 PM 24.77 76.586 0.139 7.44 100.6 7.73
8/6/2022 3:00:00 PM 24.87 76.766 0.14 7.43 195.9 7.7
8/6/2022 3:15:00 PM 24.93 76.874 0.14 7.43 88.42 7.7
8/6/2022 3:30:00 PM 25.01 77.018 0.14 7.43 86.91 7.7
8/6/2022 3:45:00 PM 25.11 77.198 0.141 7.44 74.63 7.67
8/6/2022 4:00:00 PM 25.15 77.27 0.141 7.44 97.4 7.66
8/6/2022 4:15:00 PM 25.21 77.378 0.142 7.44 72.25 7.66
8/6/2022 4:30:00 PM 25.31 77.558 0.143 7.44 83.36 7.63
8/6/2022 4:45:00 PM 25.29 77.522 0.143 7.44 71.63 7.62
8/6/2022 5:00:00 PM 25.29 77.522 0.144 7.44 67.25 7.61
8/6/2022 5:15:00 PM 25.24 77.432 0.144 7.45 70.38 7.6
8/6/2022 5:30:00 PM 25.24 77.432 0.144 7.44 67.24 7.58
8/6/2022 5:45:00 PM 25.25 77.45 0.145 7.44 66.73 7.58
8/6/2022 6:00:00 PM 25.21 77.378 0.145 7.45 65.38 7.56
8/6/2022 6:15:00 PM 25.1 77.18 0.145 7.45 65.38 7.56
8/6/2022 6:30:00 PM 25.08 77.144 0.146 7.44 68.03 7.55
8/6/2022 6:45:00 PM 25.02 77.036 0.146 7.44 70.35 7.55
8/6/2022 7:00:00 PM 24.95 76.91 0.146 7.45 83.16 7.53
8/6/2022 7:15:00 PM 24.94 76.892 0.146 7.45 62.46 7.52
8/6/2022 7:30:00 PM 24.91 76.838 0.146 7.45 64.39 7.52
8/6/2022 7:45:00 PM 24.87 76.766 0.147 7.45 65.6 7.5
8/6/2022 8:00:00 PM 24.83 76.694 0.147 7.45 64.01 7.5
8/6/2022 8:15:00 PM 24.78 76.604 0.147 7.44 62.56 7.48
8/6/2022 8:30:00 PM 24.67 76.406 0.147 7.43 104.6 7.47
8/6/2022 8:45:00 PM 24.62 76.316 0.147 7.43 62.21 7.47
8/6/2022 9:00:00 PM 24.54 76.172 0.147 7.44 60.09 7.47
8/6/2022 9:15:00 PM 24.49 76.082 0.148 7.42 76.94 7.45
8/6/2022 9:30:00 PM 24.42 75.956 0.148 7.42 68.04 7.46
8/6/2022 9:45:00 PM 24.39 75.902 0.148 7.4 74.83 7.45
8/6/2022 10:00:00 PM 24.37 75.866 0.148 7.41 73.86 7.46
8/6/2022 10:15:00 PM 24.37 75.866 0.148 7.41 87.17 7.44
8/6/2022 10:30:00 PM 24.38 75.884 0.148 7.4 81.46 7.44
8/6/2022 10:45:00 PM 24.36 75.848 0.148 7.4 74.48 7.44
8/6/2022 11:00:00 PM 24.33 75.794 0.149 7.4 77.14 7.45
8/6/2022 11:15:00 PM 24.28 75.704 0.149 7.39 79.49 7.45
8/6/2022 11:30:00 PM 24.26 75.668 0.149 7.37 80.09 7.45
8/6/2022 11:45:00 PM 24.23 75.614 0.149 7.39 74.59 7.47
8/7/2022 12:00:00 AM 24.23 75.614 0.15 7.38 68.36 7.45
8/7/2022 12:15:00 AM 24.22 75.596 0.15 7.39 71.9 7.45
8/7/2022 12:30:00 AM 24.23 75.614 0.15 7.38 85.01 7.45
8/7/2022 12:45:00 AM 24.22 75.596 0.15 7.38 70.19 7.45
8/7/2022 1:00:00 AM 24.21 75.578 0.15 7.37 76.44 7.45
8/7/2022 1:15:00 AM 24.19 75.542 0.15 7.38 79.12 7.46
8/7/2022 1:30:00 AM 24.17 75.506 0.151 7.37 92.49 7.46
8/7/2022 1:45:00 AM 24.14 75.452 0.151 7.36 78.51 7.46
8/7/2022 2:00:00 AM 24.13 75.434 0.151 7.37 72.8 7.46
8/7/2022 2:15:00 AM 24.1 75.38 0.151 7.36 83.98 7.46
8/7/2022 2:30:00 AM 24.09 75.362 0.151 7.37 68.78 7.47
8/7/2022 2:45:00 AM 24.07 75.326 0.151 7.38 74.31 7.48
8/7/2022 3:00:00 AM 24.06 75.308 0.151 7.36 73.26 7.47
8/7/2022 3:15:00 AM 24.04 75.272 0.151 7.38 80.41 7.47
8/7/2022 3:30:00 AM 24 75.2 0.151 7.35 68.94 7.47
8/7/2022 3:45:00 AM 23.96 75.128 0.152 7.36 65.95 7.49
8/7/2022 4:00:00 AM 23.92 75.056 0.152 7.38 67.33 7.5
8/7/2022 4:15:00 AM 23.86 74.948 0.152 7.38 72.18 7.51
8/7/2022 4:30:00 AM 23.84 74.912 0.152 7.37 67.7 7.52
8/7/2022 4:45:00 AM 23.8 74.84 0.152 7.37 68.75 7.53
8/7/2022 5:00:00 AM 23.77 74.786 0.152 7.38 71.02 7.53
8/7/2022 5:15:00 AM 23.75 74.75 0.152 7.38 62.64 7.52
8/7/2022 5:30:00 AM 23.72 74.696 0.153 7.38 62.42 7.54
8/7/2022 5:45:00 AM 23.68 74.624 0.153 7.38 65.08 7.54
8/7/2022 6:00:00 AM 23.65 74.57 0.153 7.36 73.88 7.54
8/7/2022 6:15:00 AM 23.62 74.516 0.153 7.38 72.87 7.56
8/7/2022 6:30:00 AM 23.56 74.408 0.153 7.38 69.03 7.56
8/7/2022 6:45:00 AM 23.53 74.354 0.153 7.37 66.09 7.57
8/7/2022 7:00:00 AM 23.51 74.318 0.153 7.36 59.81 7.58
8/7/2022 7:15:00 AM 23.5 74.3 0.154 7.37 62.61 7.59
8/7/2022 7:30:00 AM 23.5 74.3 0.154 7.36 62.02 7.59
8/7/2022 7:45:00 AM 23.51 74.318 0.154 7.38 70.55 7.61
8/7/2022 8:00:00 AM 23.56 74.408 0.154 7.38 63.39 7.61
8/7/2022 8:15:00 AM 23.59 74.462 0.154 7.38 68.04 7.63
8/7/2022 8:30:00 AM 23.59 74.462 0.154 7.39 47.59 7.64
8/7/2022 8:45:00 AM 23.63 74.534 0.154 7.39 49.2 7.67
8/7/2022 9:00:00 AM 23.65 74.57 0.154 7.37 45.84 7.69
8/7/2022 9:15:00 AM 23.74 74.732 0.154 7.38 54.11 7.71
8/7/2022 9:30:00 AM 23.79 74.82201 0.154 7.39 46.84 7.74
8/7/2022 9:45:00 AM 23.92 75.056 0.154 7.39 55.5 7.77
8/7/2022 10:00:00 AM 24.03 75.254 0.154 7.42 43.35 7.79
8/7/2022 10:15:00 AM 24.15 75.47 0.155 7.4 44.69 7.84
8/7/2022 10:30:00 AM 24.33 75.794 0.155 7.41 75.92 7.85
8/7/2022 10:45:00 AM 24.51 76.118 0.155 7.42 40.08 7.85
8/7/2022 11:00:00 AM 24.68 76.424 0.155 7.44 78.54 7.81
8/7/2022 11:15:00 AM 24.82 76.676 0.155 7.45 87.9 7.77
8/7/2022 11:30:00 AM 25.08 77.144 0.156 7.45 87.15 7.75
8/7/2022 11:45:00 AM 25.25 77.45 0.156 7.44 81.68 7.76
8/7/2022 12:00:00 PM 25.46 77.828 0.156 7.45 86.31 7.78
8/7/2022 12:15:00 PM 25.68 78.224 0.156 7.45 77.98 7.77
8/7/2022 12:30:00 PM 25.89 78.602 0.156 7.45 83.87 7.75
8/7/2022 12:45:00 PM 26.05 78.89 0.156 7.44 87.27 7.74
8/7/2022 1:00:00 PM 26.22 79.196 0.156 7.44 82.01 7.72
8/7/2022 1:15:00 PM 26.41 79.538 0.157 7.43 81.9 7.74
8/7/2022 1:30:00 PM 26.48 79.664 0.157 7.45 81.04 7.76
8/7/2022 1:45:00 PM 26.55 79.79 0.157 7.45 69.83 7.76
8/7/2022 2:00:00 PM 26.7 80.06 0.157 7.46 76.34 7.74
8/7/2022 2:15:00 PM 26.75 80.15 0.157 7.46 76.91 7.71
8/7/2022 2:30:00 PM 26.84 80.312 0.157 7.47 73.93 7.7
8/7/2022 2:45:00 PM 26.89 80.402 0.157 7.47 73.6 7.69
8/7/2022 3:00:00 PM 26.93 80.474 0.157 7.47 78.65 7.7
8/7/2022 3:15:00 PM 26.92 80.456 0.157 7.47 69.55 7.68
8/7/2022 3:30:00 PM 26.94 80.492 0.157 7.48 76.58 7.66
8/7/2022 3:45:00 PM 26.95 80.51 0.157 7.48 84.86 7.64
8/7/2022 4:00:00 PM 26.93 80.474 0.158 7.47 84.73 7.58
8/7/2022 4:15:00 PM 26.9 80.42 0.158 7.48 81.98 7.55
8/7/2022 4:30:00 PM 26.83 80.294 0.158 7.47 70.84 7.55
8/7/2022 4:45:00 PM 26.83 80.294 0.158 7.46 77.83 7.53
8/7/2022 5:00:00 PM 26.82 80.276 0.158 7.48 94.21 7.52
8/7/2022 5:15:00 PM 26.72 80.096 0.158 7.48 70.05 7.5
8/7/2022 5:30:00 PM 26.7 80.06 0.158 7.48 72.43 7.47
8/7/2022 5:45:00 PM 26.62 79.916 0.158 7.47 81.67 7.44
8/7/2022 6:00:00 PM 26.5 79.7 0.158 7.47 92.18 7.42
8/7/2022 6:15:00 PM 26.4 79.52 0.158 7.45 102.6 7.4
8/7/2022 6:30:00 PM 26.3 79.34 0.158 7.45 94.88 7.39
8/7/2022 6:45:00 PM 26.21 79.17799 0.158 7.45 89.96 7.38
8/7/2022 7:00:00 PM 26.12 79.016 0.158 7.45 74.97 7.38
8/7/2022 7:15:00 PM 26.03 78.854 0.158 7.44 66.99 7.38
8/7/2022 7:30:00 PM 25.92 78.656 0.158 7.44 85.52 7.39
8/7/2022 7:45:00 PM 25.82 78.476 0.158 7.43 81.73 7.36
8/7/2022 8:00:00 PM 25.75 78.35 0.158 7.42 91.46 7.27
8/7/2022 8:15:00 PM 25.69 78.242 0.158 7.41 104.7 7.31
8/7/2022 8:30:00 PM 25.64 78.152 0.158 7.41 97.69 7.3
8/7/2022 8:45:00 PM 25.56 78.008 0.158 7.4 111 7.31
8/7/2022 9:00:00 PM 25.47 77.846 0.158 7.4 537 7.3
8/7/2022 9:15:00 PM 25.4 77.72 0.159 7.39 84.51 7.33
8/7/2022 9:30:00 PM 25.35 77.63 0.159 7.39 86.95 7.3
8/7/2022 9:45:00 PM 25.33 77.594 0.159 7.39 99.77 7.31
8/7/2022 10:00:00 PM 25.28 77.504 0.159 7.38 73.91 7.31
8/7/2022 10:15:00 PM 25.22 77.396 0.159 7.37 539.8 7.3
8/7/2022 10:30:00 PM 25.2 77.36 0.159 7.37 83.71 7.32
8/7/2022 10:45:00 PM 25.17 77.306 0.159 7.37 82.5 7.3
8/7/2022 11:00:00 PM 25.15 77.27 0.159 7.37 323.2 7.29
8/7/2022 11:15:00 PM 25.12 77.216 0.159 7.37 80.48 7.32
8/7/2022 11:30:00 PM 25.09 77.162 0.159 7.37 69.91 7.3
8/7/2022 11:45:00 PM 25.04 77.07201 0.159 7.36 84.99 7.3
8/8/2022 12:00:00 AM 25 77 0.159 7.38 60.85 7.26
8/8/2022 12:15:00 AM 24.97 76.946 0.159 7.36 4048 7.31
8/8/2022 12:30:00 AM 24.97 76.946 0.159 7.38 85.75 7.32
8/8/2022 12:45:00 AM 24.96 76.92799 0.159 7.38 63.88 7.31
8/8/2022 1:00:00 AM 24.95 76.91 0.159 7.38 72.83 7.3
8/8/2022 1:15:00 AM 24.91 76.838 0.159 7.38 103.5 7.31
8/8/2022 1:30:00 AM 24.88 76.784 0.159 7.38 315.7 7.31
8/8/2022 1:45:00 AM 24.84 76.712 0.159 7.39 72.14 7.33
8/8/2022 2:00:00 AM 24.78 76.604 0.159 7.39 82.14 7.32
8/8/2022 2:15:00 AM 24.76 76.568 0.159 7.39 67.59 7.33
8/8/2022 2:30:00 AM 24.74 76.532 0.159 7.39 80.08 7.33
8/8/2022 2:45:00 AM 24.7 76.46 0.159 7.39 66.91 7.34
8/8/2022 3:00:00 AM 24.69 76.442 0.159 7.39 72.22 7.34
8/8/2022 3:15:00 AM 24.64 76.352 0.159 7.38 64.68 7.34
8/8/2022 3:30:00 AM 24.62 76.316 0.159 7.39 94.21 7.35
8/8/2022 3:45:00 AM 24.57 76.226 0.159 7.39 71.26 7.36
8/8/2022 4:00:00 AM 24.55 76.19 0.159 7.39 61.67 7.36
8/8/2022 4:15:00 AM 24.51 76.118 0.159 7.38 89.73 7.37
8/8/2022 4:30:00 AM 24.47 76.046 0.159 7.38 73.81 7.37
8/8/2022 4:45:00 AM 24.46 76.028 0.159 7.39 67.87 7.38
8/8/2022 5:00:00 AM 24.43 75.974 0.159 7.38 73.35 7.38
8/8/2022 5:15:00 AM 24.39 75.902 0.159 7.38 74.43 7.39
8/8/2022 5:30:00 AM 24.36 75.848 0.159 7.37 72.92 7.38
8/8/2022 5:45:00 AM 24.34 75.812 0.159 7.38 66.56 7.38
8/8/2022 6:00:00 AM 24.3 75.74 0.159 7.37 68.79 7.39
8/8/2022 6:15:00 AM 24.26 75.668 0.159 7.37 71.67 7.39
8/8/2022 6:30:00 AM 24.21 75.578 0.159 7.38 74.12 7.41
8/8/2022 6:45:00 AM 24.18 75.524 0.159 7.38 70.73 7.42
8/8/2022 7:00:00 AM 24.14 75.452 0.159 7.37 63.42 7.43
8/8/2022 7:15:00 AM 24.13 75.434 0.159 7.36 66.16 7.44
8/8/2022 7:30:00 AM 24.13 75.434 0.159 7.36 58.83 7.44
8/8/2022 7:45:00 AM 24.15 75.47 0.159 7.36 60.95 7.46
8/8/2022 8:00:00 AM 24.17 75.506 0.159 7.36 63.88 7.46
8/8/2022 8:15:00 AM 24.2 75.56 0.159 7.37 50.68 7.49
8/8/2022 8:30:00 AM 24.25 75.65 0.159 7.37 53.62 7.49
8/8/2022 8:45:00 AM 24.3 75.74 0.159 7.38 59.92 7.53
8/8/2022 9:00:00 AM 24.36 75.848 0.159 7.38 58.65 7.54
8/8/2022 9:15:00 AM 24.44 75.992 0.159 7.38 53.5 7.55
8/8/2022 9:30:00 AM 24.57 76.226 0.159 7.37 55.47 7.58
8/8/2022 9:45:00 AM 24.7 76.46 0.159 7.4 45.05 7.6
8/8/2022 10:00:00 AM 24.84 76.712 0.159 7.41 46.63 7.62
8/8/2022 10:15:00 AM 25 77 0.159 7.42 57.63 7.61
8/8/2022 10:30:00 AM 25.16 77.288 0.159 7.43 57.69 7.62
8/8/2022 10:45:00 AM 25.34 77.612 0.159 7.43 61.58 7.62
8/8/2022 11:00:00 AM 25.52 77.936 0.159 7.44 65.49 7.65
8/8/2022 11:15:00 AM 25.68 78.224 0.159 7.45 58.91 7.67
8/8/2022 11:30:00 AM 25.86 78.548 0.16 7.45 60.82 7.68
8/8/2022 11:45:00 AM 26.01 78.818 0.16 7.45 56.41 7.71
8/8/2022 12:00:00 PM 26.21 79.17799 0.16 7.46 52.19 7.71
8/8/2022 12:15:00 PM 26.41 79.538 0.16 7.46 71.92 7.72
8/8/2022 12:30:00 PM 26.56 79.808 0.16 7.46 52.43 7.72
8/8/2022 12:45:00 PM 26.72 80.096 0.16 7.47 79.89 7.72
8/8/2022 1:00:00 PM 26.86 80.348 0.16 7.47 58.7 7.71
8/8/2022 1:15:00 PM 26.98 80.564 0.16 7.47 55.98 7.74
8/8/2022 1:30:00 PM 27.12 80.816 0.16 7.48 81.71 7.74
8/8/2022 1:45:00 PM 27.18 80.924 0.16 7.48 64.19 7.7
8/8/2022 2:00:00 PM 27.2 80.96 0.161 7.49 72.88 7.69
8/8/2022 2:15:00 PM 27.24 81.032 0.161 7.49 73.48 7.66
8/8/2022 2:30:00 PM 27.36 81.248 0.16 7.49 56.35 7.64
8/8/2022 2:45:00 PM 27.42 81.356 0.16 7.49 73.94 7.61
8/8/2022 3:00:00 PM 27.5 81.5 0.16 7.5 69.41 7.6
8/8/2022 3:15:00 PM 27.49 81.482 0.16 7.5 128.8 7.57
8/8/2022 3:30:00 PM 27.44 81.392 0.16 7.49 210 7.47
8/8/2022 3:45:00 PM 27.37 81.266 0.16 7.47 247.2 7.41
8/8/2022 4:00:00 PM 27.32 81.176 0.16 7.47 279.1 7.41
8/8/2022 4:15:00 PM 27.31 81.158 0.16 7.46 196.5 7.42
8/8/2022 4:30:00 PM 27.26 81.068 0.16 7.44 219.2 7.41
8/8/2022 4:45:00 PM 27.21 80.978 0.16 7.45 217.4 7.41
8/8/2022 5:00:00 PM 27.14 80.852 0.159 7.45 190.2 7.4
8/8/2022 5:15:00 PM 27.08 80.744 0.159 7.45 188 7.42
8/8/2022 5:30:00 PM 27.03 80.654 0.159 7.46 176.4 7.4
8/8/2022 5:45:00 PM 26.96 80.528 0.159 7.46 197 7.38
8/8/2022 6:00:00 PM 26.89 80.402 0.159 7.46 216.3 7.37
8/8/2022 6:15:00 PM 26.82 80.276 0.159 7.45 212.2 7.37
8/8/2022 6:30:00 PM 26.71 80.078 0.159 7.45 153.8 7.37
8/8/2022 6:45:00 PM 26.62 79.916 0.159 7.45 157.7 7.36
8/8/2022 7:00:00 PM 26.55 79.79 0.159 7.44 164.1 7.35
8/8/2022 7:15:00 PM 26.47 79.646 0.158 7.44 175.1 7.33
8/8/2022 7:30:00 PM 26.38 79.484 0.158 7.44 208.8 7.34
8/8/2022 7:45:00 PM 26.31 79.358 0.158 7.44 163 7.33
8/8/2022 8:00:00 PM 26.25 79.25 0.158 7.44 175.9 7.32
8/8/2022 8:15:00 PM 26.19 79.142 0.158 7.43 173.4 7.32
8/8/2022 8:30:00 PM 26.13 79.034 0.158 7.43 191.7 7.31
8/8/2022 8:45:00 PM 26.04 78.872 0.158 7.43 202.8 7.29
8/8/2022 9:00:00 PM 26.02 78.836 0.158 7.43 163.5 7.29
8/8/2022 9:15:00 PM 25.97 78.746 0.158 7.42 141.2 7.29
8/8/2022 9:30:00 PM 25.93 78.674 0.158 7.42 270.7 7.29
8/8/2022 9:45:00 PM 25.89 78.602 0.158 7.43 131.8 7.28
8/8/2022 10:00:00 PM 25.86 78.548 0.157 7.43 144.8 7.28
8/8/2022 10:15:00 PM 25.87 78.566 0.157 7.42 137.5 7.26
8/8/2022 10:30:00 PM 25.84 78.512 0.157 7.41 127 7.27
8/8/2022 10:45:00 PM 25.82 78.476 0.157 7.42 155.8 7.26
8/8/2022 11:00:00 PM 25.81 78.458 0.157 7.42 133.9 7.27
8/8/2022 11:15:00 PM 25.77 78.386 0.157 7.41 122.8 7.27
8/8/2022 11:30:00 PM 25.71 78.278 0.157 7.4 134.2 7.26
8/8/2022 11:45:00 PM 25.68 78.224 0.157 7.4 123.9 7.26
8/9/2022 12:00:00 AM 25.68 78.224 0.157 7.39 126 7.28
8/9/2022 12:15:00 AM 25.7 78.26 0.157 7.39 118.6 7.27
8/9/2022 12:30:00 AM 25.68 78.224 0.157 7.38 120.9 7.27
8/9/2022 12:45:00 AM 25.67 78.206 0.157 7.38 124.2 7.26
8/9/2022 1:00:00 AM 25.66 78.188 0.157 7.38 129.2 7.27
8/9/2022 1:15:00 AM 25.66 78.188 0.157 7.38 119.7 7.27
8/9/2022 1:30:00 AM 25.62 78.116 0.157 7.38 120.4 7.29
8/9/2022 1:45:00 AM 25.58 78.044 0.157 7.37 106.9 7.28
8/9/2022 2:00:00 AM 25.58 78.044 0.157 7.37 133.1 7.29
8/9/2022 2:15:00 AM 25.59 78.062 0.157 7.37 123.3 7.28
8/9/2022 2:30:00 AM 25.58 78.044 0.157 7.37 117.1 7.27
8/9/2022 2:45:00 AM 25.57 78.026 0.157 7.37 114.5 7.27
8/9/2022 3:00:00 AM 25.55 77.99 0.157 7.36 116.7 7.28
8/9/2022 3:15:00 AM 25.52 77.936 0.157 7.36 123.7 7.28
8/9/2022 3:30:00 AM 25.48 77.864 0.157 7.37 111.6 7.28
8/9/2022 3:45:00 AM 25.45 77.81 0.157 7.36 114.2 7.29
8/9/2022 4:00:00 AM 25.41 77.738 0.157 7.36 116.9 7.3
8/9/2022 4:15:00 AM 25.39 77.702 0.157 7.36 114.4 7.32
8/9/2022 4:30:00 AM 25.38 77.684 0.157 7.35 109.8 7.31
8/9/2022 4:45:00 AM 25.36 77.648 0.157 7.35 107.7 7.32
8/9/2022 5:00:00 AM 25.34 77.612 0.157 7.36 98.54 7.32
8/9/2022 5:15:00 AM 25.33 77.594 0.157 7.36 109.5 7.32
8/9/2022 5:30:00 AM 25.32 77.576 0.157 7.36 121.3 7.32
8/9/2022 5:45:00 AM 25.3 77.54 0.157 7.36 113.9 7.33
8/9/2022 6:00:00 AM 25.29 77.522 0.157 7.32 100.7 7.33
8/9/2022 6:15:00 AM 25.27 77.486 0.157 7.34 106.1 7.33
8/9/2022 6:30:00 AM 25.23 77.414 0.157 7.35 107 7.34
8/9/2022 6:45:00 AM 25.2 77.36 0.157 7.35 92.46 7.35
8/9/2022 7:00:00 AM 25.17 77.306 0.157 7.35 112 7.35
8/9/2022 7:15:00 AM 25.16 77.288 0.157 7.33 111.5 7.37
8/9/2022 7:30:00 AM 25.16 77.288 0.157 7.34 118.4 7.38
8/9/2022 7:45:00 AM 25.17 77.306 0.157 7.35 101.8 7.38
8/9/2022 8:00:00 AM 25.2 77.36 0.157 7.33 79.58 7.39
8/9/2022 8:15:00 AM 25.24 77.432 0.157 7.33 137.6 7.4
8/9/2022 8:30:00 AM 25.28 77.504 0.157 7.36 90.66 7.41
8/9/2022 8:45:00 AM 25.33 77.594 0.157 7.36 77.55 7.44
8/9/2022 9:00:00 AM 25.39 77.702 0.157 7.36 76.04 7.46
8/9/2022 9:15:00 AM 25.48 77.864 0.157 7.35 72.54 7.47
8/9/2022 9:30:00 AM 25.59 78.062 0.157 7.37 67.33 7.49
8/9/2022 9:45:00 AM 25.7 78.26 0.157 7.38 86.34 7.5
8/9/2022 10:00:00 AM 25.85 78.53 0.157 7.38 88.61 7.52
8/9/2022 10:15:00 AM 25.98 78.764 0.157 7.39 73.96 7.54
8/9/2022 10:30:00 AM 26.12 79.016 0.157 7.39 132.4 7.55
8/9/2022 10:45:00 AM 26.29 79.32201 0.157 7.39 78 7.57
8/9/2022 11:00:00 AM 26.49 79.682 0.157 7.4 72.4 7.57
8/9/2022 11:15:00 AM 26.61 79.898 0.158 7.4 72.89 7.61
8/9/2022 11:30:00 AM 26.71 80.078 0.158 7.41 76.71 7.63
8/9/2022 11:45:00 AM 26.83 80.294 0.158 7.4 62.4 7.64
8/9/2022 12:00:00 PM 26.93 80.474 0.158 7.4 62.07 7.64
8/9/2022 12:15:00 PM 27.01 80.618 0.158 7.41 67.55 7.64
8/9/2022 12:30:00 PM 27.09 80.762 0.158 7.42 68.06 7.64
8/9/2022 12:45:00 PM 27.2 80.96 0.158 7.42 55.9 7.69
8/9/2022 1:00:00 PM 27.31 81.158 0.158 7.42 64.52 7.69
8/9/2022 1:15:00 PM 27.42 81.356 0.158 7.42 66.67 7.7
8/9/2022 1:30:00 PM 27.54 81.57201 0.158 7.43 70.84 7.69
8/9/2022 1:45:00 PM 27.62 81.716 0.159 7.43 59.45 7.69
8/9/2022 2:00:00 PM 27.63 81.734 0.159 7.43 65.68 7.71
8/9/2022 2:15:00 PM 27.69 81.842 0.159 7.43 54.32 7.69
8/9/2022 2:30:00 PM 27.72 81.896 0.159 7.43 61.97 7.69
8/9/2022 2:45:00 PM 27.85 82.13 0.159 7.43 75.84 7.65
8/9/2022 3:00:00 PM 27.88 82.184 0.159 7.43 65.07 7.69
8/9/2022 3:15:00 PM 27.9 82.22 0.159 7.43 53.27 7.65
8/9/2022 3:30:00 PM 27.85 82.13 0.159 7.43 63.07 7.63
8/9/2022 3:45:00 PM 27.72 81.896 0.159 7.42 83.33 7.6
8/9/2022 4:00:00 PM 27.63 81.734 0.159 7.42 74.61 7.56
8/9/2022 4:15:00 PM 27.53 81.554 0.159 7.43 69.29 7.55
8/9/2022 4:30:00 PM 27.45 81.41 0.159 7.41 59.11 7.57
8/9/2022 4:45:00 PM 27.32 81.176 0.159 7.41 75.84 7.57
8/9/2022 5:00:00 PM 27.25 81.05 0.159 7.42 74.15 7.57
8/9/2022 5:15:00 PM 27.22 80.996 0.159 7.41 68.85 7.56
8/9/2022 5:30:00 PM 27.18 80.924 0.159 7.41 69.68 7.53
8/9/2022 5:45:00 PM 27.05 80.69 0.158 7.41 63.14 7.5
8/9/2022 6:00:00 PM 26.93 80.474 0.158 7.4 64.11 7.47
8/9/2022 6:15:00 PM 26.77 80.186 0.158 7.39 68.86 7.47
8/9/2022 6:30:00 PM 26.49 79.682 0.158 7.39 124.9 7.54
8/9/2022 6:45:00 PM 26.27 79.286 0.158 7.37 133.1 7.47
8/9/2022 7:00:00 PM 26.19 79.142 0.157 7.36 144.5 7.39
8/9/2022 7:15:00 PM 26.08 78.944 0.157 7.35 195 7.44
8/9/2022 7:30:00 PM 25.8 78.44 0.156 7.34 352.4 7.39
8/9/2022 7:45:00 PM 25.52 77.936 0.155 7.32 360.6 7.28
8/9/2022 8:00:00 PM 25.58 78.044 0.154 7.32 400.5 7.19
8/9/2022 8:15:00 PM 25.61 78.098 0.151 7.29 580.8 7.12
8/9/2022 8:30:00 PM 25.58 78.044 0.146 7.25 698.6 7.02
8/9/2022 8:45:00 PM 25.52 77.936 0.14 7.22 533.7 7.01
8/9/2022 9:00:00 PM 25.48 77.864 0.137 7.18 597.6 7.04
8/9/2022 9:15:00 PM 25.51 77.918 0.136 7.15 529 7.06
8/9/2022 9:30:00 PM 25.57 78.026 0.136 7.12 414.3 7
8/9/2022 9:45:00 PM 25.61 78.098 0.135 7.12 336.7 6.96
8/9/2022 10:00:00 PM 25.64 78.152 0.135 7.13 341.4 6.98
8/9/2022 10:15:00 PM 25.62 78.116 0.133 7.15 328.2 6.99
8/9/2022 10:30:00 PM 25.6 78.08 0.131 7.12 416.1 7.05
8/9/2022 10:45:00 PM 25.59 78.062 0.133 7.16 286.5 7.05
8/9/2022 11:00:00 PM 25.53 77.954 0.134 7.15 288.3 7.01
8/9/2022 11:15:00 PM 25.42 77.756 0.133 7.16 359.4 6.99
8/9/2022 11:30:00 PM 25.31 77.558 0.131 7.17 510.3 6.96
8/9/2022 11:45:00 PM 25.23 77.414 0.131 7.2 470.7 6.97
8/10/2022 12:00:00 AM 25.16 77.288 0.13 7.2 500 6.98
8/10/2022 12:15:00 AM 25.14 77.252 0.13 7.21 459.2 7.02
8/10/2022 12:30:00 AM 25.09 77.162 0.131 7.19 427.5 7.02
8/10/2022 12:45:00 AM 25.05 77.09 0.131 7.2 388.9 7.05
8/10/2022 1:00:00 AM 25.05 77.09 0.131 7.2 380.1 7.06
8/10/2022 1:15:00 AM 25.03 77.054 0.132 7.2 369.3 7.07
8/10/2022 1:30:00 AM 25.01 77.018 0.133 7.21 295.5 7.08
8/10/2022 1:45:00 AM 25.01 77.018 0.133 7.2 243.1 7.1
8/10/2022 2:00:00 AM 24.98 76.964 0.133 7.2 243.2 7.12
8/10/2022 2:15:00 AM 24.94 76.892 0.134 7.19 215.4 7.13
8/10/2022 2:30:00 AM 24.93 76.874 0.135 7.19 211.2 7.14
8/10/2022 2:45:00 AM 24.86 76.748 0.136 7.18 194.7 7.16
8/10/2022 3:00:00 AM 24.81 76.658 0.137 7.18 268.4 7.16
8/10/2022 3:15:00 AM 24.84 76.712 0.138 7.18 168.6 7.19
8/10/2022 3:30:00 AM 24.83 76.694 0.138 7.17 368.8 7.2
8/10/2022 3:45:00 AM 24.87 76.766 0.139 7.17 182.2 7.19
8/10/2022 4:00:00 AM 24.87 76.766 0.14 7.16 146.6 7.21
8/10/2022 4:15:00 AM 24.86 76.748 0.14 7.17 147.1 7.22
8/10/2022 4:30:00 AM 24.82 76.676 0.141 7.17 197 7.22
8/10/2022 4:45:00 AM 24.83 76.694 0.142 7.17 116.2 7.22
8/10/2022 5:00:00 AM 24.79 76.622 0.142 7.16 121.7 7.24
8/10/2022 5:15:00 AM 24.79 76.622 0.143 7.17 142.3 7.24
8/10/2022 5:30:00 AM 24.77 76.586 0.144 7.16 106.4 7.25
8/10/2022 5:45:00 AM 24.79 76.622 0.145 7.16 143.4 7.26
8/10/2022 6:00:00 AM 24.71 76.478 0.145 7.16 134.5 7.26
8/10/2022 6:15:00 AM 24.72 76.496 0.146 7.15 1000 7.27
8/10/2022 6:30:00 AM 24.68 76.424 0.146 7.16 96.62 7.27
8/10/2022 6:45:00 AM 24.66 76.388 0.147 7.17 110.4 7.29
8/10/2022 7:00:00 AM 24.64 76.352 0.147 7.18 100.6 7.31
8/10/2022 7:15:00 AM 24.63 76.334 0.148 7.18 96.2 7.32
8/10/2022 7:30:00 AM 24.62 76.316 0.149 7.18 91.24 7.34
8/10/2022 7:45:00 AM 24.61 76.298 0.149 7.18 93.31 7.36
8/10/2022 8:00:00 AM 24.66 76.388 0.149 7.2 129.7 7.37
8/10/2022 8:15:00 AM 24.69 76.442 0.15 7.23 75.4 7.38
8/10/2022 8:30:00 AM 24.72 76.496 0.15 7.23 83.37 7.4
8/10/2022 8:45:00 AM 24.77 76.586 0.151 7.26 68.77 7.42
8/10/2022 9:00:00 AM 24.86 76.748 0.151 7.29 78.21 7.44
8/10/2022 9:15:00 AM 24.95 76.91 0.151 7.31 74.79 7.46
8/10/2022 9:30:00 AM 25.02 77.036 0.152 7.33 60.39 7.48
8/10/2022 9:45:00 AM 25.11 77.198 0.152 7.36 77.87 7.5
8/10/2022 10:00:00 AM 25.14 77.252 0.153 7.36 65.38 7.52
8/10/2022 10:15:00 AM 25.23 77.414 0.154 7.37 341.8 7.52
8/10/2022 10:30:00 AM 25.32 77.576 0.154 7.38 60.54 7.54
8/10/2022 10:45:00 AM 25.46 77.828 0.155 7.4 71.36 7.54
8/10/2022 11:00:00 AM 25.55 77.99 0.155 7.42 74.47 7.55
8/10/2022 11:15:00 AM 25.67 78.206 0.155 7.43 72.68 7.57
8/10/2022 11:30:00 AM 25.74 78.332 0.155 7.42 64.45 7.59
8/10/2022 11:45:00 AM 25.86 78.548 0.156 7.43 80.96 7.6
8/10/2022 12:00:00 PM 25.88 78.584 0.156 7.44 98.36 7.54
8/10/2022 12:15:00 PM 26.02 78.836 0.156 7.44 126.2 7.52
8/10/2022 12:30:00 PM 26.03 78.854 0.156 7.45 129.2 7.53
8/10/2022 12:45:00 PM 26.14 79.052 0.156 7.44 124.8 7.54
8/10/2022 1:00:00 PM 26.28 79.304 0.157 7.46 123.8 7.53
8/10/2022 1:15:00 PM 26.43 79.574 0.157 7.46 123.4 7.53
8/10/2022 1:30:00 PM 26.48 79.664 0.157 7.46 121.4 7.53
8/10/2022 1:45:00 PM 26.46 79.628 0.157 7.46 121.3 7.55
8/10/2022 2:00:00 PM 26.42 79.556 0.157 7.48 124.5 7.54
8/10/2022 2:15:00 PM 26.32 79.376 0.157 7.48 114.8 7.55
8/10/2022 2:30:00 PM 26.28 79.304 0.157 7.48 116.6 7.56
8/10/2022 2:45:00 PM 26.22 79.196 0.157 7.48 117.6 7.57
8/10/2022 3:00:00 PM 26.29 79.32201 0.158 7.47 112.8 7.55
8/10/2022 3:15:00 PM 26.39 79.502 0.158 7.48 110.2 7.55
8/10/2022 3:30:00 PM 26.47 79.646 0.158 7.48 117.8 7.53
8/10/2022 3:45:00 PM 26.51 79.718 0.158 7.49 103.8 7.53
8/10/2022 4:00:00 PM 26.56 79.808 0.159 7.47 117.3 7.49
8/10/2022 4:15:00 PM 26.6 79.88 0.159 7.47 117.8 7.48
8/10/2022 4:30:00 PM 26.59 79.862 0.159 7.47 115.1 7.48
8/10/2022 4:45:00 PM 26.56 79.808 0.159 7.46 116.1 7.48
8/10/2022 5:00:00 PM 26.55 79.79 0.159 7.46 120.4 7.46
8/10/2022 5:15:00 PM 26.53 79.754 0.159 7.45 109.2 7.43
8/10/2022 5:30:00 PM 26.44 79.592 0.159 7.46 109.3 7.42
8/10/2022 5:45:00 PM 26.34 79.412 0.16 7.45 127.6 7.42
8/10/2022 6:00:00 PM 26.22 79.196 0.16 7.45 116.7 7.43
8/10/2022 6:15:00 PM 26.11 78.998 0.16 7.45 118.9 7.42
8/10/2022 6:30:00 PM 26.03 78.854 0.16 7.43 116.8 7.41
8/10/2022 6:45:00 PM 25.99 78.782 0.16 7.44 120.8 7.38
8/10/2022 7:00:00 PM 25.96 78.728 0.16 7.44 128.3 7.37
8/10/2022 7:15:00 PM 25.91 78.638 0.16 7.43 119.8 7.36
8/10/2022 7:30:00 PM 25.9 78.62 0.16 7.42 121.3 7.34
8/10/2022 7:45:00 PM 25.88 78.584 0.159 7.42 115.6 7.33
8/10/2022 8:00:00 PM 25.85 78.53 0.159 7.41 112.8 7.3
8/10/2022 8:15:00 PM 25.81 78.458 0.159 7.42 122.5 7.28
8/10/2022 8:30:00 PM 25.82 78.476 0.159 7.41 116.6 7.28
8/10/2022 8:45:00 PM 25.81 78.458 0.158 7.41 113.7 7.26
8/10/2022 9:00:00 PM 25.81 78.458 0.158 7.42 108.9 7.25
8/10/2022 9:15:00 PM 25.79 78.422 0.158 7.42 106.1 7.24
8/10/2022 9:30:00 PM 25.78 78.404 0.158 7.42 102.2 7.24
8/10/2022 9:45:00 PM 25.79 78.422 0.158 7.41 107.9 7.23
8/10/2022 10:00:00 PM 25.78 78.404 0.158 7.42 123 7.23
8/10/2022 10:15:00 PM 25.74 78.332 0.159 7.41 107.3 7.23
8/10/2022 10:30:00 PM 25.74 78.332 0.159 7.4 110.5 7.22
8/10/2022 10:45:00 PM 25.71 78.278 0.159 7.4 110.2 7.23
8/10/2022 11:00:00 PM 25.73 78.314 0.159 7.4 108.5 7.22
8/10/2022 11:15:00 PM 25.7 78.26 0.159 7.39 98.01 7.23
8/10/2022 11:30:00 PM 25.71 78.278 0.159 7.39 125.5 7.22
8/10/2022 11:45:00 PM 25.7 78.26 0.159 7.39 102.2 7.22
8/11/2022 12:00:00 AM 25.7 78.26 0.158 7.41 102.1 7.22
8/11/2022 12:15:00 AM 25.7 78.26 0.158 7.4 108.4 7.22
8/11/2022 12:30:00 AM 25.71 78.278 0.158 7.4 102.5 7.24
8/11/2022 12:45:00 AM 25.68 78.224 0.159 7.4 101.8 7.22
8/11/2022 1:00:00 AM 25.63 78.134 0.159 7.39 104.9 7.23
8/11/2022 1:15:00 AM 25.64 78.152 0.159 7.39 103.3 7.24
8/11/2022 1:30:00 AM 25.63 78.134 0.159 7.39 101 7.23
8/11/2022 1:45:00 AM 25.64 78.152 0.159 7.39 101.2 7.24
8/11/2022 2:00:00 AM 25.62 78.116 0.159 7.38 96.69 7.24
8/11/2022 2:15:00 AM 25.58 78.044 0.159 7.39 101.8 7.24
8/11/2022 2:30:00 AM 25.56 78.008 0.159 7.38 89.69 7.24
8/11/2022 2:45:00 AM 25.54 77.972 0.159 7.38 97.07 7.25
8/11/2022 3:00:00 AM 25.5 77.9 0.159 7.38 98.03 7.26
8/11/2022 3:15:00 AM 25.44 77.792 0.159 7.38 94.85 7.26
8/11/2022 3:30:00 AM 25.36 77.648 0.16 7.37 104.8 7.26
8/11/2022 3:45:00 AM 25.36 77.648 0.16 7.36 91.01 7.28
8/11/2022 4:00:00 AM 25.31 77.558 0.16 7.37 86.99 7.28
8/11/2022 4:15:00 AM 25.3 77.54 0.16 7.36 95.25 7.29
8/11/2022 4:30:00 AM 25.32 77.576 0.16 7.36 90.74 7.28
8/11/2022 4:45:00 AM 25.3 77.54 0.16 7.36 95.79 7.28
8/11/2022 5:00:00 AM 25.27 77.486 0.16 7.36 91.09 7.29
8/11/2022 5:15:00 AM 25.25 77.45 0.16 7.36 91.32 7.29
8/11/2022 5:30:00 AM 25.23 77.414 0.159 7.35 87.6 7.3
8/11/2022 5:45:00 AM 25.21 77.378 0.159 7.35 91.15 7.3
8/11/2022 6:00:00 AM 25.17 77.306 0.159 7.34 86.31 7.3
8/11/2022 6:15:00 AM 25.16 77.288 0.159 7.34 87.95 7.31
8/11/2022 6:30:00 AM 25.11 77.198 0.159 7.34 96.77 7.31
8/11/2022 6:45:00 AM 25.08 77.144 0.159 7.33 92.18 7.32
8/11/2022 7:00:00 AM 25.08 77.144 0.159 7.33 88.02 7.31
8/11/2022 7:15:00 AM 25.03 77.054 0.159 7.32 85.01 7.32
8/11/2022 7:30:00 AM 25.07 77.126 0.158 7.32 91.23 7.34
8/11/2022 7:45:00 AM 24.87 76.766 0.159 7.32 85.5 7.38
8/11/2022 8:00:00 AM 24.49 76.082 0.164 7.32 125.9 7.42
8/11/2022 8:15:00 AM 24.32 75.776 0.166 7.31 170.3 7.43
8/11/2022 8:30:00 AM 24.23 75.614 0.167 7.32 186.9 7.46
8/11/2022 8:45:00 AM 24.23 75.614 0.168 7.32 166.3 7.48
8/11/2022 9:00:00 AM 24.22 75.596 0.17 7.32 157.2 7.47
8/11/2022 9:15:00 AM 24.25 75.65 0.17 7.34 140.8 7.51
8/11/2022 9:30:00 AM 24.32 75.776 0.17 7.34 136.7 7.51
8/11/2022 9:45:00 AM 24.37 75.866 0.172 7.35 135.7 7.52
8/11/2022 10:00:00 AM 24.51 76.118 0.172 7.35 125.6 7.54
8/11/2022 10:15:00 AM 24.59 76.262 0.172 7.35 123.9 7.54
8/11/2022 10:30:00 AM 24.62 76.316 0.172 7.36 117.6 7.55
8/11/2022 10:45:00 AM 24.71 76.478 0.172 7.36 138.8 7.55
8/11/2022 11:00:00 AM 24.87 76.766 0.172 7.36 106 7.57
8/11/2022 11:15:00 AM 24.97 76.946 0.171 7.36 106.3 7.57
8/11/2022 11:30:00 AM 25.06 77.108 0.172 7.35 96.17 7.58
8/11/2022 11:45:00 AM 25.19 77.342 0.172 7.36 92.25 7.59
8/11/2022 12:00:00 PM 25.32 77.576 0.171 7.36 93.85 7.58
8/11/2022 12:15:00 PM 25.42 77.756 0.171 7.35 88.79 7.59
8/11/2022 12:30:00 PM 25.61 78.098 0.17 7.36 95.36 7.57
8/11/2022 12:45:00 PM 25.73 78.314 0.169 7.35 90.27 7.59
8/11/2022 1:00:00 PM 25.8 78.44 0.169 7.35 89.51 7.58
8/11/2022 1:15:00 PM 25.92 78.656 0.168 7.35 92.5 7.56
8/11/2022 1:30:00 PM 26.02 78.836 0.167 7.34 123.4 7.51
8/11/2022 1:45:00 PM 26.11 78.998 0.165 7.33 91.45 7.54
8/11/2022 2:00:00 PM 26.11 78.998 0.164 7.33 95.4 7.55
8/11/2022 2:15:00 PM 26.14 79.052 0.163 7.32 95.13 7.54
8/11/2022 2:30:00 PM 26.28 79.304 0.162 7.31 91.58 7.52
8/11/2022 2:45:00 PM 26.27 79.286 0.161 7.31 85.36 7.52
8/11/2022 3:00:00 PM 26.29 79.32201 0.16 7.31 89.79 7.49
8/11/2022 3:15:00 PM 26.32 79.376 0.159 7.3 89.88 7.47
8/11/2022 3:30:00 PM 26.33 79.394 0.159 7.29 96.1 7.48
8/11/2022 3:45:00 PM 26.23 79.214 0.158 7.29 105.9 7.46
8/11/2022 4:00:00 PM 26.33 79.394 0.159 7.29 89.57 7.44
8/11/2022 4:15:00 PM 26.3 79.34 0.158 7.29 91.45 7.42
8/11/2022 4:30:00 PM 26.25 79.25 0.158 7.27 103.3 7.4
8/11/2022 4:45:00 PM 26.28 79.304 0.159 7.27 92.48 7.39
8/11/2022 5:00:00 PM 26.25 79.25 0.158 7.26 92.9 7.39
8/11/2022 5:15:00 PM 26.26 79.268 0.159 7.26 93.34 7.36
8/11/2022 5:30:00 PM 26.22 79.196 0.159 7.26 87.91 7.36
8/11/2022 5:45:00 PM 26.14 79.052 0.16 7.24 86.75 7.36
8/11/2022 6:00:00 PM 26.09 78.962 0.161 7.24 90.22 7.34
8/11/2022 6:15:00 PM 26.05 78.89 0.162 7.24 86.35 7.36
8/11/2022 6:30:00 PM 26 78.8 0.162 7.24 88.86 7.34
8/11/2022 6:45:00 PM 25.91 78.638 0.162 7.23 84.61 7.34
8/11/2022 7:00:00 PM 25.87 78.566 0.162 7.23 89.03 7.33
8/11/2022 7:15:00 PM 25.81 78.458 0.162 7.22 95.19 7.32
8/11/2022 7:30:00 PM 25.74 78.332 0.162 7.22 86.12 7.32
8/11/2022 7:45:00 PM 25.67 78.206 0.162 7.23 77.63 7.32
8/11/2022 8:00:00 PM 25.58 78.044 0.161 7.23 84.27 7.31
8/11/2022 8:15:00 PM 25.54 77.972 0.161 7.2 82.54 7.3
8/11/2022 8:30:00 PM 25.5 77.9 0.161 7.22 77.59 7.29
8/11/2022 8:45:00 PM 25.45 77.81 0.161 7.21 85.72 7.29
8/11/2022 9:00:00 PM 25.43 77.774 0.161 7.21 96.42 7.28
8/11/2022 9:15:00 PM 25.42 77.756 0.162 7.21 88.46 7.27
8/11/2022 9:30:00 PM 25.38 77.684 0.161 7.2 81.85 7.28
8/11/2022 9:45:00 PM 25.4 77.72 0.161 7.2 88.74 7.27
8/11/2022 10:00:00 PM 25.42 77.756 0.161 7.19 88.31 7.27
8/11/2022 10:15:00 PM 25.46 77.828 0.16 7.19 82.43 7.26
8/11/2022 10:30:00 PM 25.47 77.846 0.161 7.19 77.24 7.26
8/11/2022 10:45:00 PM 25.48 77.864 0.161 7.19 79.93 7.25
8/11/2022 11:00:00 PM 25.47 77.846 0.161 7.18 81.14 7.26
8/11/2022 11:15:00 PM 25.48 77.864 0.161 7.18 77.13 7.26
8/11/2022 11:30:00 PM 25.5 77.9 0.161 7.18 89.61 7.27
8/11/2022 11:45:00 PM 25.48 77.864 0.161 7.17 76.16 7.26
8/12/2022 12:00:00 AM 25.48 77.864 0.161 7.18 73.49 7.25
8/12/2022 12:15:00 AM 25.47 77.846 0.16 7.16 79.49 7.27
8/12/2022 12:30:00 AM 25.45 77.81 0.16 7.17 83.94 7.28
8/12/2022 12:45:00 AM 25.45 77.81 0.161 7.17 84.13 7.27
8/12/2022 1:00:00 AM 25.37 77.666 0.161 7.17 74.82 7.28
8/12/2022 1:15:00 AM 25.35 77.63 0.161 7.16 71.03 7.27
8/12/2022 1:30:00 AM 25.33 77.594 0.161 7.17 75.49 7.28
8/12/2022 1:45:00 AM 25.32 77.576 0.162 7.15 74.89 7.27
8/12/2022 2:00:00 AM 25.31 77.558 0.162 7.16 77.49 7.3
8/12/2022 2:15:00 AM 25.26 77.468 0.162 7.16 71.69 7.3
8/12/2022 2:30:00 AM 25.24 77.432 0.162 7.15 70.06 7.3
8/12/2022 2:45:00 AM 25.2 77.36 0.162 7.15 69.84 7.31
8/12/2022 3:00:00 AM 25.2 77.36 0.162 7.15 72.71 7.3
8/12/2022 3:15:00 AM 25.14 77.252 0.163 7.15 75.41 7.32
8/12/2022 3:30:00 AM 25.1 77.18 0.163 7.15 70.67 7.32
8/12/2022 3:45:00 AM 25.01 77.018 0.163 7.15 69.29 7.35
8/12/2022 4:00:00 AM 24.98 76.964 0.163 7.15 73.44 7.35
8/12/2022 4:15:00 AM 24.9 76.82 0.163 7.14 74.37 7.37
8/12/2022 4:30:00 AM 24.9 76.82 0.164 7.14 73.95 7.37
8/12/2022 4:45:00 AM 24.81 76.658 0.164 7.14 84.07 7.37
8/12/2022 5:00:00 AM 24.79 76.622 0.164 7.14 71.51 7.39
8/12/2022 5:15:00 AM 24.78 76.604 0.164 7.14 72.82 7.4
8/12/2022 5:30:00 AM 24.76 76.568 0.164 7.13 68.89 7.39
8/12/2022 5:45:00 AM 24.72 76.496 0.164 7.13 73.86 7.4
8/12/2022 6:00:00 AM 24.63 76.334 0.165 7.13 67.66 7.42
8/12/2022 6:15:00 AM 24.6 76.28 0.164 7.13 68.3 7.43
8/12/2022 6:30:00 AM 24.55 76.19 0.165 7.12 90.53 7.44
8/12/2022 6:45:00 AM 24.49 76.082 0.165 7.11 69.5 7.44
8/12/2022 7:00:00 AM 24.43 75.974 0.165 7.12 62.73 7.46
8/12/2022 7:15:00 AM 24.38 75.884 0.165 7.11 74.32 7.47
8/12/2022 7:30:00 AM 24.42 75.956 0.165 7.12 67.37 7.48
8/12/2022 7:45:00 AM 24.42 75.956 0.165 7.1 63.82 7.49
8/12/2022 8:00:00 AM 24.37 75.866 0.165 7.11 73.71 7.49
8/12/2022 8:15:00 AM 24.38 75.884 0.165 7.1 65.76 7.52
8/12/2022 8:30:00 AM 24.43 75.974 0.166 7.09 65.61 7.54
8/12/2022 8:45:00 AM 24.34 75.812 0.165 7.11 69.02 7.55
8/12/2022 9:00:00 AM 24.46 76.028 0.165 7.1 62.21 7.56
8/12/2022 9:15:00 AM 24.5 76.1 0.165 7.09 58.93 7.6
8/12/2022 9:30:00 AM 24.59 76.262 0.165 7.09 65.23 7.6
8/12/2022 9:45:00 AM 24.71 76.478 0.165 7.1 59.96 7.61
8/12/2022 10:00:00 AM 24.79 76.622 0.165 7.1 56.85 7.62
8/12/2022 10:15:00 AM 24.89 76.802 0.165 7.1 62.28 7.64
8/12/2022 10:30:00 AM 25.02 77.036 0.166 7.1 55.08 7.67
8/12/2022 10:45:00 AM 25.08 77.144 0.166 7.09 51.58 7.68
8/12/2022 11:00:00 AM 25.2 77.36 0.166 7.1 56.83 7.7
8/12/2022 11:15:00 AM 25.32 77.576 0.167 7.1 50.23 7.72
8/12/2022 11:30:00 AM 25.38 77.684 0.167 7.1 52.18 7.72
8/12/2022 11:45:00 AM 25.57 78.026 0.167 7.1 58.56 7.72
8/12/2022 12:00:00 PM 25.61 78.098 0.167 7.1 54.18 7.72
8/12/2022 12:15:00 PM 25.81 78.458 0.167 7.1 47.85 7.73
8/12/2022 12:30:00 PM 25.81 78.458 0.167 7.1 51 7.73
8/12/2022 12:45:00 PM 25.9 78.62 0.168 7.09 50.45 7.75
8/12/2022 1:00:00 PM 25.96 78.728 0.169 7.1 53.46 7.74
8/12/2022 1:15:00 PM 26.01 78.818 0.17 7.1 55.02 7.74
8/12/2022 1:30:00 PM 26.02 78.836 0.17 7.09 55.32 7.74
8/12/2022 1:45:00 PM 26.07 78.926 0.171 7.1 49.75 7.77
8/12/2022 2:00:00 PM 26.18 79.124 0.171 7.1 55.46 7.78
8/12/2022 2:15:00 PM 26.18 79.124 0.171 7.09 56.71 7.77
8/12/2022 2:30:00 PM 26.28 79.304 0.17 7.09 63.55 7.75
8/12/2022 2:45:00 PM 26.3 79.34 0.171 7.09 49.13 7.75
8/12/2022 3:00:00 PM 26.38 79.484 0.171 7.09 51.34 7.75
8/12/2022 3:15:00 PM 26.32 79.376 0.171 7.09 47.69 7.74
8/12/2022 3:30:00 PM 26.27 79.286 0.171 7.09 51.53 7.77
8/12/2022 3:45:00 PM 26.28 79.304 0.171 7.08 51.92 7.74
8/12/2022 4:00:00 PM 26.21 79.17799 0.171 7.08 52.59 7.72
8/12/2022 4:15:00 PM 26.15 79.07 0.172 7.09 49.19 7.71
8/12/2022 4:30:00 PM 26.13 79.034 0.171 7.09 49.6 7.69
8/12/2022 4:45:00 PM 26.12 79.016 0.171 7.08 52.35 7.67
8/12/2022 5:00:00 PM 26.06 78.908 0.171 7.08 55.82 7.65
8/12/2022 5:15:00 PM 26 78.8 0.172 7.08 55.91 7.63
8/12/2022 5:30:00 PM 25.91 78.638 0.171 7.08 59.22 7.63
8/12/2022 5:45:00 PM 25.85 78.53 0.171 7.08 55.91 7.62
8/12/2022 6:00:00 PM 25.73 78.314 0.172 7.08 51.43 7.61
8/12/2022 6:15:00 PM 25.66 78.188 0.172 7.08 56.89 7.6
8/12/2022 6:30:00 PM 25.59 78.062 0.172 7.08 62.33 7.59
8/12/2022 6:45:00 PM 25.52 77.936 0.172 7.08 56.81 7.57
8/12/2022 7:00:00 PM 25.44 77.792 0.172 7.08 57.82 7.56
8/12/2022 7:15:00 PM 25.37 77.666 0.172 7.07 56.77 7.55
8/12/2022 7:30:00 PM 25.3 77.54 0.172 7.07 53.72 7.54
8/12/2022 7:45:00 PM 25.22 77.396 0.171 7.07 56.64 7.54
8/12/2022 8:00:00 PM 25.15 77.27 0.171 7.07 57.82 7.54
8/12/2022 8:15:00 PM 25.08 77.144 0.171 7.07 61.66 7.53
8/12/2022 8:30:00 PM 25.02 77.036 0.171 7.07 60.5 7.51
8/12/2022 8:45:00 PM 24.92 76.856 0.172 7.07 56.38 7.52
8/12/2022 9:00:00 PM 24.85 76.73 0.172 7.07 63.44 7.5
8/12/2022 9:15:00 PM 24.79 76.622 0.171 7.07 68.94 7.51
8/12/2022 9:30:00 PM 24.76 76.568 0.172 7.07 59.98 7.51
8/12/2022 9:45:00 PM 24.67 76.406 0.173 7.06 58.26 7.51
8/12/2022 10:00:00 PM 24.61 76.298 0.173 7.06 62.7 7.5
8/12/2022 10:15:00 PM 24.57 76.226 0.173 7.06 57.1 7.5
8/12/2022 10:30:00 PM 24.54 76.172 0.173 7.05 57.27 7.5
8/12/2022 10:45:00 PM 24.46 76.028 0.173 7.06 61.01 7.5
8/12/2022 11:00:00 PM 24.42 75.956 0.173 7.05 60.55 7.5
8/12/2022 11:15:00 PM 24.44 75.992 0.173 7.05 57.85 7.51
8/12/2022 11:30:00 PM 24.4 75.92 0.173 7.04 57.68 7.51
8/12/2022 11:45:00 PM 24.34 75.812 0.173 7.04 54.18 7.52
8/13/2022 12:00:00 AM 24.35 75.83 0.173 7.05 54.62 7.52
8/13/2022 12:15:00 AM 24.33 75.794 0.173 7.05 59.7 7.53
8/13/2022 12:30:00 AM 24.27 75.686 0.173 7.03 59.73 7.54
8/13/2022 12:45:00 AM 24.26 75.668 0.173 7.05 59.61 7.53
8/13/2022 1:00:00 AM 24.25 75.65 0.173 7.04 53.62 7.53
8/13/2022 1:15:00 AM 24.23 75.614 0.173 7.04 52.52 7.54
8/13/2022 1:30:00 AM 24.16 75.488 0.173 7.04 53.47 7.55
8/13/2022 1:45:00 AM 24.17 75.506 0.174 7.04 49.91 7.55
8/13/2022 2:00:00 AM 24.17 75.506 0.173 7.02 53.6 7.56
8/13/2022 2:15:00 AM 24.12 75.416 0.173 7.01 48.65 7.56
8/13/2022 2:30:00 AM 24.07 75.326 0.174 7.03 60.99 7.57
8/13/2022 2:45:00 AM 23.99 75.182 0.174 7.02 50.06 7.57
8/13/2022 3:00:00 AM 24.02 75.236 0.173 7.01 50.3 7.58
8/13/2022 3:15:00 AM 23.98 75.164 0.174 7 55.5 7.59
8/13/2022 3:30:00 AM 23.93 75.074 0.174 7.02 57.42 7.58
8/13/2022 3:45:00 AM 23.91 75.038 0.174 7.01 54.27 7.6
8/13/2022 4:00:00 AM 23.85 74.93 0.174 7 55.56 7.61
8/13/2022 4:15:00 AM 23.86 74.948 0.174 7 55.04 7.61
8/13/2022 4:30:00 AM 23.79 74.82201 0.174 7.01 49.71 7.61
8/13/2022 4:45:00 AM 23.79 74.82201 0.173 7.02 55.79 7.62
8/13/2022 5:00:00 AM 23.75 74.75 0.173 7.02 51.47 7.62
8/13/2022 5:15:00 AM 23.71 74.67799 0.173 7 55.27 7.63
8/13/2022 5:30:00 AM 23.69 74.642 0.173 7.03 54.72 7.64
8/13/2022 5:45:00 AM 23.74 74.732 0.173 7 61 7.64
8/13/2022 6:00:00 AM 23.63 74.534 0.173 7.01 60.55 7.65
8/13/2022 6:15:00 AM 23.52 74.336 0.174 7 52.84 7.67
8/13/2022 6:30:00 AM 23.43 74.174 0.174 7.02 54.97 7.69
8/13/2022 6:45:00 AM 23.47 74.246 0.174 7.01 53.54 7.69
8/13/2022 7:00:00 AM 23.46 74.228 0.174 7.01 54.58 7.69
8/13/2022 7:15:00 AM 23.44 74.192 0.173 7.01 55.38 7.72
8/13/2022 7:30:00 AM 23.34 74.012 0.173 7.01 52.14 7.72
8/13/2022 7:45:00 AM 23.43 74.174 0.173 7.02 50.03 7.73
8/13/2022 8:00:00 AM 23.42 74.156 0.173 7 51.57 7.74
8/13/2022 8:15:00 AM 23.44 74.192 0.173 6.99 60.12 7.75
8/13/2022 8:30:00 AM 23.43 74.174 0.174 7 48.21 7.79
8/13/2022 8:45:00 AM 23.41 74.138 0.174 6.98 57.41 7.81
8/13/2022 9:00:00 AM 23.52 74.336 0.173 7.02 49.63 7.83
8/13/2022 9:15:00 AM 23.6 74.48 0.173 6.99 57.57 7.86
8/13/2022 9:30:00 AM 23.67 74.606 0.173 6.99 45.1 7.87
8/13/2022 9:45:00 AM 23.7 74.66 0.173 7 45.98 7.88
8/13/2022 10:00:00 AM 23.94 75.092 0.173 7.01 40.24 7.91
8/13/2022 10:15:00 AM 24.09 75.362 0.173 7 40.81 7.91
8/13/2022 10:30:00 AM 24.31 75.758 0.173 6.97 43.35 7.91
8/13/2022 10:45:00 AM 24.38 75.884 0.17 6.98 45.55 7.94
8/13/2022 11:00:00 AM 24.55 76.19 0.174 6.98 44.08 7.95
8/13/2022 11:15:00 AM 24.62 76.316 0.174 7 44.82 7.95
8/13/2022 11:30:00 AM 24.69 76.442 0.174 7.01 45.82 7.98
8/13/2022 11:45:00 AM 24.9 76.82 0.173 7.01 38.92 7.96
8/13/2022 12:00:00 PM 25.09 77.162 0.173 7.01 42.82 7.99
8/13/2022 12:15:00 PM 25.15 77.27 0.173 7.01 41.32 7.99
8/13/2022 12:30:00 PM 25.29 77.522 0.172 7 39.23 7.99
8/13/2022 12:45:00 PM 25.38 77.684 0.173 6.99 42.63 8
8/13/2022 1:00:00 PM 25.54 77.972 0.173 7.01 40.6 7.97
8/13/2022 1:15:00 PM 25.54 77.972 0.174 7 41.29 8
8/13/2022 1:30:00 PM 25.69 78.242 0.174 7 40.06 7.98
8/13/2022 1:45:00 PM 25.67 78.206 0.174 7 39.82 7.97
8/13/2022 2:00:00 PM 25.69 78.242 0.174 7.01 43.49 7.98
8/13/2022 2:15:00 PM 25.81 78.458 0.173 7 42.09 7.96
8/13/2022 2:30:00 PM 25.85 78.53 0.173 7 38.93 7.94
8/13/2022 2:45:00 PM 25.86 78.548 0.173 7.01 41.79 7.96
8/13/2022 3:00:00 PM 25.94 78.692 0.172 7.01 44.57 7.92
8/13/2022 3:15:00 PM 25.82 78.476 0.172 7.01 38.61 7.92
8/13/2022 3:30:00 PM 25.85 78.53 0.172 7 46.8 7.91
8/13/2022 3:45:00 PM 25.85 78.53 0.172 7 50.06 7.88
8/13/2022 4:00:00 PM 25.79 78.422 0.173 7.01 42.52 7.88
8/13/2022 4:15:00 PM 25.75 78.35 0.172 7.01 46.95 7.86
8/13/2022 4:30:00 PM 25.65 78.17 0.174 7.01 49.36 7.84
8/13/2022 4:45:00 PM 25.66 78.188 0.174 6.99 43.75 7.82
8/13/2022 5:00:00 PM 25.59 78.062 0.169 7 39.81 7.79
8/13/2022 5:15:00 PM 25.52 77.936 0.174 6.99 41.69 7.77
8/13/2022 5:30:00 PM 25.49 77.882 0.173 6.98 43.54 7.76
8/13/2022 5:45:00 PM 25.38 77.684 0.173 6.99 49.03 7.74
8/13/2022 6:00:00 PM 25.35 77.63 0.173 7 45.49 7.74
8/13/2022 6:15:00 PM 25.2 77.36 0.173 7 39.8 7.72
8/13/2022 6:30:00 PM 25.14 77.252 0.172 6.99 41.03 7.72
8/13/2022 6:45:00 PM 25.08 77.144 0.172 7 48.46 7.71
8/13/2022 7:00:00 PM 25 77 0.173 6.99 43.84 7.71
8/13/2022 7:15:00 PM 24.87 76.766 0.173 6.99 46.36 7.7
8/13/2022 7:30:00 PM 24.78 76.604 0.171 6.99 46 7.69
8/13/2022 7:45:00 PM 24.72 76.496 0.17 6.99 41.52 7.67
8/13/2022 8:00:00 PM 24.59 76.262 0.172 6.99 41.01 7.67
8/13/2022 8:15:00 PM 24.54 76.172 0.172 6.99 46.7 7.67
8/13/2022 8:30:00 PM 24.45 76.01 0.172 6.99 48.3 7.64
8/13/2022 8:45:00 PM 24.34 75.812 0.172 6.98 44.44 7.64
8/13/2022 9:00:00 PM 24.27 75.686 0.172 6.97 47.65 7.63
8/13/2022 9:15:00 PM 24.21 75.578 0.17 6.98 40.86 7.63
8/13/2022 9:30:00 PM 24.2 75.56 0.17 6.99 46.76 7.61
8/13/2022 9:45:00 PM 24.14 75.452 0.17 6.98 45.16 7.61
8/13/2022 10:00:00 PM 24.1 75.38 0.172 6.98 46.28 7.62
8/13/2022 10:15:00 PM 24.05 75.29 0.172 6.99 46.91 7.62
8/13/2022 10:30:00 PM 24.12 75.416 0.171 6.99 52.41 7.59
8/13/2022 10:45:00 PM 24.05 75.29 0.171 6.99 47.39 7.61
8/13/2022 11:00:00 PM 24.06 75.308 0.172 6.99 48.89 7.6
8/13/2022 11:15:00 PM 24.05 75.29 0.171 6.99 49.24 7.62
8/13/2022 11:30:00 PM 23.99 75.182 0.172 7 44.57 7.62
8/13/2022 11:45:00 PM 23.96 75.128 0.168 7.02 46.05 7.62
8/14/2022 12:00:00 AM 24 75.2 0.171 7.03 41.72 7.61
8/14/2022 12:15:00 AM 24.04 75.272 0.171 7.02 50.55 7.61
8/14/2022 12:30:00 AM 24.02 75.236 0.171 7.03 47.35 7.6
8/14/2022 12:45:00 AM 24.04 75.272 0.171 7.04 53.34 7.6
8/14/2022 1:00:00 AM 24.01 75.218 0.17 7.04 45.24 7.6
8/14/2022 1:15:00 AM 23.97 75.146 0.17 7.05 45.06 7.62
8/14/2022 1:30:00 AM 23.98 75.164 0.171 7.05 55.95 7.61
8/14/2022 1:45:00 AM 23.97 75.146 0.171 7.05 42.7 7.6
8/14/2022 2:00:00 AM 23.94 75.092 0.167 7.04 49.89 7.6
8/14/2022 2:15:00 AM 23.89 75.002 0.171 7.03 40.27 7.6
8/14/2022 2:30:00 AM 23.86 74.948 0.171 7.06 46.53 7.61
8/14/2022 2:45:00 AM 23.93 75.074 0.171 7.05 46.39 7.62
8/14/2022 3:00:00 AM 23.89 75.002 0.171 7.06 47.15 7.62
8/14/2022 3:15:00 AM 23.87 74.966 0.171 7.06 43.64 7.62
8/14/2022 3:30:00 AM 23.9 75.02 0.171 7.05 45.34 7.62
8/14/2022 3:45:00 AM 23.87 74.966 0.171 7.06 48.15 7.63
8/14/2022 4:00:00 AM 23.82 74.876 0.171 7.06 48.26 7.61
8/14/2022 4:15:00 AM 23.79 74.82201 0.171 7.06 48.05 7.63
8/14/2022 4:30:00 AM 23.81 74.858 0.171 7.07 41.09 7.63
8/14/2022 4:45:00 AM 23.72 74.696 0.171 7.08 45.57 7.63
8/14/2022 5:00:00 AM 23.79 74.82201 0.171 7.07 45.43 7.62
8/14/2022 5:15:00 AM 23.78 74.804 0.171 7.08 51.16 7.62
8/14/2022 5:30:00 AM 23.67 74.606 0.171 7.07 46.31 7.64
8/14/2022 5:45:00 AM 23.68 74.624 0.171 7.08 45.89 7.63
8/14/2022 6:00:00 AM 23.72 74.696 0.171 7.08 55.13 7.65
8/14/2022 6:15:00 AM 23.64 74.552 0.167 7.08 45.82 7.67
8/14/2022 6:30:00 AM 23.52 74.336 0.172 7.06 44.43 7.66
8/14/2022 6:45:00 AM 23.52 74.336 0.168 7.07 42.79 7.67
8/14/2022 7:00:00 AM 23.55 74.39 0.167 7.06 46.61 7.67
8/14/2022 7:15:00 AM 23.46 74.228 0.172 7.06 44.83 7.69
8/14/2022 7:30:00 AM 23.47 74.246 0.171 7.07 42.46 7.7
8/14/2022 7:45:00 AM 23.43 74.174 0.171 7.07 43.11 7.71
8/14/2022 8:00:00 AM 23.53 74.354 0.17 7.07 48.15 7.72
8/14/2022 8:15:00 AM 23.45 74.21 0.171 7.07 39.66 7.75
8/14/2022 8:30:00 AM 23.53 74.354 0.171 7.07 42.22 7.77
8/14/2022 8:45:00 AM 23.51 74.318 0.17 7.07 36.69 7.78
8/14/2022 9:00:00 AM 23.56 74.408 0.168 7.08 37.29 7.82
8/14/2022 9:15:00 AM 23.72 74.696 0.168 7.08 34.82 7.84
8/14/2022 9:30:00 AM 23.77 74.786 0.166 7.08 38.99 7.87
8/14/2022 9:45:00 AM 23.91 75.038 0.166 7.08 35.16 7.88
8/14/2022 10:00:00 AM 24.13 75.434 0.165 7.07 35.02 7.91
8/14/2022 10:15:00 AM 24.21 75.578 0.166 7.09 40.08 7.91
8/14/2022 10:30:00 AM 24.38 75.884 0.165 7.09 37.81 7.93
8/14/2022 10:45:00 AM 24.46 76.028 0.166 7.1 43.3 7.94
8/14/2022 11:00:00 AM 24.47 76.046 0.167 7.11 39.37 7.96
8/14/2022 11:15:00 AM 24.66 76.388 0.172 7.12 34.15 7.99
8/14/2022 11:30:00 AM 24.88 76.784 0.171 7.12 31.42 8
8/14/2022 11:45:00 AM 25.01 77.018 0.171 7.13 31.37 8
8/14/2022 12:00:00 PM 25.08 77.144 0.171 7.15 34.49 7.99
8/14/2022 12:15:00 PM 25.31 77.558 0.171 7.14 37.19 7.98
8/14/2022 12:30:00 PM 25.5 77.9 0.17 7.15 40.44 7.98
8/14/2022 12:45:00 PM 25.52 77.936 0.17 7.15 33.44 8.01
8/14/2022 1:00:00 PM 25.66 78.188 0.17 7.16 32.86 7.99
8/14/2022 1:15:00 PM 25.73 78.314 0.171 7.17 31.98 8.01
8/14/2022 1:30:00 PM 25.77 78.386 0.172 7.16 39.83 8.02
8/14/2022 1:45:00 PM 25.84 78.512 0.172 7.17 37.54 8
8/14/2022 2:00:00 PM 25.82 78.476 0.172 7.18 37.98 8
8/14/2022 2:15:00 PM 25.92 78.656 0.171 7.16 32.53 8
8/14/2022 2:30:00 PM 25.9 78.62 0.171 7.16 42.82 7.99
8/14/2022 2:45:00 PM 25.88 78.584 0.171 7.16 40.7 8.02
8/14/2022 3:00:00 PM 25.99 78.782 0.171 7.17 35.33 7.99
8/14/2022 3:15:00 PM 25.96 78.728 0.171 7.17 34.19 7.98
8/14/2022 3:30:00 PM 25.99 78.782 0.171 7.17 34.91 7.99
8/14/2022 3:45:00 PM 25.9 78.62 0.171 7.21 34.87 7.98
8/14/2022 4:00:00 PM 25.85 78.53 0.171 7.24 37.58 7.94
8/14/2022 4:15:00 PM 25.79 78.422 0.171 7.25 33.29 7.94
8/14/2022 4:30:00 PM 25.79 78.422 0.171 7.27 33.32 7.93
8/14/2022 4:45:00 PM 25.75 78.35 0.171 7.29 32.54 7.92
8/14/2022 5:00:00 PM 25.7 78.26 0.171 7.31 31.59 7.94
8/14/2022 5:15:00 PM 25.65 78.17 0.171 7.32 32.13 7.9
8/14/2022 5:30:00 PM 25.6 78.08 0.17 7.33 30.87 7.85
8/14/2022 5:45:00 PM 25.63 78.134 0.17 7.36 29.58 7.82
8/14/2022 6:00:00 PM 25.62 78.116 0.165 7.36 36.2 7.76
8/14/2022 6:15:00 PM 25.55 77.99 0.17 7.37 33.42 7.75
8/14/2022 6:30:00 PM 25.52 77.936 0.17 7.39 245.4 7.72
8/14/2022 6:45:00 PM 25.33 77.594 0.171 7.42 38.28 7.69
8/14/2022 7:00:00 PM 25.3 77.54 0.171 7.43 36.92 7.67
8/14/2022 7:15:00 PM 25.25 77.45 0.171 7.44 33.19 7.67
8/14/2022 7:30:00 PM 25.09 77.162 0.171 7.43 38.93 7.65
8/14/2022 7:45:00 PM 25.03 77.054 0.171 7.43 37.35 7.62
8/14/2022 8:00:00 PM 25.04 77.07201 0.17 7.43 37.72 7.59
8/14/2022 8:15:00 PM 24.95 76.91 0.17 7.42 35.46 7.59
8/14/2022 8:30:00 PM 24.91 76.838 0.17 7.42 38.77 7.59
8/14/2022 8:45:00 PM 24.79 76.622 0.171 7.4 43.97 7.57
8/14/2022 9:00:00 PM 24.71 76.478 0.171 7.39 38.78 7.56
8/14/2022 9:15:00 PM 24.76 76.568 0.17 7.38 40.35 7.55
8/14/2022 9:30:00 PM 24.68 76.424 0.172 7.37 40.5 7.54
8/14/2022 9:45:00 PM 24.62 76.316 0.172 7.37 42.43 7.53
8/14/2022 10:00:00 PM 24.54 76.172 0.171 7.36 42.96 7.53
8/14/2022 10:15:00 PM 24.51 76.118 0.171 7.36 40.45 7.53
8/14/2022 10:30:00 PM 24.5 76.1 0.171 7.34 44.31 7.53
8/14/2022 10:45:00 PM 24.51 76.118 0.171 7.34 48.18 7.51
8/14/2022 11:00:00 PM 24.47 76.046 0.171 7.34 40.97 7.53
8/14/2022 11:15:00 PM 24.48 76.064 0.172 7.33 44.04 7.52
8/14/2022 11:30:00 PM 24.45 76.01 0.172 7.33 35.56 7.53
8/14/2022 11:45:00 PM 24.45 76.01 0.172 7.33 39.7 7.52
8/15/2022 12:00:00 AM 24.37 75.866 0.171 7.33 39.75 7.52
8/15/2022 12:15:00 AM 24.37 75.866 0.171 7.33 53.08 7.52
8/15/2022 12:30:00 AM 24.35 75.83 0.171 7.31 44.96 7.52
8/15/2022 12:45:00 AM 24.37 75.866 0.17 7.31 43 7.52
8/15/2022 1:00:00 AM 24.39 75.902 0.17 7.3 43.8 7.51
8/15/2022 1:15:00 AM 24.4 75.92 0.17 7.3 38.05 7.51
8/15/2022 1:30:00 AM 24.27 75.686 0.171 7.3 34.23 7.55
8/15/2022 1:45:00 AM 24.31 75.758 0.17 7.3 36.08 7.54
8/15/2022 2:00:00 AM 24.33 75.794 0.17 7.29 39.55 7.54
8/15/2022 2:15:00 AM 24.33 75.794 0.17 7.29 41.9 7.54
8/15/2022 2:30:00 AM 24.24 75.632 0.171 7.27 42.43 7.55
8/15/2022 2:45:00 AM 24.2 75.56 0.17 7.27 41.14 7.55
8/15/2022 3:00:00 AM 24.18 75.524 0.17 7.26 39.46 7.55
8/15/2022 3:15:00 AM 24.23 75.614 0.17 7.27 45.8 7.53
8/15/2022 3:30:00 AM 24.22 75.596 0.169 7.26 40.79 7.54
8/15/2022 3:45:00 AM 24.14 75.452 0.17 7.25 41.42 7.55
8/15/2022 4:00:00 AM 24.15 75.47 0.17 7.24 41.26 7.56
8/15/2022 4:15:00 AM 24.08 75.344 0.17 7.25 44.96 7.55
8/15/2022 4:30:00 AM 24.07 75.326 0.17 7.24 47.06 7.58
8/15/2022 4:45:00 AM 24.06 75.308 0.17 7.25 39.93 7.56
8/15/2022 5:00:00 AM 24.04 75.272 0.17 7.24 39.18 7.56
8/15/2022 5:15:00 AM 24.05 75.29 0.17 7.22 42.14 7.56
8/15/2022 5:30:00 AM 24.03 75.254 0.169 7.22 50.06 7.55
8/15/2022 5:45:00 AM 23.99 75.182 0.169 7.23 44.77 7.55
8/15/2022 6:00:00 AM 24 75.2 0.169 7.23 40.88 7.57
8/15/2022 6:15:00 AM 23.94 75.092 0.169 7.22 47.12 7.57
8/15/2022 6:30:00 AM 23.89 75.002 0.169 7.22 44.74 7.58
8/15/2022 6:45:00 AM 23.81 74.858 0.169 7.23 46.23 7.59
8/15/2022 7:00:00 AM 23.86 74.948 0.169 7.22 39.87 7.57
8/15/2022 7:15:00 AM 23.82 74.876 0.169 7.22 48.97 7.58
8/15/2022 7:30:00 AM 23.75 74.75 0.169 7.22 50.33 7.59
8/15/2022 7:45:00 AM 23.85 74.93 0.168 7.21 38.84 7.59
8/15/2022 8:00:00 AM 23.79 74.82201 0.168 7.21 41.52 7.61
8/15/2022 8:15:00 AM 23.78 74.804 0.168 7.21 40.05 7.62
8/15/2022 8:30:00 AM 23.74 74.732 0.169 7.21 40.5 7.65
8/15/2022 8:45:00 AM 23.73 74.714 0.169 7.21 37.15 7.67
8/15/2022 9:00:00 AM 23.7 74.66 0.169 7.21 36.77 7.71
8/15/2022 9:15:00 AM 23.76 74.768 0.169 7.2 43.04 7.75
8/15/2022 9:30:00 AM 23.8 74.84 0.169 7.2 34.8 7.73
8/15/2022 9:45:00 AM 23.66 74.588 0.169 7.2 36.57 7.77
8/15/2022 10:00:00 AM 23.43 74.174 0.171 7.2 29.53 7.77
8/15/2022 10:15:00 AM 23.08 73.544 0.173 7.18 27.8 7.77
8/15/2022 10:30:00 AM 22.92 73.256 0.174 7.17 28.96 7.8
8/15/2022 10:45:00 AM 22.59 72.662 0.176 7.17 22.87 7.85
8/15/2022 11:00:00 AM 22.34 72.212 0.178 7.17 25.5 7.91
8/15/2022 11:15:00 AM 22.16 71.888 0.18 7.16 24.34 8.03
8/15/2022 11:30:00 AM 22.14 71.852 0.181 7.17 25.74 8.1
8/15/2022 11:45:00 AM 22.07 71.726 0.181 7.18 22.65 8.21
8/15/2022 12:00:00 PM 22.09 71.762 0.182 7.17 31.57 8.28
8/15/2022 12:15:00 PM 22.15 71.87 0.182 7.18 20.69 8.34
8/15/2022 12:30:00 PM 22.22 71.996 0.182 7.17 25.34 8.41
8/15/2022 12:45:00 PM 22.28 72.104 0.182 7.18 25.48 8.48
8/15/2022 1:00:00 PM 22.39 72.302 0.182 7.18 21.81 8.49
8/15/2022 1:15:00 PM 22.55 72.59 0.181 7.2 25.24 8.51
8/15/2022 1:30:00 PM 22.53 72.554 0.181 7.17 23.04 8.57
8/15/2022 1:45:00 PM 22.65 72.77 0.182 7.2 21.82 8.54
8/15/2022 2:00:00 PM 22.67 72.806 0.182 7.18 26.66 8.57
8/15/2022 2:15:00 PM 22.69 72.842 0.182 7.22 25.54 8.57
8/15/2022 2:30:00 PM 22.75 72.95 0.182 7.19 26.79 8.53
8/15/2022 2:45:00 PM 22.84 73.112 0.182 7.2 39.39 8.49
8/15/2022 3:00:00 PM 22.86 73.148 0.182 7.22 27.92 8.49
8/15/2022 3:15:00 PM 22.87 73.166 0.182 7.22 36.3 8.47
8/15/2022 3:30:00 PM 22.97 73.346 0.182 7.22 37.26 8.37
8/15/2022 3:45:00 PM 22.91 73.238 0.182 7.21 52.52 8.34
8/15/2022 4:00:00 PM 22.91 73.238 0.182 7.21 39.06 8.23
8/15/2022 4:15:00 PM 22.9 73.22 0.182 7.19 53.11 8.22
8/15/2022 4:30:00 PM 22.77 72.986 0.183 7.2 44.01 8.19
8/15/2022 4:45:00 PM 22.77 72.986 0.183 7.2 44.32 8.18
8/15/2022 5:00:00 PM 22.71 72.878 0.182 7.18 31.94 8.13
8/15/2022 5:15:00 PM 22.65 72.77 0.182 7.18 61.86 8.11
8/15/2022 5:30:00 PM 22.63 72.734 0.182 7.19 73.61 8.09
8/15/2022 5:45:00 PM 22.59 72.662 0.182 7.19 47.85 8.03
8/15/2022 6:00:00 PM 22.63 72.734 0.182 7.16 96.28 7.99
8/15/2022 6:15:00 PM 22.56 72.608 0.181 7.17 54.52 8.01
8/15/2022 6:30:00 PM 22.55 72.59 0.181 7.17 85.53 7.99
8/15/2022 6:45:00 PM 22.51 72.518 0.181 7.18 49.84 7.95
8/15/2022 7:00:00 PM 22.42 72.356 0.181 7.14 75.68 7.97
8/15/2022 7:15:00 PM 22.36 72.248 0.181 7.19 125.8 7.94
8/15/2022 7:30:00 PM 22.26 72.068 0.181 7.17 65.91 7.93
8/15/2022 7:45:00 PM 22.2 71.96 0.181 7.16 45.78 7.91
8/15/2022 8:00:00 PM 22.11 71.798 0.181 7.14 96.87 7.88
8/15/2022 8:15:00 PM 22.05 71.69 0.18 7.17 189.7 7.88
8/15/2022 8:30:00 PM 22 71.6 0.179 7.15 113.6 7.83
8/15/2022 8:45:00 PM 21.97 71.546 0.179 7.16 110.8 7.82
8/15/2022 9:00:00 PM 21.93 71.474 0.179 7.14 134 7.79
8/15/2022 9:15:00 PM 21.84 71.312 0.179 7.15 72.63 7.78
8/15/2022 9:30:00 PM 21.77 71.186 0.18 7.12 208.1 7.76
8/15/2022 9:45:00 PM 21.72 71.096 0.18 7.13 394.8 7.75
8/15/2022 10:00:00 PM 21.65 70.97 0.18 7.11 123.4 7.76
8/15/2022 10:15:00 PM 21.6 70.88 0.18 7.14 116.8 7.77
8/15/2022 10:30:00 PM 21.57 70.826 0.18 7.13 144.4 7.76
8/15/2022 10:45:00 PM 21.53 70.754 0.18 7.15 303.8 7.77
8/15/2022 11:00:00 PM 21.5 70.7 0.179 7.14 96.89 7.74
8/15/2022 11:15:00 PM 21.46 70.628 0.179 7.14 93.93 7.75
8/15/2022 11:30:00 PM 21.41 70.538 0.179 7.13 198.4 7.76
8/15/2022 11:45:00 PM 21.36 70.448 0.179 7.12 168.1 7.76
8/16/2022 12:00:00 AM 21.3 70.34 0.18 7.13 106.2 7.76
8/16/2022 12:15:00 AM 21.25 70.25 0.18 7.12 211.2 7.77
8/16/2022 12:30:00 AM 21.2 70.16 0.18 7.1 170.4 7.79
8/16/2022 12:45:00 AM 21.15 70.07 0.179 7.1 76.44 7.79
8/16/2022 1:00:00 AM 21.11 69.998 0.179 7.08 280.7 7.78
8/16/2022 1:15:00 AM 21.06 69.908 0.179 7.09 240.7 7.8
8/16/2022 1:30:00 AM 21.01 69.818 0.179 7.08 263.6 7.78
8/16/2022 1:45:00 AM 20.96 69.728 0.179 7.1 363.5 7.78
8/16/2022 2:00:00 AM 20.91 69.638 0.179 7.1 279.2 7.79
8/16/2022 2:15:00 AM 20.84 69.512 0.179 7.1 185.2 7.81
8/16/2022 2:30:00 AM 20.78 69.404 0.179 7.1 340.2 7.8
8/16/2022 2:45:00 AM 20.73 69.314 0.179 7.11 424.2 7.81
8/16/2022 3:00:00 AM 20.68 69.224 0.179 7.08 257 7.82
8/16/2022 3:15:00 AM 20.63 69.134 0.179 7.07 191.9 7.82
8/16/2022 3:30:00 AM 20.59 69.062 0.179 7.1 379.8 7.83
8/16/2022 3:45:00 AM 20.55 68.99 0.179 7.09 268.6 7.83
8/16/2022 4:00:00 AM 20.52 68.936 0.179 7.09 280.5 7.83
8/16/2022 4:15:00 AM 20.48 68.864 0.179 7.1 363.9 7.83
8/16/2022 4:30:00 AM 20.43 68.774 0.179 7.09 363.5 7.82
8/16/2022 4:45:00 AM 20.38 68.684 0.179 7.09 505.6 7.83
8/16/2022 5:00:00 AM 20.34 68.612 0.179 7.09 445 7.85
8/16/2022 5:15:00 AM 20.29 68.522 0.179 7.09 491.3 7.87
8/16/2022 5:30:00 AM 20.25 68.45 0.179 7.08 451.8 7.86
8/16/2022 5:45:00 AM 20.22 68.396 0.178 7.09 584.6 7.89
8/16/2022 6:00:00 AM 20.18 68.324 0.178 7.1 313 7.88
8/16/2022 6:15:00 AM 20.16 68.288 0.178 7.08 505.3 7.88
8/16/2022 6:30:00 AM 20.13 68.234 0.178 7.08 404.5 7.9
8/16/2022 6:45:00 AM 20.1 68.18 0.177 7.08 557.1 7.88
8/16/2022 7:00:00 AM 20.06 68.108 0.178 7.07 418.2 7.91
8/16/2022 7:15:00 AM 20.02 68.036 0.178 7.08 599.1 7.92
8/16/2022 7:30:00 AM 19.99 67.982 0.178 7.08 705.5 7.94
8/16/2022 7:45:00 AM 19.98 67.964 0.178 7.07 844.6 7.97
8/16/2022 8:00:00 AM 19.98 67.964 0.177 7.07 702 7.98
8/16/2022 8:15:00 AM 19.99 67.982 0.177 7.07 369.1 8.01
8/16/2022 8:30:00 AM 20.01 68.018 0.177 7.05 662.7 8.03
8/16/2022 8:45:00 AM 20.04 68.07201 0.176 7.1 642.4 8.05
8/16/2022 9:00:00 AM 20.08 68.144 0.176 7.09 481.2 8.11
8/16/2022 9:15:00 AM 20.15 68.27 0.176 7.1 761.9 8.13
8/16/2022 9:30:00 AM 20.23 68.414 0.176 7.1 493.7 8.22
8/16/2022 9:45:00 AM 20.29 68.522 0.176 7.08 418.8 8.27
8/16/2022 10:00:00 AM 20.39 68.702 0.176 7.1 906 8.33
8/16/2022 10:15:00 AM 20.5 68.9 0.176 7.11 828.6 8.33
8/16/2022 10:30:00 AM 20.59 69.062 0.175 7.12 695.1 8.36
8/16/2022 10:45:00 AM 20.69 69.242 0.175 7.13 776.6 8.42
8/16/2022 11:00:00 AM 20.83 69.494 0.175 7.11 953.8 8.46
8/16/2022 11:15:00 AM 20.97 69.746 0.175 7.1 544.2 8.53
8/16/2022 11:30:00 AM 21.15 70.07 0.174 7.11 493.5 8.58
8/16/2022 11:45:00 AM 21.34 70.412 0.175 7.11 953.4 8.59
8/16/2022 12:00:00 PM 21.47 70.646 0.175 7.1 740.1 8.67
8/16/2022 12:15:00 PM 21.62 70.916 0.175 7.13 761 8.71
8/16/2022 12:30:00 PM 21.79 71.222 0.175 7.1 551.3 8.73
8/16/2022 12:45:00 PM 21.91 71.438 0.174 7.13 462.2 8.78
8/16/2022 1:00:00 PM 22.04 71.672 0.174 7.08 483.2 8.78
8/16/2022 1:15:00 PM 22.15 71.87 0.174 7.13 854.8 8.8
8/16/2022 1:30:00 PM 22.3 72.14 0.174 7.13 952.1 8.77
8/16/2022 1:45:00 PM 22.43 72.374 0.174 7.1 889.1 8.77
8/16/2022 2:00:00 PM 22.53 72.554 0.174 7.13 849.8 8.74
8/16/2022 2:15:00 PM 22.63 72.734 0.174 7.13 1268 8.78
8/16/2022 2:30:00 PM 22.74 72.932 0.174 7.13 877.9 8.74
8/16/2022 2:45:00 PM 22.82 73.076 0.174 7.11 832 8.78
8/16/2022 3:00:00 PM 22.92 73.256 0.174 7.13 1256 8.7
8/16/2022 3:15:00 PM 22.98 73.364 0.174 7.13 621.3 8.68
8/16/2022 3:30:00 PM 22.98 73.364 0.174 7.08 869.6 8.65
8/16/2022 3:45:00 PM 23.15 73.67 0.174 7.11 1190 8.59
8/16/2022 4:00:00 PM 23.22 73.796 0.173 7.13 824.6 8.51
8/16/2022 4:15:00 PM 23.36 74.048 0.173 7.1 983.6 8.48
8/16/2022 4:30:00 PM 23.38 74.084 0.174 7.11 1034 8.44
8/16/2022 4:45:00 PM 23.43 74.174 0.174 7.14 1282 8.42
8/16/2022 5:00:00 PM 23.46 74.228 0.174 7.17 1192 8.38
8/16/2022 5:15:00 PM 23.41 74.138 0.174 7.23 1066 8.31
8/16/2022 5:30:00 PM 23.38 74.084 0.174 7.24 754 8.22
8/16/2022 5:45:00 PM 23.35 74.03 0.174 7.24 1027 8.18
8/16/2022 6:00:00 PM 23.33 73.994 0.174 7.24 1481 8.1
8/16/2022 6:15:00 PM 23.33 73.994 0.174 7.25 1286 8.03
8/16/2022 6:30:00 PM 23.32 73.976 0.174 7.25 590.9 7.96
8/16/2022 6:45:00 PM 23.28 73.904 0.174 7.22 733.5 7.93
8/16/2022 7:00:00 PM 23.18 73.724 0.174 7.23 682.7 7.9
8/16/2022 7:15:00 PM 23.11 73.598 0.174 7.23 942.2 7.88
8/16/2022 7:30:00 PM 23.04 73.472 0.174 7.24 742.1 7.81
8/16/2022 7:45:00 PM 22.94 73.292 0.174 7.26 906.2 7.81
8/16/2022 8:00:00 PM 22.84 73.112 0.174 7.25 693.1 7.81
8/16/2022 8:15:00 PM 22.77 72.986 0.174 7.24 683.3 7.76
8/16/2022 8:30:00 PM 22.63 72.734 0.173 7.24 797.4 7.75
8/16/2022 8:45:00 PM 22.56 72.608 0.173 7.26 960.2 7.7
8/16/2022 9:00:00 PM 22.46 72.42799 0.173 7.23 829.3 7.67
8/16/2022 9:15:00 PM 22.34 72.212 0.173 7.23 856.7 7.66
8/16/2022 9:30:00 PM 22.21 71.978 0.174 7.21 950.3 7.68
8/16/2022 9:45:00 PM 22.09 71.762 0.174 7.19 946.4 7.66
8/16/2022 10:00:00 PM 21.97 71.546 0.174 7.17 981.7 7.68
8/16/2022 10:15:00 PM 21.87 71.366 0.174 7.16 953.4 7.67
8/16/2022 10:30:00 PM 21.77 71.186 0.174 7.14 1080 7.67
8/16/2022 10:45:00 PM 21.68 71.024 0.174 7.13 1023 7.67
8/16/2022 11:00:00 PM 21.6 70.88 0.174 7.11 758 7.69
8/16/2022 11:15:00 PM 21.52 70.736 0.173 7.09 558.7 7.69
8/16/2022 11:30:00 PM 21.45 70.61 0.173 7.08 1072 7.69
8/16/2022 11:45:00 PM 21.36 70.448 0.173 7.04 1336 7.7
8/17/2022 12:00:00 AM 21.28 70.304 0.174 7.07 767 7.72
8/17/2022 12:15:00 AM 21.2 70.16 0.174 7.05 1215 7.74
8/17/2022 12:30:00 AM 21.12 70.016 0.174 7.03 1200 7.73
8/17/2022 12:45:00 AM 21.05 69.89 0.174 7.04 1096 7.76
8/17/2022 1:00:00 AM 20.99 69.782 0.174 7.05 1150 7.76
8/17/2022 1:15:00 AM 20.93 69.674 0.174 7.04 1230 7.74
8/17/2022 1:30:00 AM 20.87 69.566 0.173 7.03 1274 7.74
8/17/2022 1:45:00 AM 20.82 69.476 0.173 7.05 991.1 7.75
8/17/2022 2:00:00 AM 20.78 69.404 0.173 7.04 874.5 7.76
8/17/2022 2:15:00 AM 20.72 69.296 0.173 7.05 1382 7.76
8/17/2022 2:30:00 AM 20.67 69.206 0.174 7.04 1364 7.78
8/17/2022 2:45:00 AM 20.64 69.152 0.174 7.06 932.2 7.8
8/17/2022 3:00:00 AM 20.6 69.08 0.174 7.05 817.4 7.8
8/17/2022 3:15:00 AM 20.56 69.008 0.174 7.04 1427 7.82
8/17/2022 3:30:00 AM 20.53 68.954 0.174 7.04 1436 7.82
8/17/2022 3:45:00 AM 20.49 68.882 0.174 7.04 1169 7.83
8/17/2022 4:00:00 AM 20.44 68.792 0.174 7.03 1426 7.82
8/17/2022 4:15:00 AM 20.4 68.72 0.174 7.03 1294 7.84
8/17/2022 4:30:00 AM 20.36 68.648 0.174 7.03 1284 7.84
8/17/2022 4:45:00 AM 20.31 68.558 0.174 7.03 1278 7.85
8/17/2022 5:00:00 AM 20.24 68.432 0.174 7.03 1338 7.86
8/17/2022 5:15:00 AM 20.19 68.342 0.174 7.01 1444 7.86
8/17/2022 5:30:00 AM 20.14 68.252 0.174 7.03 1012 7.88
8/17/2022 5:45:00 AM 20.1 68.18 0.174 7.03 1024 7.9
8/17/2022 6:00:00 AM 20.05 68.09 0.174 7.03 1191 7.9
8/17/2022 6:15:00 AM 19.98 67.964 0.174 7.01 1137 7.87
8/17/2022 6:30:00 AM 19.93 67.874 0.174 7.03 1072 7.9
8/17/2022 6:45:00 AM 19.88 67.784 0.174 7.04 1192 7.92
8/17/2022 7:00:00 AM 19.83 67.694 0.174 7.05 994.1 7.94
8/17/2022 7:15:00 AM 19.77 67.586 0.174 7.04 1235 7.96
8/17/2022 7:30:00 AM 19.74 67.532 0.174 7.02 724.3 7.99
8/17/2022 7:45:00 AM 19.72 67.496 0.174 7.04 1314 8
8/17/2022 8:00:00 AM 19.7 67.46 0.174 7.03 1263 8.05
8/17/2022 8:15:00 AM 19.71 67.478 0.174 7.03 1335 8.07
8/17/2022 8:30:00 AM 19.71 67.478 0.174 7.03 1003 8.12
8/17/2022 8:45:00 AM 19.72 67.496 0.174 7.03 1256 8.12
8/17/2022 9:00:00 AM 19.77 67.586 0.173 7.02 955.4 8.23
8/17/2022 9:15:00 AM 19.83 67.694 0.174 7.02 1137 8.27
8/17/2022 9:30:00 AM 19.88 67.784 0.174 7.03 1087 8.34
8/17/2022 9:45:00 AM 19.97 67.946 0.174 7.04 988.8 8.4
8/17/2022 10:00:00 AM 20.1 68.18 0.174 7.03 860.8 8.46
8/17/2022 10:15:00 AM 20.23 68.414 0.174 7.04 1117 8.54
8/17/2022 10:30:00 AM 20.34 68.612 0.173 7.04 1078 8.59
8/17/2022 10:45:00 AM 20.48 68.864 0.173 7.04 1221 8.65
8/17/2022 11:00:00 AM 20.63 69.134 0.173 7.05 1228 8.66
8/17/2022 11:15:00 AM 20.8 69.44 0.173 7.03 1089 8.7
8/17/2022 11:30:00 AM 20.99 69.782 0.173 7.02 1058 8.71
8/17/2022 11:45:00 AM 21.2 70.16 0.173 7.04 892.8 8.74
8/17/2022 12:00:00 PM 21.38 70.484 0.173 7.01 1038 8.76
8/17/2022 12:15:00 PM 21.55 70.79 0.173 7.01 779.5 8.8
8/17/2022 12:30:00 PM 21.77 71.186 0.173 7.01 701.3 8.86
8/17/2022 12:45:00 PM 21.99 71.582 0.173 7.02 742.3 8.88
8/17/2022 1:00:00 PM 22.21 71.978 0.173 7.03 680.7 8.87
8/17/2022 1:15:00 PM 22.43 72.374 0.173 7.03 393.8 8.9
8/17/2022 1:30:00 PM 22.67 72.806 0.173 7.04 754.5 8.87
8/17/2022 1:45:00 PM 22.89 73.202 0.173 7.05 712.5 8.84
8/17/2022 2:00:00 PM 23.1 73.58 0.173 7.04 653.1 8.81
8/17/2022 2:15:00 PM 23.25 73.85 0.174 7.05 741.7 8.77
8/17/2022 2:30:00 PM 23.36 74.048 0.174 7.04 696.4 8.73
8/17/2022 2:45:00 PM 23.5 74.3 0.174 7.03 590.8 8.69
8/17/2022 3:00:00 PM 23.6 74.48 0.174 7.04 740.5 8.67
8/17/2022 3:15:00 PM 23.67 74.606 0.175 7.04 495.1 8.64
8/17/2022 3:30:00 PM 23.76 74.768 0.174 7.03 665.5 8.58
8/17/2022 3:45:00 PM 23.85 74.93 0.174 7.03 613.6 8.53
8/17/2022 4:00:00 PM 23.94 75.092 0.174 7.02 472.6 8.43
8/17/2022 4:15:00 PM 23.96 75.128 0.174 7.05 493.4 8.36
8/17/2022 4:30:00 PM 23.85 74.93 0.174 7.04 488.4 8.33
8/17/2022 4:45:00 PM 23.79 74.82201 0.174 7.03 636.9 8.28
8/17/2022 5:00:00 PM 23.78 74.804 0.174 7.06 620.2 8.23
8/17/2022 5:15:00 PM 23.71 74.67799 0.174 7.05 676.5 8.19
8/17/2022 5:30:00 PM 23.62 74.516 0.174 7.05 655.8 8.16
8/17/2022 5:45:00 PM 23.53 74.354 0.174 7.05 587.1 8.1
8/17/2022 6:00:00 PM 23.5 74.3 0.174 7.06 616.8 8.05
8/17/2022 6:15:00 PM 23.5 74.3 0.174 7.01 510.3 8.01
8/17/2022 6:30:00 PM 23.45 74.21 0.174 7.03 541.9 7.97
8/17/2022 6:45:00 PM 23.38 74.084 0.174 7.01 521.1 7.92
8/17/2022 7:00:00 PM 23.27 73.886 0.174 7.04 501 7.87
8/17/2022 7:15:00 PM 23.13 73.634 0.174 7.04 600.8 7.84
8/17/2022 7:30:00 PM 22.93 73.274 0.174 7.01 567.5 7.85
8/17/2022 7:45:00 PM 22.81 73.058 0.174 7.01 500.5 7.81
8/17/2022 8:00:00 PM 22.67 72.806 0.174 7.01 573.2 7.78
8/17/2022 8:15:00 PM 22.53 72.554 0.174 7.01 599.2 7.78
8/17/2022 8:30:00 PM 22.44 72.392 0.173 7.02 583 7.77
8/17/2022 8:45:00 PM 22.35 72.23 0.173 7.02 641.5 7.73
8/17/2022 9:00:00 PM 22.27 72.086 0.173 7.04 599.8 7.71
8/17/2022 9:15:00 PM 22.15 71.87 0.173 7.03 601.7 7.72
8/17/2022 9:30:00 PM 22.02 71.636 0.173 7.04 582.7 7.73
8/17/2022 9:45:00 PM 21.88 71.384 0.173 7.01 475 7.71
8/17/2022 10:00:00 PM 21.76 71.168 0.173 7.02 642.4 7.7
8/17/2022 10:15:00 PM 21.62 70.916 0.173 6.97 584.6 7.74
8/17/2022 10:30:00 PM 21.51 70.718 0.173 6.98 618.4 7.73
8/17/2022 10:45:00 PM 21.4 70.52 0.173 7 762.3 7.73
8/17/2022 11:00:00 PM 21.31 70.358 0.173 7.03 680.8 7.74
8/17/2022 11:15:00 PM 21.23 70.214 0.172 6.99 683.9 7.72
8/17/2022 11:30:00 PM 21.15 70.07 0.172 7.04 770 7.72
8/17/2022 11:45:00 PM 21.06 69.908 0.172 7.03 750.3 7.73
8/18/2022 12:00:00 AM 20.98 69.764 0.172 7 716.4 7.77
8/18/2022 12:15:00 AM 20.91 69.638 0.173 6.99 759.9 7.76
8/18/2022 12:30:00 AM 20.86 69.548 0.173 7.04 714.9 7.79
8/18/2022 12:45:00 AM 20.81 69.458 0.173 7.03 683.1 7.78
8/18/2022 1:00:00 AM 20.76 69.368 0.172 7.04 603.4 7.8
8/18/2022 1:15:00 AM 20.73 69.314 0.172 7.04 610.7 7.8
8/18/2022 1:30:00 AM 20.68 69.224 0.172 7 592.2 7.78
8/18/2022 1:45:00 AM 20.64 69.152 0.172 6.99 455 7.78
8/18/2022 2:00:00 AM 20.59 69.062 0.172 7.01 607.8 7.77
8/18/2022 2:15:00 AM 20.54 68.972 0.172 7.03 597.7 7.77
8/18/2022 2:30:00 AM 20.48 68.864 0.172 7.03 530.3 7.79
8/18/2022 2:45:00 AM 20.41 68.738 0.172 6.98 540.4 7.8
8/18/2022 3:00:00 AM 20.36 68.648 0.172 7 675.3 7.83
8/18/2022 3:15:00 AM 20.32 68.576 0.172 6.99 855 7.83
8/18/2022 3:30:00 AM 20.27 68.486 0.172 7 892.9 7.84
8/18/2022 3:45:00 AM 20.23 68.414 0.172 7.02 715.6 7.85
8/18/2022 4:00:00 AM 20.17 68.306 0.172 7.05 560.3 7.83
8/18/2022 4:15:00 AM 20.14 68.252 0.172 7.07 690.5 7.85
8/18/2022 4:30:00 AM 20.07 68.126 0.172 7.06 628.6 7.86
8/18/2022 4:45:00 AM 20.03 68.054 0.172 7.05 739.5 7.9
8/18/2022 5:00:00 AM 19.96 67.92799 0.172 6.99 483.2 7.92
8/18/2022 5:15:00 AM 19.91 67.838 0.172 7.03 514.1 7.91
8/18/2022 5:30:00 AM 19.86 67.748 0.172 7.05 641.6 7.93
8/18/2022 5:45:00 AM 19.81 67.658 0.172 7.05 741 7.92
8/18/2022 6:00:00 AM 19.77 67.586 0.172 7.05 713.6 7.95
8/18/2022 6:15:00 AM 19.71 67.478 0.172 7.04 541.2 7.94
8/18/2022 6:30:00 AM 19.66 67.388 0.172 7.04 560.4 7.93
8/18/2022 6:45:00 AM 19.61 67.298 0.172 7.03 712.4 7.93
8/18/2022 7:00:00 AM 19.56 67.208 0.172 6.99 626.2 7.96
8/18/2022 7:15:00 AM 19.5 67.1 0.172 7.01 768 8
8/18/2022 7:30:00 AM 19.46 67.028 0.172 7.04 992 8.02
8/18/2022 7:45:00 AM 19.44 66.992 0.172 7.04 676.9 8.08
8/18/2022 8:00:00 AM 19.42 66.956 0.172 7.05 529.7 8.06
8/18/2022 8:15:00 AM 19.42 66.956 0.172 7.07 533.1 8.12
8/18/2022 8:30:00 AM 19.44 66.992 0.172 7.02 702.6 8.11
8/18/2022 8:45:00 AM 19.47 67.046 0.172 7.01 633 8.15
8/18/2022 9:00:00 AM 19.53 67.154 0.172 7.06 646.9 8.2
8/18/2022 9:15:00 AM 19.59 67.262 0.172 6.98 588.4 8.22
8/18/2022 9:30:00 AM 19.66 67.388 0.172 7.02 623.7 8.32
8/18/2022 9:45:00 AM 19.74 67.532 0.172 6.98 639.4 8.37
8/18/2022 10:00:00 AM 19.84 67.712 0.172 6.98 593.7 8.4
8/18/2022 10:15:00 AM 19.97 67.946 0.172 7.02 698.6 8.46
8/18/2022 10:30:00 AM 20.1 68.18 0.172 7.06 551.7 8.49
8/18/2022 10:45:00 AM 20.25 68.45 0.172 7.06 718.2 8.53
8/18/2022 11:00:00 AM 20.42 68.756 0.172 7.04 669.5 8.58
8/18/2022 11:15:00 AM 20.62 69.116 0.172 7.08 577.8 8.59
8/18/2022 11:30:00 AM 20.84 69.512 0.172 7.07 535 8.63
8/18/2022 11:45:00 AM 21.04 69.872 0.172 7.08 615.5 8.69
8/18/2022 12:00:00 PM 21.24 70.232 0.172 7.07 331.9 8.72
8/18/2022 12:15:00 PM 21.45 70.61 0.172 7.08 613.7 8.77
8/18/2022 12:30:00 PM 21.65 70.97 0.172 7.08 615.9 8.8
8/18/2022 12:45:00 PM 21.87 71.366 0.172 7.04 506 8.81
8/18/2022 1:00:00 PM 22.09 71.762 0.172 7.08 844.6 8.87
8/18/2022 1:15:00 PM 22.33 72.194 0.173 7.06 502.1 8.83
8/18/2022 1:30:00 PM 22.58 72.644 0.172 7.06 725.6 8.79
8/18/2022 1:45:00 PM 22.8 73.04 0.173 7.07 644.7 8.81
8/18/2022 2:00:00 PM 22.98 73.364 0.173 7.08 502.4 8.76
8/18/2022 2:15:00 PM 23.16 73.688 0.173 7.09 585.6 8.76
8/18/2022 2:30:00 PM 23.27 73.886 0.173 7.09 464.7 8.76
8/18/2022 2:45:00 PM 23.4 74.12 0.173 7.1 489.3 8.73
8/18/2022 3:00:00 PM 23.53 74.354 0.173 7.1 540.2 8.71
8/18/2022 3:15:00 PM 23.64 74.552 0.174 7.09 483.8 8.64
8/18/2022 3:30:00 PM 23.69 74.642 0.174 7.07 498.6 8.62
8/18/2022 3:45:00 PM 23.8 74.84 0.174 7.09 334.1 8.53
8/18/2022 4:00:00 PM 23.82 74.876 0.174 7.1 455.2 8.46
8/18/2022 4:15:00 PM 23.92 75.056 0.173 7.09 784 8.35
8/18/2022 4:30:00 PM 24.01 75.218 0.173 7.1 474.6 8.3
8/18/2022 4:45:00 PM 24.02 75.236 0.173 7.05 480.9 8.21
8/18/2022 5:00:00 PM 24.01 75.218 0.174 7.05 440.2 8.16
8/18/2022 5:15:00 PM 23.98 75.164 0.174 7.06 578.3 8.15
8/18/2022 5:30:00 PM 23.96 75.128 0.174 7.07 746.4 8.1
8/18/2022 5:45:00 PM 23.9 75.02 0.174 7.09 467.7 8.07
8/18/2022 6:00:00 PM 23.91 75.038 0.174 7.06 454.8 8.02
8/18/2022 6:15:00 PM 23.87 74.966 0.174 7.06 388.4 7.95
8/18/2022 6:30:00 PM 23.93 75.074 0.173 7.07 442.8 7.85
8/18/2022 6:45:00 PM 23.87 74.966 0.173 7.09 419.6 7.83
8/18/2022 7:00:00 PM 23.84 74.912 0.173 7.08 549 7.77
8/18/2022 7:15:00 PM 23.69 74.642 0.173 7.09 761.6 7.78
8/18/2022 7:30:00 PM 23.59 74.462 0.174 7.09 569.1 7.74
8/18/2022 7:45:00 PM 23.49 74.282 0.174 7.1 400.2 7.71
8/18/2022 8:00:00 PM 23.35 74.03 0.174 7.08 393.1 7.68
8/18/2022 8:15:00 PM 23.24 73.832 0.174 7.1 442.2 7.66
8/18/2022 8:30:00 PM 23.06 73.508 0.173 7.05 380.3 7.65
8/18/2022 8:45:00 PM 22.94 73.292 0.173 7.07 313.6 7.61
8/18/2022 9:00:00 PM 22.81 73.058 0.173 7.08 588 7.6
8/18/2022 9:15:00 PM 22.69 72.842 0.173 7.08 542.5 7.59
8/18/2022 9:30:00 PM 22.52 72.536 0.173 7.06 583.2 7.61
8/18/2022 9:45:00 PM 22.38 72.284 0.173 7.06 805.7 7.6
8/18/2022 10:00:00 PM 22.23 72.014 0.173 7.08 469.6 7.6
8/18/2022 10:15:00 PM 22.07 71.726 0.173 7.07 382 7.62
8/18/2022 10:30:00 PM 21.94 71.492 0.173 7.05 381.6 7.61
8/18/2022 10:45:00 PM 21.82 71.276 0.172 7.06 349.9 7.64
8/18/2022 11:00:00 PM 21.72 71.096 0.172 7.03 785.3 7.65
8/18/2022 11:15:00 PM 21.63 70.934 0.172 7.03 567.4 7.64
8/18/2022 11:30:00 PM 21.55 70.79 0.172 7.06 592.8 7.66
8/18/2022 11:45:00 PM 21.47 70.646 0.172 7.03 554.8 7.68
8/19/2022 12:00:00 AM 21.39 70.502 0.172 7.05 648.6 7.65
8/19/2022 12:15:00 AM 21.31 70.358 0.172 7.06 487.1 7.7
8/19/2022 12:30:00 AM 21.25 70.25 0.172 7.04 721.2 7.7
8/19/2022 12:45:00 AM 21.18 70.124 0.172 7.04 566.8 7.7
8/19/2022 1:00:00 AM 21.12 70.016 0.172 7.02 443.9 7.72
8/19/2022 1:15:00 AM 21.06 69.908 0.172 7.01 286.7 7.71
8/19/2022 1:30:00 AM 21.01 69.818 0.172 7.02 418.5 7.72
8/19/2022 1:45:00 AM 20.96 69.728 0.172 7.03 578.1 7.73
8/19/2022 2:00:00 AM 20.91 69.638 0.172 7.03 391.6 7.73
8/19/2022 2:15:00 AM 20.86 69.548 0.172 7.04 430.7 7.72
8/19/2022 2:30:00 AM 20.8 69.44 0.172 7.01 821.3 7.73
8/19/2022 2:45:00 AM 20.74 69.332 0.172 7.02 767.4 7.74
8/19/2022 3:00:00 AM 20.71 69.278 0.172 7.05 904.8 7.75
8/19/2022 3:15:00 AM 20.66 69.188 0.172 7.02 260.8 7.75
8/19/2022 3:30:00 AM 20.62 69.116 0.172 7.02 603 7.78
8/19/2022 3:45:00 AM 20.57 69.026 0.172 7.03 450.5 7.78
8/19/2022 4:00:00 AM 20.54 68.972 0.172 7.02 524.2 7.79
8/19/2022 4:15:00 AM 20.48 68.864 0.172 7.03 586.3 7.77
8/19/2022 4:30:00 AM 20.43 68.774 0.172 7.02 656.3 7.78
8/19/2022 4:45:00 AM 20.39 68.702 0.173 7.02 471.3 7.79
8/19/2022 5:00:00 AM 20.35 68.63 0.173 7.01 695.9 7.79
8/19/2022 5:15:00 AM 20.3 68.54 0.173 7.03 515 7.82
8/19/2022 5:30:00 AM 20.28 68.504 0.173 7.01 445 7.83
8/19/2022 5:45:00 AM 20.24 68.432 0.173 7.02 391.7 7.85
8/19/2022 6:00:00 AM 20.2 68.36 0.173 7.02 433.1 7.84
8/19/2022 6:15:00 AM 20.18 68.324 0.172 7.01 519.5 7.84
8/19/2022 6:30:00 AM 20.13 68.234 0.172 7.04 550.5 7.84
8/19/2022 6:45:00 AM 20.08 68.144 0.172 7 772.2 7.85
8/19/2022 7:00:00 AM 20.05 68.09 0.172 7 409.2 7.88
8/19/2022 7:15:00 AM 19.99 67.982 0.172 7.01 576.6 7.88
8/19/2022 7:30:00 AM 19.96 67.92799 0.172 7.01 789.8 7.91
8/19/2022 7:45:00 AM 19.94 67.892 0.172 7.02 692.2 7.92
8/19/2022 8:00:00 AM 19.94 67.892 0.172 7.03 387.7 7.97
8/19/2022 8:15:00 AM 19.95 67.91 0.172 7.02 572.7 8
8/19/2022 8:30:00 AM 19.97 67.946 0.172 7.04 752 8.02
8/19/2022 8:45:00 AM 20 68 0.172 7.04 710.9 8.07
8/19/2022 9:00:00 AM 20.06 68.108 0.172 7.05 464.1 8.11
8/19/2022 9:15:00 AM 20.14 68.252 0.172 7.02 299.2 8.17
8/19/2022 9:30:00 AM 20.22 68.396 0.172 7.06 608.8 8.23
8/19/2022 9:45:00 AM 20.32 68.576 0.172 7.06 320.4 8.3
8/19/2022 10:00:00 AM 20.44 68.792 0.172 7.06 254.5 8.35
8/19/2022 10:15:00 AM 20.58 69.044 0.172 7.07 445.4 8.37
8/19/2022 10:30:00 AM 20.72 69.296 0.172 7.08 653.7 8.44
8/19/2022 10:45:00 AM 20.89 69.602 0.172 7.06 295.4 8.45
8/19/2022 11:00:00 AM 21.07 69.926 0.172 7.08 377.4 8.5
8/19/2022 11:15:00 AM 21.27 70.286 0.172 7.05 601.7 8.56
8/19/2022 11:30:00 AM 21.49 70.682 0.172 7.09 524 8.59
8/19/2022 11:45:00 AM 21.73 71.114 0.172 7.08 710.9 8.64
8/19/2022 12:00:00 PM 21.95 71.51 0.172 7.07 756.7 8.69
8/19/2022 12:15:00 PM 22.17 71.906 0.172 7.08 468 8.73
8/19/2022 12:30:00 PM 22.39 72.302 0.172 7.1 436.7 8.75
8/19/2022 12:45:00 PM 22.63 72.734 0.173 7.09 614.8 8.77
8/19/2022 1:00:00 PM 22.87 73.166 0.173 7.07 590.8 8.78
8/19/2022 1:15:00 PM 23.1 73.58 0.173 7.1 452.9 8.82
8/19/2022 1:30:00 PM 23.34 74.012 0.173 7.11 340.1 8.78
8/19/2022 1:45:00 PM 23.53 74.354 0.173 7.08 315.4 8.75
8/19/2022 2:00:00 PM 23.76 74.768 0.173 7.09 505.6 8.72
8/19/2022 2:15:00 PM 23.84 74.912 0.173 7.09 500.4 8.69
8/19/2022 2:30:00 PM 24.04 75.272 0.173 7.09 416.5 8.67
8/19/2022 2:45:00 PM 24.17 75.506 0.173 7.09 541.6 8.66
8/19/2022 3:00:00 PM 24.23 75.614 0.174 7.09 680.6 8.66
8/19/2022 3:15:00 PM 24.39 75.902 0.173 7.1 268.9 8.6
8/19/2022 3:30:00 PM 24.47 76.046 0.173 7.13 833.4 8.53
8/19/2022 3:45:00 PM 24.59 76.262 0.173 7.11 243.5 8.51
8/19/2022 4:00:00 PM 24.65 76.37 0.173 7.12 630.4 8.42
8/19/2022 4:15:00 PM 24.8 76.64 0.173 7.13 317.4 8.29
8/19/2022 4:30:00 PM 24.77 76.586 0.173 7.13 361 8.28
8/19/2022 4:45:00 PM 24.8 76.64 0.173 7.13 322.1 8.26
8/19/2022 5:00:00 PM 24.88 76.784 0.173 7.12 142.9 8.18
8/19/2022 5:15:00 PM 24.9 76.82 0.173 7.15 518.4 8.16
8/19/2022 5:30:00 PM 24.86 76.748 0.173 7.14 186.9 8.17
8/19/2022 5:45:00 PM 24.86 76.748 0.173 7.16 275.5 8.13
8/19/2022 6:00:00 PM 24.8 76.64 0.173 7.15 333 8.08
8/19/2022 6:15:00 PM 24.82 76.676 0.173 7.15 697.4 7.99
8/19/2022 6:30:00 PM 24.82 76.676 0.173 7.15 456.5 7.92
8/19/2022 6:45:00 PM 24.8 76.64 0.173 7.14 382.7 7.85
8/19/2022 7:00:00 PM 24.7 76.46 0.173 7.14 754.7 7.84
8/19/2022 7:15:00 PM 24.6 76.28 0.173 7.14 259.2 7.77
8/19/2022 7:30:00 PM 24.47 76.046 0.173 7.12 538.2 7.76
8/19/2022 7:45:00 PM 24.31 75.758 0.173 7.14 322.3 7.72
8/19/2022 8:00:00 PM 24.21 75.578 0.173 7.14 221.9 7.66
8/19/2022 8:15:00 PM 24.07 75.326 0.173 7.14 274.2 7.62
8/19/2022 8:30:00 PM 23.93 75.074 0.173 7.14 281.9 7.57
8/19/2022 8:45:00 PM 23.78 74.804 0.172 7.13 396.5 7.57
8/19/2022 9:00:00 PM 23.69 74.642 0.172 7.12 352 7.51
8/19/2022 9:15:00 PM 23.55 74.39 0.172 7.12 449.1 7.49
8/19/2022 9:30:00 PM 23.43 74.174 0.172 7.12 1158 7.48
8/19/2022 9:45:00 PM 23.28 73.904 0.172 7.11 396 7.49
8/19/2022 10:00:00 PM 23.17 73.706 0.172 7.12 540.5 7.47
8/19/2022 10:15:00 PM 23.02 73.436 0.172 7.11 741.7 7.49
8/19/2022 10:30:00 PM 22.93 73.274 0.172 7.1 174.8 7.51
8/19/2022 10:45:00 PM 22.85 73.13 0.172 7.08 321.7 7.49
8/19/2022 11:00:00 PM 22.77 72.986 0.171 7.1 599.5 7.49
8/19/2022 11:15:00 PM 22.72 72.896 0.171 7.07 389.1 7.46
8/19/2022 11:30:00 PM 22.65 72.77 0.171 7.08 969.3 7.47
8/19/2022 11:45:00 PM 22.59 72.662 0.171 7.09 587.3 7.49
8/20/2022 12:00:00 AM 22.52 72.536 0.171 7.08 511.2 7.48
8/20/2022 12:15:00 AM 22.46 72.42799 0.171 7.1 305.5 7.5
8/20/2022 12:30:00 AM 22.4 72.32 0.171 7.08 364.2 7.49
8/20/2022 12:45:00 AM 22.36 72.248 0.171 7.09 278.1 7.5
8/20/2022 1:00:00 AM 22.33 72.194 0.171 7.06 374.9 7.49
8/20/2022 1:15:00 AM 22.3 72.14 0.171 7.06 35.97 7.51
8/20/2022 1:30:00 AM 22.27 72.086 0.171 7.07 22.51 7.5
8/20/2022 1:45:00 AM 22.25 72.05 0.171 7.07 48.11 7.49
8/20/2022 2:00:00 AM 22.23 72.014 0.17 7.06 26.04 7.51
8/20/2022 2:15:00 AM 22.21 71.978 0.17 7.08 73.35 7.48
8/20/2022 2:30:00 AM 22.19 71.942 0.17 7.07 31.82 7.51
8/20/2022 2:45:00 AM 22.16 71.888 0.171 7.08 50.6 7.52
8/20/2022 3:00:00 AM 22.15 71.87 0.171 7.05 26.8 7.53
8/20/2022 3:15:00 AM 22.15 71.87 0.171 7.06 22.02 7.53
8/20/2022 3:30:00 AM 22.14 71.852 0.17 7.04 26 7.52
8/20/2022 3:45:00 AM 22.13 71.834 0.17 7.06 29.46 7.49
8/20/2022 4:00:00 AM 22.12 71.816 0.17 7.06 39.43 7.51
8/20/2022 4:15:00 AM 22.11 71.798 0.17 7.06 304.2 7.49
8/20/2022 4:30:00 AM 22.1 71.78 0.17 7.07 80.44 7.48
8/20/2022 4:45:00 AM 22.07 71.726 0.17 7.05 34.88 7.49
8/20/2022 5:00:00 AM 22.05 71.69 0.171 7.04 230.2 7.51
8/20/2022 5:15:00 AM 22.02 71.636 0.171 7.05 81.16 7.52
8/20/2022 5:30:00 AM 21.99 71.582 0.171 7.04 34.6 7.5
8/20/2022 5:45:00 AM 21.98 71.564 0.171 7.04 31.08 7.52
8/20/2022 6:00:00 AM 21.96 71.528 0.171 7.05 48.12 7.53
8/20/2022 6:15:00 AM 21.94 71.492 0.171 7.05 37.41 7.54
8/20/2022 6:30:00 AM 21.9 71.42 0.171 7.05 33.71 7.53
8/20/2022 6:45:00 AM 21.87 71.366 0.171 7.04 35.03 7.54
8/20/2022 7:00:00 AM 21.84 71.312 0.17 7.04 38.36 7.55
8/20/2022 7:15:00 AM 21.8 71.24 0.17 7.05 37.65 7.57
8/20/2022 7:30:00 AM 21.79 71.222 0.171 7.04 38.23 7.59
8/20/2022 7:45:00 AM 21.77 71.186 0.171 7.04 36.91 7.62
8/20/2022 8:00:00 AM 21.78 71.204 0.171 7.05 35.19 7.67
8/20/2022 8:15:00 AM 21.8 71.24 0.171 7.04 37.26 7.68
8/20/2022 8:30:00 AM 21.82 71.276 0.171 7.06 40.13 7.72
8/20/2022 8:45:00 AM 21.86 71.348 0.171 7.04 33.08 7.76
8/20/2022 9:00:00 AM 21.89 71.402 0.171 7.04 16.17 7.79
8/20/2022 9:15:00 AM 21.95 71.51 0.171 7.03 21.41 7.84
8/20/2022 9:30:00 AM 22.01 71.618 0.171 7.06 14.83 7.91
8/20/2022 9:45:00 AM 22.06 71.708 0.171 7.06 14.87 7.98
8/20/2022 10:00:00 AM 22.15 71.87 0.171 7.07 14.16 8.05
8/20/2022 10:15:00 AM 22.25 72.05 0.171 7.08 14.63 8.11
8/20/2022 10:30:00 AM 22.37 72.266 0.171 7.08 12.29 8.19
8/20/2022 10:45:00 AM 22.51 72.518 0.171 7.09 13.24 8.22
8/20/2022 11:00:00 AM 22.67 72.806 0.171 7.1 13.28 8.28
8/20/2022 11:15:00 AM 22.86 73.148 0.17 7.11 12.01 8.31
8/20/2022 11:30:00 AM 23.05 73.49 0.17 7.09 67.67 8.4
8/20/2022 11:45:00 AM 23.26 73.868 0.17 7.09 11.77 8.45
8/20/2022 12:00:00 PM 23.47 74.246 0.171 7.08 11.45 8.47
8/20/2022 12:15:00 PM 23.66 74.588 0.171 7.1 192.9 8.53
8/20/2022 12:30:00 PM 23.85 74.93 0.171 7.12 17.53 8.54
8/20/2022 12:45:00 PM 24.05 75.29 0.171 7.12 12.88 8.58
8/20/2022 1:00:00 PM 24.26 75.668 0.171 7.12 11.74 8.59
8/20/2022 1:15:00 PM 24.46 76.028 0.171 7.14 10.19 8.58
8/20/2022 1:30:00 PM 24.59 76.262 0.171 7.12 11.43 8.56
8/20/2022 1:45:00 PM 24.77 76.586 0.172 7.14 11.91 8.53
8/20/2022 2:00:00 PM 24.98 76.964 0.172 7.12 42.98 8.48
8/20/2022 2:15:00 PM 25.14 77.252 0.172 7.12 14.35 8.48
8/20/2022 2:30:00 PM 25.2 77.36 0.172 7.13 15.2 8.5
8/20/2022 2:45:00 PM 25.25 77.45 0.172 7.13 15.83 8.44
8/20/2022 3:00:00 PM 25.39 77.702 0.172 7.14 11.26 8.43
8/20/2022 3:15:00 PM 25.52 77.936 0.172 7.13 14.55 8.38
8/20/2022 3:30:00 PM 25.63 78.134 0.172 7.15 11.45 8.35
8/20/2022 3:45:00 PM 25.69 78.242 0.172 7.14 13.94 8.29
8/20/2022 4:00:00 PM 25.69 78.242 0.172 7.12 28.17 8.23
8/20/2022 4:15:00 PM 25.76 78.368 0.172 7.11 15.05 8.13
8/20/2022 4:30:00 PM 25.8 78.44 0.172 7.11 11.77 8.01
8/20/2022 4:45:00 PM 25.8 78.44 0.172 7.12 12.64 7.98
8/20/2022 5:00:00 PM 25.71 78.278 0.172 7.14 17.23 7.93
8/20/2022 5:15:00 PM 25.68 78.224 0.172 7.16 14.99 7.88
8/20/2022 5:30:00 PM 25.67 78.206 0.172 7.14 12.57 7.8
8/20/2022 5:45:00 PM 25.65 78.17 0.172 7.17 12.57 7.74
8/20/2022 6:00:00 PM 25.61 78.098 0.172 7.16 12.93 7.71
8/20/2022 6:15:00 PM 25.59 78.062 0.172 7.16 13.57 7.65
8/20/2022 6:30:00 PM 25.53 77.954 0.172 7.15 14.97 7.61
8/20/2022 6:45:00 PM 25.48 77.864 0.172 7.16 13.89 7.55
8/20/2022 7:00:00 PM 25.43 77.774 0.172 7.14 17.42 7.52
8/20/2022 7:15:00 PM 25.34 77.612 0.172 7.14 15.31 7.49
8/20/2022 7:30:00 PM 25.21 77.378 0.172 7.15 17.99 7.46
8/20/2022 7:45:00 PM 25.11 77.198 0.172 7.14 19.06 7.41
8/20/2022 8:00:00 PM 25 77 0.172 7.16 16.82 7.37
8/20/2022 8:15:00 PM 24.85 76.73 0.172 7.15 63.53 7.37
8/20/2022 8:30:00 PM 24.69 76.442 0.172 7.14 31.91 7.37
8/20/2022 8:45:00 PM 24.54 76.172 0.172 7.14 36.09 7.34
8/20/2022 9:00:00 PM 24.41 75.938 0.171 7.15 66.71 7.32
8/20/2022 9:15:00 PM 24.25 75.65 0.171 7.13 48.53 7.3
8/20/2022 9:30:00 PM 24.09 75.362 0.171 7.14 45.36 7.31
8/20/2022 9:45:00 PM 23.94 75.092 0.171 7.12 32.02 7.3
8/20/2022 10:00:00 PM 23.77 74.786 0.171 7.12 43.59 7.3
8/20/2022 10:15:00 PM 23.62 74.516 0.171 7.13 30.46 7.31
8/20/2022 10:30:00 PM 23.48 74.264 0.171 7.12 31.61 7.32
8/20/2022 10:45:00 PM 23.35 74.03 0.171 7.12 34.78 7.32
8/20/2022 11:00:00 PM 23.23 73.814 0.17 7.12 53.44 7.35
8/20/2022 11:15:00 PM 23.11 73.598 0.17 7.12 378.8 7.34
8/20/2022 11:30:00 PM 23.01 73.418 0.17 7.11 64.05 7.34
8/20/2022 11:45:00 PM 22.92 73.256 0.17 7.12 47.78 7.35
8/21/2022 12:00:00 AM 22.82 73.076 0.17 7.11 38.77 7.39
8/21/2022 12:15:00 AM 22.74 72.932 0.17 7.12 49.95 7.4
8/21/2022 12:30:00 AM 22.66 72.788 0.17 7.11 74.13 7.43
8/21/2022 12:45:00 AM 22.6 72.68 0.17 7.1 32.21 7.43
8/21/2022 1:00:00 AM 22.54 72.57201 0.17 7.1 176.3 7.43
8/21/2022 1:15:00 AM 22.47 72.446 0.17 7.1 90.91 7.44
8/21/2022 1:30:00 AM 22.4 72.32 0.17 7.1 42.77 7.44
8/21/2022 1:45:00 AM 22.34 72.212 0.17 7.1 182.1 7.44
8/21/2022 2:00:00 AM 22.27 72.086 0.17 7.09 87.31 7.43
8/21/2022 2:15:00 AM 22.23 72.014 0.17 7.1 145.1 7.42
8/21/2022 2:30:00 AM 22.16 71.888 0.17 7.1 65.23 7.46
8/21/2022 2:45:00 AM 22.13 71.834 0.17 7.1 43.28 7.47
8/21/2022 3:00:00 AM 22.09 71.762 0.169 7.11 80.39 7.49
8/21/2022 3:15:00 AM 22.06 71.708 0.169 7.1 160.5 7.48
8/21/2022 3:30:00 AM 22.05 71.69 0.17 7.1 52.97 7.5
8/21/2022 3:45:00 AM 22 71.6 0.17 7.1 79.84 7.5
8/21/2022 4:00:00 AM 21.97 71.546 0.17 7.09 192.5 7.5
8/21/2022 4:15:00 AM 21.93 71.474 0.17 7.09 65.22 7.5
8/21/2022 4:30:00 AM 21.89 71.402 0.17 7.09 61.17 7.51
8/21/2022 4:45:00 AM 21.87 71.366 0.17 7.07 67.96 7.51
8/21/2022 5:00:00 AM 21.82 71.276 0.17 7.07 82.93 7.51
8/21/2022 5:15:00 AM 21.81 71.258 0.17 7.08 121.2 7.52
8/21/2022 5:30:00 AM 21.79 71.222 0.17 7.07 157.7 7.53
8/21/2022 5:45:00 AM 21.73 71.114 0.17 7.08 322.2 7.52
8/21/2022 6:00:00 AM 21.71 71.078 0.17 7.07 53.19 7.53
8/21/2022 6:15:00 AM 21.7 71.06 0.17 7.06 45.79 7.55
8/21/2022 6:30:00 AM 21.67 71.006 0.17 7.08 39.96 7.52
8/21/2022 6:45:00 AM 21.64 70.952 0.17 7.07 205.1 7.56
8/21/2022 7:00:00 AM 21.6 70.88 0.17 7.07 119.3 7.57
8/21/2022 7:15:00 AM 21.62 70.916 0.169 7.07 175.6 7.59
8/21/2022 7:30:00 AM 21.6 70.88 0.17 7.09 217.5 7.61
8/21/2022 7:45:00 AM 21.62 70.916 0.17 7.1 63.97 7.65
8/21/2022 8:00:00 AM 21.62 70.916 0.17 7.09 55.97 7.67
8/21/2022 8:15:00 AM 21.66 70.988 0.17 7.08 84.96 7.71
8/21/2022 8:30:00 AM 21.68 71.024 0.17 7.1 76.87 7.73
8/21/2022 8:45:00 AM 21.73 71.114 0.17 7.1 114 7.78
8/21/2022 9:00:00 AM 21.79 71.222 0.17 7.1 63.85 7.84
8/21/2022 9:15:00 AM 21.86 71.348 0.17 7.1 46.97 7.86
8/21/2022 9:30:00 AM 21.96 71.528 0.17 7.11 50.5 7.94
8/21/2022 9:45:00 AM 22.04 71.672 0.17 7.11 201.9 8.02
8/21/2022 10:00:00 AM 22.15 71.87 0.17 7.12 128.1 8.1
8/21/2022 10:15:00 AM 22.23 72.014 0.17 7.12 124.2 8.14
8/21/2022 10:30:00 AM 22.32 72.176 0.17 7.08 332.6 8.21
8/21/2022 10:45:00 AM 22.5 72.5 0.17 7.08 85.62 8.28
8/21/2022 11:00:00 AM 22.6 72.68 0.17 7.09 351 8.33
8/21/2022 11:15:00 AM 22.73 72.914 0.17 7.11 279.7 8.41
8/21/2022 11:30:00 AM 22.86 73.148 0.17 7.11 134.7 8.42
8/21/2022 11:45:00 AM 23 73.4 0.17 7.11 322.4 8.47
8/21/2022 12:00:00 PM 23.15 73.67 0.17 7.11 149.4 8.5
8/21/2022 12:15:00 PM 23.26 73.868 0.17 7.12 228.5 8.58
8/21/2022 12:30:00 PM 23.38 74.084 0.171 7.15 551.2 8.62
8/21/2022 12:45:00 PM 23.58 74.444 0.171 7.13 72.43 8.68
8/21/2022 1:00:00 PM 23.75 74.75 0.171 7.15 156.7 8.7
8/21/2022 1:15:00 PM 23.95 75.11 0.171 7.13 183 8.73
8/21/2022 1:30:00 PM 24.15 75.47 0.171 7.14 60.83 8.74
8/21/2022 1:45:00 PM 24.3 75.74 0.171 7.15 314.8 8.74
8/21/2022 2:00:00 PM 24.42 75.956 0.171 7.16 45.18 8.72
8/21/2022 2:15:00 PM 24.53 76.154 0.171 7.17 71.83 8.73
8/21/2022 2:30:00 PM 24.56 76.208 0.172 7.16 596.5 8.67
8/21/2022 2:45:00 PM 24.59 76.262 0.173 7.18 81.05 8.65
8/21/2022 3:00:00 PM 24.63 76.334 0.173 7.18 133.2 8.61
8/21/2022 3:15:00 PM 24.67 76.406 0.173 7.19 566.1 8.58
8/21/2022 3:30:00 PM 24.72 76.496 0.173 7.19 35.69 8.51
8/21/2022 3:45:00 PM 24.74 76.532 0.173 7.19 42.04 8.44
8/21/2022 4:00:00 PM 24.77 76.586 0.173 7.2 21.6 8.36
8/21/2022 4:15:00 PM 24.8 76.64 0.173 7.21 86.23 8.26
8/21/2022 4:30:00 PM 24.79 76.622 0.172 7.21 38.09 8.19
8/21/2022 4:45:00 PM 24.79 76.622 0.172 7.22 37.58 8.09
8/21/2022 5:00:00 PM 24.73 76.514 0.172 7.22 68.2 8.07
8/21/2022 5:15:00 PM 24.66 76.388 0.172 7.21 105.1 8.06
8/21/2022 5:30:00 PM 24.61 76.298 0.172 7.2 181.5 8.01
8/21/2022 5:45:00 PM 24.53 76.154 0.172 7.19 254 7.99
8/21/2022 6:00:00 PM 24.49 76.082 0.172 7.2 95.35 7.93
8/21/2022 6:15:00 PM 24.42 75.956 0.172 7.2 139.2 7.9
8/21/2022 6:30:00 PM 24.36 75.848 0.172 7.21 164.9 7.86
8/21/2022 6:45:00 PM 24.3 75.74 0.172 7.2 132.7 7.8
8/21/2022 7:00:00 PM 24.24 75.632 0.172 7.2 107.8 7.73
8/21/2022 7:15:00 PM 24.14 75.452 0.172 7.18 56.43 7.71
8/21/2022 7:30:00 PM 24.04 75.272 0.172 7.2 83.99 7.66
8/21/2022 7:45:00 PM 23.96 75.128 0.172 7.2 82.39 7.62
8/21/2022 8:00:00 PM 23.86 74.948 0.172 7.18 398 7.59
8/21/2022 8:15:00 PM 23.76 74.768 0.172 7.18 36.41 7.56
8/21/2022 8:30:00 PM 23.68 74.624 0.172 7.18 212.4 7.52
8/21/2022 8:45:00 PM 23.57 74.426 0.172 7.16 34.9 7.5
8/21/2022 9:00:00 PM 23.5 74.3 0.172 7.17 48.88 7.43
8/21/2022 9:15:00 PM 23.42 74.156 0.172 7.17 78.52 7.41
8/21/2022 9:30:00 PM 23.32 73.976 0.171 7.16 92.97 7.43
8/21/2022 9:45:00 PM 23.24 73.832 0.171 7.16 485.4 7.42
8/21/2022 10:00:00 PM 23.15 73.67 0.171 7.16 94.15 7.39
8/21/2022 10:15:00 PM 23.07 73.526 0.171 7.16 75.3 7.42
8/21/2022 10:30:00 PM 23.01 73.418 0.171 7.12 30.19 7.42
8/21/2022 10:45:00 PM 22.95 73.31 0.171 7.12 161.5 7.39
8/21/2022 11:00:00 PM 22.89 73.202 0.171 7.12 37.45 7.4
8/21/2022 11:15:00 PM 22.85 73.13 0.171 7.13 115.4 7.39
8/21/2022 11:30:00 PM 22.81 73.058 0.171 7.13 571.7 7.36
8/21/2022 11:45:00 PM 22.78 73.004 0.171 7.11 405 7.38
8/22/2022 12:00:00 AM 22.74 72.932 0.171 7.1 68.34 7.37
8/22/2022 12:15:00 AM 22.71 72.878 0.171 7.12 198.8 7.36
8/22/2022 12:30:00 AM 22.68 72.824 0.171 7.12 241.3 7.38
8/22/2022 12:45:00 AM 22.66 72.788 0.171 7.1 60.35 7.41
8/22/2022 1:00:00 AM 22.64 72.752 0.171 7.11 210.4 7.4
8/22/2022 1:15:00 AM 22.62 72.716 0.171 7.11 78.74 7.39
8/22/2022 1:30:00 AM 22.6 72.68 0.171 7.1 104.1 7.4
8/22/2022 1:45:00 AM 22.57 72.626 0.171 7.11 141.7 7.38
8/22/2022 2:00:00 AM 22.56 72.608 0.171 7.11 50.87 7.4
8/22/2022 2:15:00 AM 22.55 72.59 0.171 7.1 46.93 7.38
8/22/2022 2:30:00 AM 22.52 72.536 0.171 7.1 169.6 7.4
8/22/2022 2:45:00 AM 22.48 72.464 0.171 7.09 89.96 7.38
8/22/2022 3:00:00 AM 22.46 72.42799 0.171 7.11 56.11 7.37
8/22/2022 3:15:00 AM 22.43 72.374 0.171 7.09 42.55 7.38
8/22/2022 3:30:00 AM 22.42 72.356 0.171 7.1 291.1 7.38
8/22/2022 3:45:00 AM 22.4 72.32 0.171 7.1 117.9 7.38
8/22/2022 4:00:00 AM 22.38 72.284 0.171 7.11 223.8 7.39
8/22/2022 4:15:00 AM 22.35 72.23 0.171 7.09 51.54 7.37
8/22/2022 4:30:00 AM 22.33 72.194 0.171 7.1 258.1 7.38
8/22/2022 4:45:00 AM 22.31 72.158 0.171 7.11 75.27 7.4
8/22/2022 5:00:00 AM 22.29 72.122 0.171 7.09 75.38 7.41
8/22/2022 5:15:00 AM 22.27 72.086 0.171 7.09 57.11 7.43
8/22/2022 5:30:00 AM 22.26 72.068 0.171 7.1 344.9 7.42
8/22/2022 5:45:00 AM 22.25 72.05 0.171 7.1 235.9 7.45
8/22/2022 6:00:00 AM 22.25 72.05 0.171 7.1 76.82 7.45
8/22/2022 6:15:00 AM 22.23 72.014 0.171 7.09 278.1 7.44
8/22/2022 6:30:00 AM 22.23 72.014 0.171 7.08 82.22 7.45
8/22/2022 6:45:00 AM 22.22 71.996 0.171 7.1 191.2 7.44
8/22/2022 7:00:00 AM 22.22 71.996 0.171 7.1 178.3 7.45
8/22/2022 7:15:00 AM 22.22 71.996 0.171 7.09 247.6 7.47
8/22/2022 7:30:00 AM 22.2 71.96 0.171 7.1 62.57 7.48
8/22/2022 7:45:00 AM 22.2 71.96 0.171 7.1 56.69 7.49
8/22/2022 8:00:00 AM 22.2 71.96 0.171 7.09 98.67 7.5
8/22/2022 8:15:00 AM 22.21 71.978 0.171 7.1 251.9 7.52
8/22/2022 8:30:00 AM 22.21 71.978 0.171 7.09 303.7 7.55
8/22/2022 8:45:00 AM 22.22 71.996 0.171 7.11 284.4 7.54
8/22/2022 9:00:00 AM 22.23 72.014 0.171 7.11 81.97 7.55
8/22/2022 9:15:00 AM 22.25 72.05 0.171 7.08 48.72 7.58
8/22/2022 9:30:00 AM 22.28 72.104 0.171 7.1 64.64 7.64
8/22/2022 9:45:00 AM 22.31 72.158 0.171 7.11 211.9 7.67
8/22/2022 10:00:00 AM 22.32 72.176 0.171 7.1 144.9 7.72
8/22/2022 10:15:00 AM 22.34 72.212 0.172 7.09 300.2 7.75
8/22/2022 10:30:00 AM 22.48 72.464 0.171 7.1 273.8 7.87
8/22/2022 10:45:00 AM 22.53 72.554 0.172 7.1 539.8 7.91
8/22/2022 11:00:00 AM 22.67 72.806 0.171 7.13 659.9 8.02
8/22/2022 11:15:00 AM 22.75 72.95 0.172 7.11 855.9 8.1
8/22/2022 11:30:00 AM 22.82 73.076 0.172 7.13 732.9 8.15
8/22/2022 11:45:00 AM 22.89 73.202 0.172 7.13 1141 8.18
8/22/2022 12:00:00 PM 22.9 73.22 0.172 7.14 584.1 8.18
8/22/2022 12:15:00 PM 22.88 73.184 0.172 7.14 883.4 8.14
8/22/2022 12:30:00 PM 22.89 73.202 0.172 7.12 392.8 8.1
8/22/2022 12:45:00 PM 22.89 73.202 0.172 7.14 302.6 8.04
8/22/2022 1:00:00 PM 22.94 73.292 0.171 7.12 116.2 8.06
8/22/2022 1:15:00 PM 23 73.4 0.171 7.14 1043 8.05
8/22/2022 1:30:00 PM 23.13 73.634 0.171 7.16 973.8 8.04
8/22/2022 1:45:00 PM 23.35 74.03 0.171 7.14 1283 8.05
8/22/2022 2:00:00 PM 23.56 74.408 0.171 7.14 311.5 8.08
8/22/2022 2:15:00 PM 23.71 74.67799 0.171 7.15 385.8 8.15
8/22/2022 2:30:00 PM 23.77 74.786 0.171 7.17 1415 8.16
8/22/2022 2:45:00 PM 23.82 74.876 0.172 7.17 587.7 8.18
8/22/2022 3:00:00 PM 23.83 74.894 0.172 7.15 219.9 8.14
8/22/2022 3:15:00 PM 23.87 74.966 0.172 7.15 143.7 8.12
8/22/2022 3:30:00 PM 23.9 75.02 0.172 7.17 528.5 8.08
8/22/2022 3:45:00 PM 23.96 75.128 0.172 7.16 541.7 8.05
8/22/2022 4:00:00 PM 24.03 75.254 0.172 7.18 721.6 8
8/22/2022 4:15:00 PM 24.04 75.272 0.172 7.15 815.5 7.98
8/22/2022 4:30:00 PM 24.02 75.236 0.172 7.16 398.3 7.92
8/22/2022 4:45:00 PM 23.93 75.074 0.172 7.17 85.53 7.86
8/22/2022 5:00:00 PM 23.65 74.57 0.171 7.17 122.8 7.89
8/22/2022 5:15:00 PM 23.43 74.174 0.17 7.15 766.8 7.83
8/22/2022 5:30:00 PM 23.35 74.03 0.168 7.17 561.8 7.76
8/22/2022 5:45:00 PM 23.21 73.778 0.165 7.19 478.7 7.62
8/22/2022 6:00:00 PM 22.29 72.122 0.145 7.19 798.3 7.96
8/22/2022 6:15:00 PM 22.28 72.104 0.122 7.19 1011 7.86
8/22/2022 6:30:00 PM 22.07 71.726 0.111 7.17 954.8 7.8
8/22/2022 6:45:00 PM 21.93 71.474 0.108 7.14 1020 7.81
8/22/2022 7:00:00 PM 21.76 71.168 0.105 7.11 1214 7.83
8/22/2022 7:15:00 PM 21.71 71.078 0.102 7.1 954.9 7.85
8/22/2022 7:30:00 PM 21.72 71.096 0.099 7.12 811.4 7.83
8/22/2022 7:45:00 PM 21.77 71.186 0.096 7.1 615.2 7.82
8/22/2022 8:00:00 PM 21.86 71.348 0.1 7.08 549.2 7.79
8/22/2022 8:15:00 PM 21.98 71.564 0.107 7.05 454.2 7.77
8/22/2022 8:30:00 PM 22.09 71.762 0.115 7.06 379.3 7.73
8/22/2022 8:45:00 PM 22.12 71.816 0.119 7.07 308.3 7.67
8/22/2022 9:00:00 PM 22.09 71.762 0.119 7.05 312 7.63
8/22/2022 9:15:00 PM 22.01 71.618 0.118 7.05 276.6 7.59
8/22/2022 9:30:00 PM 21.92 71.456 0.116 7.05 277.7 7.55
8/22/2022 9:45:00 PM 21.84 71.312 0.115 7.04 259.4 7.52
8/22/2022 10:00:00 PM 21.77 71.186 0.115 7.02 227.1 7.51
8/22/2022 10:15:00 PM 21.71 71.078 0.116 7.01 232.2 7.47
8/22/2022 10:30:00 PM 21.66 70.988 0.116 7 231.7 7.44
8/22/2022 10:45:00 PM 21.62 70.916 0.117 6.98 218.8 7.43
8/22/2022 11:00:00 PM 21.58 70.844 0.119 6.99 220 7.4
8/22/2022 11:15:00 PM 21.55 70.79 0.119 6.98 225.3 7.4
8/22/2022 11:30:00 PM 21.53 70.754 0.122 6.97 225.9 7.37
8/22/2022 11:45:00 PM 21.5 70.7 0.124 6.97 237.4 7.37
8/23/2022 12:00:00 AM 21.48 70.664 0.126 6.96 209.9 7.36
8/23/2022 12:15:00 AM 21.46 70.628 0.127 6.95 205.9 7.33
8/23/2022 12:30:00 AM 21.44 70.592 0.13 6.96 193.8 7.33
8/23/2022 12:45:00 AM 21.42 70.556 0.132 6.95 178.8 7.3
8/23/2022 1:00:00 AM 21.4 70.52 0.134 6.96 176.5 7.31
8/23/2022 1:15:00 AM 21.38 70.484 0.134 6.94 148.9 7.29
8/23/2022 1:30:00 AM 21.36 70.448 0.133 6.96 161.4 7.31
8/23/2022 1:45:00 AM 21.33 70.394 0.132 6.95 169 7.33
8/23/2022 2:00:00 AM 21.28 70.304 0.131 6.99 173.4 7.34
8/23/2022 2:15:00 AM 21.24 70.232 0.132 7 167.3 7.36
8/23/2022 2:30:00 AM 21.2 70.16 0.133 7.01 168.1 7.36
8/23/2022 2:45:00 AM 21.17 70.106 0.135 7.01 146.7 7.37
8/23/2022 3:00:00 AM 21.15 70.07 0.137 7.04 152.3 7.39
8/23/2022 3:15:00 AM 21.13 70.034 0.141 7.04 126.3 7.41
8/23/2022 3:30:00 AM 21.11 69.998 0.144 7.03 4048 7.43
8/23/2022 3:45:00 AM 21.09 69.962 0.146 7.03 106 7.43
8/23/2022 4:00:00 AM 21.07 69.926 0.149 7.04 108.7 7.44
8/23/2022 4:15:00 AM 21.03 69.854 0.151 7.05 107 7.46
8/23/2022 4:30:00 AM 21 69.8 0.154 7.04 103 7.48
8/23/2022 4:45:00 AM 20.96 69.728 0.156 7.04 93.54 7.49
8/23/2022 5:00:00 AM 20.94 69.692 0.159 7.05 80.95 7.49
8/23/2022 5:15:00 AM 20.91 69.638 0.161 7.06 83.32 7.53
8/23/2022 5:30:00 AM 20.89 69.602 0.164 7.06 64.01 7.54
8/23/2022 5:45:00 AM 20.87 69.566 0.167 7.07 72.02 7.55
8/23/2022 6:00:00 AM 20.86 69.548 0.169 7.07 72.3 7.58
8/23/2022 6:15:00 AM 20.85 69.53 0.171 7.08 70.32 7.58
8/23/2022 6:30:00 AM 20.83 69.494 0.173 7.08 78.77 7.61
8/23/2022 6:45:00 AM 20.79 69.422 0.175 7.08 69 7.63
8/23/2022 7:00:00 AM 20.78 69.404 0.176 7.08 60.66 7.63
8/23/2022 7:15:00 AM 20.75 69.35 0.177 7.09 64.26 7.65
8/23/2022 7:30:00 AM 20.75 69.35 0.178 7.09 53.94 7.68
8/23/2022 7:45:00 AM 20.75 69.35 0.179 7.1 44.26 7.69
8/23/2022 8:00:00 AM 20.75 69.35 0.18 7.1 47.77 7.72
8/23/2022 8:15:00 AM 20.78 69.404 0.18 7.1 43.55 7.74
8/23/2022 8:30:00 AM 20.8 69.44 0.181 7.08 44.62 7.75
8/23/2022 8:45:00 AM 20.84 69.512 0.181 7.07 42.65 7.79
8/23/2022 9:00:00 AM 20.88 69.584 0.182 7.07 38.77 7.81
8/23/2022 9:15:00 AM 20.94 69.692 0.182 7.09 32.74 7.86
8/23/2022 9:30:00 AM 20.98 69.764 0.182 7.09 32.01 7.87
8/23/2022 9:45:00 AM 21.05 69.89 0.182 7.11 30.43 7.89
8/23/2022 10:00:00 AM 21.14 70.052 0.182 7.12 27.74 7.93
8/23/2022 10:15:00 AM 21.28 70.304 0.182 7.13 31.38 7.95
8/23/2022 10:30:00 AM 21.41 70.538 0.182 7.14 32.18 7.97
8/23/2022 10:45:00 AM 21.59 70.862 0.181 7.14 36.68 7.99
8/23/2022 11:00:00 AM 21.81 71.258 0.181 7.14 48.77 7.97
8/23/2022 11:15:00 AM 21.97 71.546 0.181 7.14 44.03 7.97
8/23/2022 11:30:00 AM 22.1 71.78 0.181 7.14 42.79 7.99
8/23/2022 11:45:00 AM 22.27 72.086 0.181 7.13 35.47 7.99
8/23/2022 12:00:00 PM 22.5 72.5 0.18 7.15 46.38 8
8/23/2022 12:15:00 PM 22.73 72.914 0.18 7.14 42.56 8.03
8/23/2022 12:30:00 PM 22.97 73.346 0.179 7.14 43.01 8.02
8/23/2022 12:45:00 PM 23.19 73.742 0.179 7.15 46.12 8.01
8/23/2022 1:00:00 PM 23.47 74.246 0.179 7.15 37.81 8
8/23/2022 1:15:00 PM 23.64 74.552 0.18 7.15 39.27 8
8/23/2022 1:30:00 PM 23.76 74.768 0.18 7.15 40.95 7.99
8/23/2022 1:45:00 PM 23.83 74.894 0.18 7.16 34.94 7.96
8/23/2022 2:00:00 PM 23.89 75.002 0.18 7.15 30.23 7.95
8/23/2022 2:15:00 PM 23.87 74.966 0.18 7.14 47.3 7.95
8/23/2022 2:30:00 PM 23.98 75.164 0.18 7.15 44.2 7.92
8/23/2022 2:45:00 PM 24.07 75.326 0.18 7.16 38.38 7.87
8/23/2022 3:00:00 PM 24.17 75.506 0.18 7.16 37.4 7.84
8/23/2022 3:15:00 PM 24.11 75.398 0.181 7.16 39.46 7.84
8/23/2022 3:30:00 PM 24.18 75.524 0.181 7.15 36.43 7.83
8/23/2022 3:45:00 PM 24.26 75.668 0.181 7.15 43.06 7.82
8/23/2022 4:00:00 PM 24.18 75.524 0.182 7.16 42.07 7.82
8/23/2022 4:15:00 PM 24.19 75.542 0.182 7.17 56.87 7.81
8/23/2022 4:30:00 PM 24.16 75.488 0.183 7.16 41.52 7.81
8/23/2022 4:45:00 PM 24.17 75.506 0.183 7.17 40.29 7.8
8/23/2022 5:00:00 PM 24.1 75.38 0.183 7.16 46.76 7.76
8/23/2022 5:15:00 PM 24.07 75.326 0.183 7.17 46.95 7.73
8/23/2022 5:30:00 PM 24.08 75.344 0.183 7.17 48.72 7.67
8/23/2022 5:45:00 PM 24.1 75.38 0.182 7.17 46.65 7.65
8/23/2022 6:00:00 PM 24.06 75.308 0.181 7.17 48.42 7.62
8/23/2022 6:15:00 PM 24.05 75.29 0.181 7.17 43.35 7.58
8/23/2022 6:30:00 PM 23.98 75.164 0.18 7.16 44.89 7.55
8/23/2022 6:45:00 PM 23.86 74.948 0.18 7.16 43.2 7.53
8/23/2022 7:00:00 PM 23.77 74.786 0.179 7.17 47.62 7.53
8/23/2022 7:15:00 PM 23.66 74.588 0.178 7.17 49.51 7.5
8/23/2022 7:30:00 PM 23.6 74.48 0.177 7.16 55.05 7.49
8/23/2022 7:45:00 PM 23.54 74.372 0.177 7.13 46.67 7.47
8/23/2022 8:00:00 PM 23.46 74.228 0.176 7.12 48.57 7.45
8/23/2022 8:15:00 PM 23.38 74.084 0.175 7.15 51.73 7.42
8/23/2022 8:30:00 PM 23.29 73.922 0.174 7.13 52.89 7.43
8/23/2022 8:45:00 PM 23.21 73.778 0.173 7.13 62.17 7.43
8/23/2022 9:00:00 PM 23.09 73.562 0.173 7.13 59.55 7.45
8/23/2022 9:15:00 PM 23.01 73.418 0.172 7.12 57.55 7.45
8/23/2022 9:30:00 PM 22.92 73.256 0.172 7.12 68.08 7.45
8/23/2022 9:45:00 PM 22.84 73.112 0.172 7.12 58.18 7.45
8/23/2022 10:00:00 PM 22.77 72.986 0.171 7.11 53.98 7.45
8/23/2022 10:15:00 PM 22.71 72.878 0.171 7.11 65.7 7.45
8/23/2022 10:30:00 PM 22.65 72.77 0.17 7.1 85.5 7.46
8/23/2022 10:45:00 PM 22.62 72.716 0.17 7.1 78.18 7.46
8/23/2022 11:00:00 PM 22.58 72.644 0.169 7.09 70.9 7.43
8/23/2022 11:15:00 PM 22.53 72.554 0.169 7.1 75.77 7.47
8/23/2022 11:30:00 PM 22.47 72.446 0.169 7.09 93.36 7.49
8/23/2022 11:45:00 PM 22.43 72.374 0.169 7.09 67.18 7.48
8/24/2022 12:00:00 AM 22.39 72.302 0.169 7.1 74.6 7.5
8/24/2022 12:15:00 AM 22.36 72.248 0.169 7.1 82.36 7.5
8/24/2022 12:30:00 AM 22.34 72.212 0.169 7.08 83.97 7.49
8/24/2022 12:45:00 AM 22.31 72.158 0.169 7.09 74.84 7.49
8/24/2022 1:00:00 AM 22.29 72.122 0.168 7.1 75.66 7.5
8/24/2022 1:15:00 AM 22.26 72.068 0.168 7.09 69.83 7.49
8/24/2022 1:30:00 AM 22.24 72.032 0.168 7.09 482.3 7.49
8/24/2022 1:45:00 AM 22.2 71.96 0.168 7.1 533.1 7.48
8/24/2022 2:00:00 AM 22.16 71.888 0.168 7.09 369.7 7.53
8/24/2022 2:15:00 AM 22.12 71.816 0.168 7.1 328.9 7.53
8/24/2022 2:30:00 AM 22.09 71.762 0.168 7.08 324.3 7.55
8/24/2022 2:45:00 AM 22.08 71.744 0.168 7.09 334.6 7.56
8/24/2022 3:00:00 AM 22.05 71.69 0.168 7.09 348.1 7.54
8/24/2022 3:15:00 AM 22.03 71.654 0.168 7.09 391.8 7.57
8/24/2022 3:30:00 AM 22.02 71.636 0.168 7.09 370.9 7.55
8/24/2022 3:45:00 AM 22.01 71.618 0.168 7.09 397.3 7.57
8/24/2022 4:00:00 AM 21.97 71.546 0.168 7.09 431.3 7.58
8/24/2022 4:15:00 AM 21.93 71.474 0.168 7.09 411.8 7.6
8/24/2022 4:30:00 AM 21.89 71.402 0.168 7.08 488 7.59
8/24/2022 4:45:00 AM 21.86 71.348 0.169 7.08 462.6 7.61
8/24/2022 5:00:00 AM 21.83 71.294 0.168 7.09 492.2 7.6
8/24/2022 5:15:00 AM 21.79 71.222 0.168 7.1 500.6 7.62
8/24/2022 5:30:00 AM 21.77 71.186 0.168 7.09 543.2 7.62
8/24/2022 5:45:00 AM 21.73 71.114 0.168 7.09 600.7 7.64
8/24/2022 6:00:00 AM 21.71 71.078 0.168 7.09 521.7 7.64
8/24/2022 6:15:00 AM 21.68 71.024 0.168 7.09 582.5 7.64
8/24/2022 6:30:00 AM 21.63 70.934 0.168 7.09 581.1 7.66
8/24/2022 6:45:00 AM 21.56 70.808 0.168 7.08 622.7 7.66
8/24/2022 7:00:00 AM 21.51 70.718 0.168 7.1 810 7.67
8/24/2022 7:15:00 AM 21.5 70.7 0.168 7.09 412.7 7.69
8/24/2022 7:30:00 AM 21.47 70.646 0.169 7.1 423.1 7.7
8/24/2022 7:45:00 AM 21.45 70.61 0.168 7.11 443 7.71
8/24/2022 8:00:00 AM 21.46 70.628 0.168 7.09 421.8 7.75
8/24/2022 8:15:00 AM 21.49 70.682 0.168 7.1 435.8 7.76
8/24/2022 8:30:00 AM 21.51 70.718 0.168 7.1 477.4 7.8
8/24/2022 8:45:00 AM 21.57 70.826 0.168 7.1 457.2 7.82
8/24/2022 9:00:00 AM 21.59 70.862 0.169 7.1 447 7.89
8/24/2022 9:15:00 AM 21.66 70.988 0.169 7.1 465.8 7.94
8/24/2022 9:30:00 AM 21.77 71.186 0.169 7.09 548.5 7.97
8/24/2022 9:45:00 AM 21.91 71.438 0.169 7.11 509 8
8/24/2022 10:00:00 AM 22.04 71.672 0.169 7.11 617.2 8.03
8/24/2022 10:15:00 AM 22.21 71.978 0.169 7.11 554.8 8.05
8/24/2022 10:30:00 AM 22.36 72.248 0.169 7.12 598.3 8.1
8/24/2022 10:45:00 AM 22.54 72.57201 0.169 7.13 481.1 8.11
8/24/2022 11:00:00 AM 22.76 72.968 0.169 7.13 480.9 8.16
8/24/2022 11:15:00 AM 22.91 73.238 0.169 7.13 607.5 8.19
8/24/2022 11:30:00 AM 23.11 73.598 0.17 7.12 697.4 8.22
8/24/2022 11:45:00 AM 23.28 73.904 0.17 7.12 565.5 8.23
8/24/2022 12:00:00 PM 23.49 74.282 0.17 7.13 575.9 8.25
8/24/2022 12:15:00 PM 23.7 74.66 0.17 7.13 568.9 8.27
8/24/2022 12:30:00 PM 23.91 75.038 0.17 7.14 567.1 8.27
8/24/2022 12:45:00 PM 24.05 75.29 0.17 7.14 529 8.24
8/24/2022 1:00:00 PM 24.25 75.65 0.17 7.15 521.4 8.23
8/24/2022 1:15:00 PM 24.42 75.956 0.17 7.14 584.7 8.22
8/24/2022 1:30:00 PM 24.66 76.388 0.17 7.14 602.6 8.21
8/24/2022 1:45:00 PM 24.84 76.712 0.171 7.14 535.2 8.2
8/24/2022 2:00:00 PM 24.85 76.73 0.171 7.13 858.1 8.19
8/24/2022 2:15:00 PM 24.92 76.856 0.171 7.14 585.7 8.16
8/24/2022 2:30:00 PM 25.03 77.054 0.171 7.15 647.8 8.12
8/24/2022 2:45:00 PM 25.06 77.108 0.171 7.15 539.5 8.11
8/24/2022 3:00:00 PM 25.17 77.306 0.171 7.15 607.1 8.1
8/24/2022 3:15:00 PM 25.3 77.54 0.171 7.16 659.3 8.08
8/24/2022 3:30:00 PM 25.34 77.612 0.171 7.16 634.8 8.08
8/24/2022 3:45:00 PM 25.37 77.666 0.171 7.16 603.1 8.1
8/24/2022 4:00:00 PM 25.4 77.72 0.171 7.17 853.5 8.04
8/24/2022 4:15:00 PM 25.4 77.72 0.171 7.16 804.2 8.01
8/24/2022 4:30:00 PM 25.37 77.666 0.172 7.16 770.5 7.95
8/24/2022 4:45:00 PM 25.34 77.612 0.172 7.16 770 7.92
8/24/2022 5:00:00 PM 25.26 77.468 0.172 7.16 866.7 7.84
8/24/2022 5:15:00 PM 25.23 77.414 0.172 7.15 915.7 7.78
8/24/2022 5:30:00 PM 25.13 77.234 0.172 7.13 1035 7.77
8/24/2022 5:45:00 PM 25.05 77.09 0.172 7.13 1095 7.71
8/24/2022 6:00:00 PM 24.97 76.946 0.172 7.14 870.8 7.68
8/24/2022 6:15:00 PM 24.92 76.856 0.172 7.13 984.5 7.65
8/24/2022 6:30:00 PM 24.83 76.694 0.171 7.11 883.8 7.62
8/24/2022 6:45:00 PM 24.68 76.424 0.172 7.13 788.7 7.62
8/24/2022 7:00:00 PM 24.52 76.136 0.172 7.12 890.1 7.61
8/24/2022 7:15:00 PM 24.41 75.938 0.172 7.13 823.1 7.59
8/24/2022 7:30:00 PM 24.28 75.704 0.171 7.11 1077 7.58
8/24/2022 7:45:00 PM 24.15 75.47 0.171 7.12 914.9 7.57
8/24/2022 8:00:00 PM 24.01 75.218 0.171 7.11 947.7 7.54
8/24/2022 8:15:00 PM 23.88 74.984 0.171 7.11 1048 7.53
8/24/2022 8:30:00 PM 23.75 74.75 0.171 7.1 1010 7.52
8/24/2022 8:45:00 PM 23.62 74.516 0.171 7.1 2016 7.51
8/24/2022 9:00:00 PM 23.47 74.246 0.171 7.1 1089 7.51
8/24/2022 9:15:00 PM 23.31 73.958 0.171 7.09 1205 7.53
8/24/2022 9:30:00 PM 23.16 73.688 0.171 7.09 1146 7.52
8/24/2022 9:45:00 PM 23.04 73.472 0.171 7.1 1389 7.52
8/24/2022 10:00:00 PM 22.93 73.274 0.171 7.08 1320 7.54
8/24/2022 10:15:00 PM 22.84 73.112 0.171 7.09 1464 7.55
8/24/2022 10:30:00 PM 22.77 72.986 0.171 7.09 1773 7.55
8/24/2022 10:45:00 PM 22.7 72.86 0.171 7.08 1671 7.54
8/24/2022 11:00:00 PM 22.64 72.752 0.17 7.07 1853 7.54
8/24/2022 11:15:00 PM 22.59 72.662 0.17 7.09 2032 7.56
8/24/2022 11:30:00 PM 22.51 72.518 0.17 7.07 1648 7.58
8/24/2022 11:45:00 PM 22.45 72.41 0.171 7.07 1843 7.57
8/25/2022 12:00:00 AM 22.39 72.302 0.171 7.07 1973 7.58
8/25/2022 12:15:00 AM 22.35 72.23 0.171 7.05 2128 7.58
8/25/2022 12:30:00 AM 22.3 72.14 0.171 7.06 2700 7.57
8/25/2022 12:45:00 AM 22.27 72.086 0.171 7.06 2960 7.57
8/25/2022 1:00:00 AM 22.24 72.032 0.17 7.06 2134 7.58
8/25/2022 1:15:00 AM 22.22 71.996 0.17 7.07 2121 7.56
8/25/2022 1:30:00 AM 22.2 71.96 0.17 7.06 2263 7.59
8/25/2022 1:45:00 AM 22.18 71.924 0.17 7.06 2521 7.59
8/25/2022 2:00:00 AM 22.15 71.87 0.17 7.05 2787 7.61
8/25/2022 2:15:00 AM 22.11 71.798 0.17 7.07 2756 7.62
8/25/2022 2:30:00 AM 22.08 71.744 0.171 7.05 2969 7.62
8/25/2022 2:45:00 AM 22.05 71.69 0.171 7.05 3007 7.62
8/25/2022 3:00:00 AM 22.02 71.636 0.171 7.05 3264 7.63
8/25/2022 3:15:00 AM 21.99 71.582 0.171 7.05 3287 7.63
8/25/2022 3:30:00 AM 21.97 71.546 0.171 7.06 3371 7.61
8/25/2022 3:45:00 AM 21.96 71.528 0.17 7.06 3501 7.61
8/25/2022 4:00:00 AM 21.94 71.492 0.171 7.06 3523 7.6
8/25/2022 4:15:00 AM 21.89 71.402 0.171 7.05 3719 7.6
8/25/2022 4:30:00 AM 21.84 71.312 0.171 7.07 3858 7.62
8/25/2022 4:45:00 AM 21.82 71.276 0.171 7.06 3914 7.62
8/25/2022 5:00:00 AM 21.79 71.222 0.171 7.07 4044 7.65
8/25/2022 5:15:00 AM 21.77 71.186 0.171 7.04 4028 7.65
8/25/2022 5:30:00 AM 21.74 71.132 0.171 7.05 4048 7.64
8/25/2022 5:45:00 AM 21.73 71.114 0.171 7.04 4048 7.66
8/25/2022 6:00:00 AM 21.71 71.078 0.171 7.05 4048 7.66
8/25/2022 6:15:00 AM 21.7 71.06 0.171 7.05 4048 7.66
8/25/2022 6:30:00 AM 21.69 71.042 0.17 7.05 4048 7.66
8/25/2022 6:45:00 AM 21.65 70.97 0.17 7.05 4048 7.69
8/25/2022 7:00:00 AM 21.6 70.88 0.171 7.04 4048 7.69
8/25/2022 7:15:00 AM 21.56 70.808 0.171 7.04 4048 7.71
8/25/2022 7:30:00 AM 21.54 70.772 0.171 7.04 4048 7.71
8/25/2022 7:45:00 AM 21.54 70.772 0.171 7.03 4048 7.73
8/25/2022 8:00:00 AM 21.56 70.808 0.171 7.04 4048 7.75
8/25/2022 8:15:00 AM 21.59 70.862 0.17 7.05 4048 7.77
8/25/2022 8:30:00 AM 21.63 70.934 0.17 7.03 4048 7.77
8/25/2022 8:45:00 AM 21.69 71.042 0.17 7.04 4048 7.82
8/25/2022 9:00:00 AM 21.74 71.132 0.17 7.03 4048 7.87
8/25/2022 9:15:00 AM 21.79 71.222 0.17 7.05 4048 7.92
8/25/2022 9:30:00 AM 21.91 71.438 0.17 7.04 4048 7.96
8/25/2022 9:45:00 AM 22.06 71.708